<?xml version="1.0" encoding="UTF-8" standalone="no" ?>
<gpx xmlns="http://www.topografix.com/GPX/1/1" xmlns:xsi="http://www.w3.org/2001/XMLSchema-instance" xsi:schemaLocation="http://www.topografix.com/GPX/1/1 http://www.topografix.com/GPX/1/1/gpx.xsd" version="1.1" creator="VisuGPX - https://www.visugpx.com">
  <metadata>
    <name>Circuit VTT Alba Sceautres</name>
    <desc><![CDATA[Ce circuit est en projet et a été reconnu le 28 janvier 2012.
23km - D  700m - Difficile techniquement.
Sites remarquables : rocher de Sceautres et site Antique romain d\'Alba]]></desc>
  </metadata>
  <trk>
    <name><![CDATA[VTT sceautres 28 janv 2012]]></name>
    <trkseg>
      <trkpt lat="44.55336" lon="4.59705">
        <ele>112</ele>
        <time>2012-01-28T09:32:25Z</time>
      </trkpt>
      <trkpt lat="44.55336" lon="4.59705">
        <ele>117</ele>
        <time>2012-01-28T09:32:27Z</time>
      </trkpt>
      <trkpt lat="44.55336" lon="4.59705">
        <ele>121</ele>
        <time>2012-01-28T09:32:28Z</time>
      </trkpt>
      <trkpt lat="44.55336" lon="4.59704">
        <ele>126</ele>
        <time>2012-01-28T09:32:30Z</time>
      </trkpt>
      <trkpt lat="44.55336" lon="4.59705">
        <ele>130</ele>
        <time>2012-01-28T09:32:32Z</time>
      </trkpt>
      <trkpt lat="44.55336" lon="4.59705">
        <ele>135</ele>
        <time>2012-01-28T09:32:34Z</time>
      </trkpt>
      <trkpt lat="44.55336" lon="4.59705">
        <ele>139</ele>
        <time>2012-01-28T09:32:36Z</time>
      </trkpt>
      <trkpt lat="44.55336" lon="4.59704">
        <ele>143</ele>
        <time>2012-01-28T09:32:38Z</time>
      </trkpt>
      <trkpt lat="44.55336" lon="4.59704">
        <ele>147</ele>
        <time>2012-01-28T09:32:40Z</time>
      </trkpt>
      <trkpt lat="44.55336" lon="4.59704">
        <ele>151</ele>
        <time>2012-01-28T09:32:42Z</time>
      </trkpt>
      <trkpt lat="44.55336" lon="4.59704">
        <ele>154</ele>
        <time>2012-01-28T09:32:44Z</time>
      </trkpt>
      <trkpt lat="44.55336" lon="4.59704">
        <ele>158</ele>
        <time>2012-01-28T09:32:46Z</time>
      </trkpt>
      <trkpt lat="44.55336" lon="4.59704">
        <ele>162</ele>
        <time>2012-01-28T09:32:49Z</time>
      </trkpt>
      <trkpt lat="44.55336" lon="4.59704">
        <ele>166</ele>
        <time>2012-01-28T09:32:52Z</time>
      </trkpt>
      <trkpt lat="44.55336" lon="4.59704">
        <ele>169</ele>
        <time>2012-01-28T09:32:55Z</time>
      </trkpt>
      <trkpt lat="44.55336" lon="4.59704">
        <ele>173</ele>
        <time>2012-01-28T09:32:58Z</time>
      </trkpt>
      <trkpt lat="44.55336" lon="4.59704">
        <ele>176</ele>
        <time>2012-01-28T09:33:01Z</time>
      </trkpt>
      <trkpt lat="44.55336" lon="4.59704">
        <ele>179</ele>
        <time>2012-01-28T09:33:05Z</time>
      </trkpt>
      <trkpt lat="44.55336" lon="4.59704">
        <ele>182</ele>
        <time>2012-01-28T09:33:09Z</time>
      </trkpt>
      <trkpt lat="44.55337" lon="4.59704">
        <ele>185</ele>
        <time>2012-01-28T09:33:14Z</time>
      </trkpt>
      <trkpt lat="44.55337" lon="4.59704">
        <ele>189</ele>
        <time>2012-01-28T09:33:20Z</time>
      </trkpt>
      <trkpt lat="44.55337" lon="4.59704">
        <ele>192</ele>
        <time>2012-01-28T09:33:28Z</time>
      </trkpt>
      <trkpt lat="44.55337" lon="4.59704">
        <ele>195</ele>
        <time>2012-01-28T09:33:38Z</time>
      </trkpt>
      <trkpt lat="44.55337" lon="4.59704">
        <ele>198</ele>
        <time>2012-01-28T09:33:53Z</time>
      </trkpt>
      <trkpt lat="44.55337" lon="4.59704">
        <ele>202</ele>
        <time>2012-01-28T09:34:19Z</time>
      </trkpt>
      <trkpt lat="44.55336" lon="4.59704">
        <ele>203</ele>
        <time>2012-01-28T09:36:39Z</time>
      </trkpt>
      <trkpt lat="44.55336" lon="4.59704">
        <ele>203</ele>
        <time>2012-01-28T09:37:03Z</time>
      </trkpt>
      <trkpt lat="44.55335" lon="4.59703">
        <ele>202</ele>
        <time>2012-01-28T09:37:19Z</time>
      </trkpt>
      <trkpt lat="44.55335" lon="4.59701">
        <ele>202</ele>
        <time>2012-01-28T09:37:36Z</time>
      </trkpt>
      <trkpt lat="44.55336" lon="4.59705">
        <ele>202</ele>
        <time>2012-01-28T09:37:48Z</time>
      </trkpt>
      <trkpt lat="44.55335" lon="4.59703">
        <ele>202</ele>
        <time>2012-01-28T09:37:55Z</time>
      </trkpt>
      <trkpt lat="44.55334" lon="4.59701">
        <ele>203</ele>
        <time>2012-01-28T09:38:34Z</time>
      </trkpt>
      <trkpt lat="44.55317" lon="4.59701">
        <ele>202</ele>
        <time>2012-01-28T09:38:41Z</time>
      </trkpt>
      <trkpt lat="44.55312" lon="4.59702">
        <ele>202</ele>
        <time>2012-01-28T09:38:43Z</time>
      </trkpt>
      <trkpt lat="44.55313" lon="4.59714">
        <ele>202</ele>
        <time>2012-01-28T09:38:49Z</time>
      </trkpt>
      <trkpt lat="44.55312" lon="4.59713">
        <ele>201</ele>
        <time>2012-01-28T09:38:58Z</time>
      </trkpt>
      <trkpt lat="44.55312" lon="4.59713">
        <ele>201</ele>
        <time>2012-01-28T09:39:05Z</time>
      </trkpt>
      <trkpt lat="44.55316" lon="4.59712">
        <ele>202</ele>
        <time>2012-01-28T09:39:09Z</time>
      </trkpt>
      <trkpt lat="44.55324" lon="4.59699">
        <ele>202</ele>
        <time>2012-01-28T09:39:16Z</time>
      </trkpt>
      <trkpt lat="44.55331" lon="4.59699">
        <ele>202</ele>
        <time>2012-01-28T09:39:20Z</time>
      </trkpt>
      <trkpt lat="44.55337" lon="4.597">
        <ele>203</ele>
        <time>2012-01-28T09:39:26Z</time>
      </trkpt>
      <trkpt lat="44.55334" lon="4.59694">
        <ele>203</ele>
        <time>2012-01-28T09:39:33Z</time>
      </trkpt>
      <trkpt lat="44.55334" lon="4.59686">
        <ele>203</ele>
        <time>2012-01-28T09:39:38Z</time>
      </trkpt>
      <trkpt lat="44.55339" lon="4.59692">
        <ele>203</ele>
        <time>2012-01-28T09:39:42Z</time>
      </trkpt>
      <trkpt lat="44.55341" lon="4.59696">
        <ele>203</ele>
        <time>2012-01-28T09:39:44Z</time>
      </trkpt>
      <trkpt lat="44.55338" lon="4.597">
        <ele>203</ele>
        <time>2012-01-28T09:39:50Z</time>
      </trkpt>
      <trkpt lat="44.55337" lon="4.59697">
        <ele>203</ele>
        <time>2012-01-28T09:39:59Z</time>
      </trkpt>
      <trkpt lat="44.55337" lon="4.59695">
        <ele>203</ele>
        <time>2012-01-28T09:40:13Z</time>
      </trkpt>
      <trkpt lat="44.55337" lon="4.59693">
        <ele>203</ele>
        <time>2012-01-28T09:40:24Z</time>
      </trkpt>
      <trkpt lat="44.55342" lon="4.59697">
        <ele>203</ele>
        <time>2012-01-28T09:40:30Z</time>
      </trkpt>
      <trkpt lat="44.55342" lon="4.59702">
        <ele>203</ele>
        <time>2012-01-28T09:40:32Z</time>
      </trkpt>
      <trkpt lat="44.55343" lon="4.59729">
        <ele>203</ele>
        <time>2012-01-28T09:40:41Z</time>
      </trkpt>
      <trkpt lat="44.55352" lon="4.59749">
        <ele>203</ele>
        <time>2012-01-28T09:40:48Z</time>
      </trkpt>
      <trkpt lat="44.55364" lon="4.59748">
        <ele>203</ele>
        <time>2012-01-28T09:40:54Z</time>
      </trkpt>
      <trkpt lat="44.55393" lon="4.59743">
        <ele>204</ele>
        <time>2012-01-28T09:41:05Z</time>
      </trkpt>
      <trkpt lat="44.5541" lon="4.59748">
        <ele>204</ele>
        <time>2012-01-28T09:41:11Z</time>
      </trkpt>
      <trkpt lat="44.55429" lon="4.5974">
        <ele>204</ele>
        <time>2012-01-28T09:41:18Z</time>
      </trkpt>
      <trkpt lat="44.55444" lon="4.59734">
        <ele>205</ele>
        <time>2012-01-28T09:41:23Z</time>
      </trkpt>
      <trkpt lat="44.55454" lon="4.59724">
        <ele>205</ele>
        <time>2012-01-28T09:41:28Z</time>
      </trkpt>
      <trkpt lat="44.55466" lon="4.59737">
        <ele>205</ele>
        <time>2012-01-28T09:41:34Z</time>
      </trkpt>
      <trkpt lat="44.55475" lon="4.59763">
        <ele>206</ele>
        <time>2012-01-28T09:41:43Z</time>
      </trkpt>
      <trkpt lat="44.55476" lon="4.59765">
        <ele>206</ele>
        <time>2012-01-28T09:41:44Z</time>
      </trkpt>
      <trkpt lat="44.55488" lon="4.59765">
        <ele>206</ele>
        <time>2012-01-28T09:41:50Z</time>
      </trkpt>
      <trkpt lat="44.55513" lon="4.59741">
        <ele>204</ele>
        <time>2012-01-28T09:42:00Z</time>
      </trkpt>
      <trkpt lat="44.55518" lon="4.59733">
        <ele>204</ele>
        <time>2012-01-28T09:42:02Z</time>
      </trkpt>
      <trkpt lat="44.5554" lon="4.59726">
        <ele>203</ele>
        <time>2012-01-28T09:42:06Z</time>
      </trkpt>
      <trkpt lat="44.55553" lon="4.59722">
        <ele>202</ele>
        <time>2012-01-28T09:42:08Z</time>
      </trkpt>
      <trkpt lat="44.55566" lon="4.59718">
        <ele>201</ele>
        <time>2012-01-28T09:42:10Z</time>
      </trkpt>
      <trkpt lat="44.55618" lon="4.5968">
        <ele>198</ele>
        <time>2012-01-28T09:42:18Z</time>
      </trkpt>
      <trkpt lat="44.55666" lon="4.59641">
        <ele>195</ele>
        <time>2012-01-28T09:42:25Z</time>
      </trkpt>
      <trkpt lat="44.55711" lon="4.59637">
        <ele>194</ele>
        <time>2012-01-28T09:42:31Z</time>
      </trkpt>
      <trkpt lat="44.55774" lon="4.59643">
        <ele>192</ele>
        <time>2012-01-28T09:42:41Z</time>
      </trkpt>
      <trkpt lat="44.5582" lon="4.59644">
        <ele>189</ele>
        <time>2012-01-28T09:42:47Z</time>
      </trkpt>
      <trkpt lat="44.55827" lon="4.59644">
        <ele>189</ele>
        <time>2012-01-28T09:42:48Z</time>
      </trkpt>
      <trkpt lat="44.55867" lon="4.59639">
        <ele>189</ele>
        <time>2012-01-28T09:42:54Z</time>
      </trkpt>
      <trkpt lat="44.55883" lon="4.59636">
        <ele>189</ele>
        <time>2012-01-28T09:42:58Z</time>
      </trkpt>
      <trkpt lat="44.55883" lon="4.59617">
        <ele>189</ele>
        <time>2012-01-28T09:43:03Z</time>
      </trkpt>
      <trkpt lat="44.55883" lon="4.59568">
        <ele>189</ele>
        <time>2012-01-28T09:43:13Z</time>
      </trkpt>
      <trkpt lat="44.55887" lon="4.59544">
        <ele>189</ele>
        <time>2012-01-28T09:43:18Z</time>
      </trkpt>
      <trkpt lat="44.55907" lon="4.59513">
        <ele>190</ele>
        <time>2012-01-28T09:43:28Z</time>
      </trkpt>
      <trkpt lat="44.55925" lon="4.59482">
        <ele>191</ele>
        <time>2012-01-28T09:43:41Z</time>
      </trkpt>
      <trkpt lat="44.55956" lon="4.59438">
        <ele>193</ele>
        <time>2012-01-28T09:43:58Z</time>
      </trkpt>
      <trkpt lat="44.55987" lon="4.59408">
        <ele>193</ele>
        <time>2012-01-28T09:44:11Z</time>
      </trkpt>
      <trkpt lat="44.56018" lon="4.59381">
        <ele>194</ele>
        <time>2012-01-28T09:44:24Z</time>
      </trkpt>
      <trkpt lat="44.56064" lon="4.59346">
        <ele>196</ele>
        <time>2012-01-28T09:44:43Z</time>
      </trkpt>
      <trkpt lat="44.56105" lon="4.59326">
        <ele>196</ele>
        <time>2012-01-28T09:44:58Z</time>
      </trkpt>
      <trkpt lat="44.56152" lon="4.59313">
        <ele>197</ele>
        <time>2012-01-28T09:45:14Z</time>
      </trkpt>
      <trkpt lat="44.56188" lon="4.59303">
        <ele>198</ele>
        <time>2012-01-28T09:45:27Z</time>
      </trkpt>
      <trkpt lat="44.56236" lon="4.59291">
        <ele>199</ele>
        <time>2012-01-28T09:45:44Z</time>
      </trkpt>
      <trkpt lat="44.56251" lon="4.59288">
        <ele>198</ele>
        <time>2012-01-28T09:45:52Z</time>
      </trkpt>
      <trkpt lat="44.56251" lon="4.59288">
        <ele>199</ele>
        <time>2012-01-28T09:47:17Z</time>
      </trkpt>
      <trkpt lat="44.56274" lon="4.59283">
        <ele>200</ele>
        <time>2012-01-28T09:47:26Z</time>
      </trkpt>
      <trkpt lat="44.56299" lon="4.59277">
        <ele>201</ele>
        <time>2012-01-28T09:47:36Z</time>
      </trkpt>
      <trkpt lat="44.56326" lon="4.59258">
        <ele>202</ele>
        <time>2012-01-28T09:47:48Z</time>
      </trkpt>
      <trkpt lat="44.56349" lon="4.59239">
        <ele>202</ele>
        <time>2012-01-28T09:47:58Z</time>
      </trkpt>
      <trkpt lat="44.56387" lon="4.59205">
        <ele>203</ele>
        <time>2012-01-28T09:48:12Z</time>
      </trkpt>
      <trkpt lat="44.56415" lon="4.5918">
        <ele>203</ele>
        <time>2012-01-28T09:48:22Z</time>
      </trkpt>
      <trkpt lat="44.56452" lon="4.59149">
        <ele>204</ele>
        <time>2012-01-28T09:48:36Z</time>
      </trkpt>
      <trkpt lat="44.56498" lon="4.59117">
        <ele>204</ele>
        <time>2012-01-28T09:48:53Z</time>
      </trkpt>
      <trkpt lat="44.5654" lon="4.59083">
        <ele>206</ele>
        <time>2012-01-28T09:49:11Z</time>
      </trkpt>
      <trkpt lat="44.56566" lon="4.59063">
        <ele>207</ele>
        <time>2012-01-28T09:49:24Z</time>
      </trkpt>
      <trkpt lat="44.56581" lon="4.59068">
        <ele>208</ele>
        <time>2012-01-28T09:49:30Z</time>
      </trkpt>
      <trkpt lat="44.56585" lon="4.59076">
        <ele>208</ele>
        <time>2012-01-28T09:49:36Z</time>
      </trkpt>
      <trkpt lat="44.56601" lon="4.59057">
        <ele>208</ele>
        <time>2012-01-28T09:49:45Z</time>
      </trkpt>
      <trkpt lat="44.56624" lon="4.5904">
        <ele>210</ele>
        <time>2012-01-28T09:49:57Z</time>
      </trkpt>
      <trkpt lat="44.56627" lon="4.59038">
        <ele>210</ele>
        <time>2012-01-28T09:49:59Z</time>
      </trkpt>
      <trkpt lat="44.56654" lon="4.59069">
        <ele>211</ele>
        <time>2012-01-28T09:50:08Z</time>
      </trkpt>
      <trkpt lat="44.56679" lon="4.59085">
        <ele>211</ele>
        <time>2012-01-28T09:50:17Z</time>
      </trkpt>
      <trkpt lat="44.56704" lon="4.59107">
        <ele>210</ele>
        <time>2012-01-28T09:50:25Z</time>
      </trkpt>
      <trkpt lat="44.56719" lon="4.59147">
        <ele>210</ele>
        <time>2012-01-28T09:50:33Z</time>
      </trkpt>
      <trkpt lat="44.56732" lon="4.59192">
        <ele>210</ele>
        <time>2012-01-28T09:50:42Z</time>
      </trkpt>
      <trkpt lat="44.56745" lon="4.59249">
        <ele>210</ele>
        <time>2012-01-28T09:50:54Z</time>
      </trkpt>
      <trkpt lat="44.56754" lon="4.59284">
        <ele>211</ele>
        <time>2012-01-28T09:51:03Z</time>
      </trkpt>
      <trkpt lat="44.56758" lon="4.59289">
        <ele>211</ele>
        <time>2012-01-28T09:51:08Z</time>
      </trkpt>
      <trkpt lat="44.56758" lon="4.59289">
        <ele>212</ele>
        <time>2012-01-28T09:51:14Z</time>
      </trkpt>
      <trkpt lat="44.56778" lon="4.59295">
        <ele>212</ele>
        <time>2012-01-28T09:51:20Z</time>
      </trkpt>
      <trkpt lat="44.56798" lon="4.59299">
        <ele>212</ele>
        <time>2012-01-28T09:51:29Z</time>
      </trkpt>
      <trkpt lat="44.56833" lon="4.59305">
        <ele>213</ele>
        <time>2012-01-28T09:51:45Z</time>
      </trkpt>
      <trkpt lat="44.56847" lon="4.5931">
        <ele>213</ele>
        <time>2012-01-28T09:51:54Z</time>
      </trkpt>
      <trkpt lat="44.56847" lon="4.5931">
        <ele>213</ele>
        <time>2012-01-28T09:51:59Z</time>
      </trkpt>
      <trkpt lat="44.56847" lon="4.5931">
        <ele>213</ele>
        <time>2012-01-28T09:52:05Z</time>
      </trkpt>
      <trkpt lat="44.56847" lon="4.5931">
        <ele>209</ele>
        <time>2012-01-28T09:52:08Z</time>
      </trkpt>
      <trkpt lat="44.56847" lon="4.5931">
        <ele>213</ele>
        <time>2012-01-28T09:52:12Z</time>
      </trkpt>
      <trkpt lat="44.56847" lon="4.5931">
        <ele>212</ele>
        <time>2012-01-28T09:52:33Z</time>
      </trkpt>
      <trkpt lat="44.56847" lon="4.5931">
        <ele>212</ele>
        <time>2012-01-28T09:53:12Z</time>
      </trkpt>
      <trkpt lat="44.56847" lon="4.5931">
        <ele>213</ele>
        <time>2012-01-28T09:54:22Z</time>
      </trkpt>
      <trkpt lat="44.56847" lon="4.5931">
        <ele>213</ele>
        <time>2012-01-28T09:54:36Z</time>
      </trkpt>
      <trkpt lat="44.56847" lon="4.5931">
        <ele>213</ele>
        <time>2012-01-28T09:54:48Z</time>
      </trkpt>
      <trkpt lat="44.56847" lon="4.5931">
        <ele>213</ele>
        <time>2012-01-28T09:54:55Z</time>
      </trkpt>
      <trkpt lat="44.56864" lon="4.5932">
        <ele>213</ele>
        <time>2012-01-28T09:55:04Z</time>
      </trkpt>
      <trkpt lat="44.56874" lon="4.59325">
        <ele>215</ele>
        <time>2012-01-28T09:55:15Z</time>
      </trkpt>
      <trkpt lat="44.56899" lon="4.59332">
        <ele>215</ele>
        <time>2012-01-28T09:55:24Z</time>
      </trkpt>
      <trkpt lat="44.5692" lon="4.59344">
        <ele>217</ele>
        <time>2012-01-28T09:55:37Z</time>
      </trkpt>
      <trkpt lat="44.56941" lon="4.59353">
        <ele>217</ele>
        <time>2012-01-28T09:55:49Z</time>
      </trkpt>
      <trkpt lat="44.56964" lon="4.59357">
        <ele>219</ele>
        <time>2012-01-28T09:56:02Z</time>
      </trkpt>
      <trkpt lat="44.56984" lon="4.59366">
        <ele>220</ele>
        <time>2012-01-28T09:56:14Z</time>
      </trkpt>
      <trkpt lat="44.5701" lon="4.59368">
        <ele>221</ele>
        <time>2012-01-28T09:56:29Z</time>
      </trkpt>
      <trkpt lat="44.57024" lon="4.59367">
        <ele>222</ele>
        <time>2012-01-28T09:56:38Z</time>
      </trkpt>
      <trkpt lat="44.57049" lon="4.59366">
        <ele>224</ele>
        <time>2012-01-28T09:56:55Z</time>
      </trkpt>
      <trkpt lat="44.57059" lon="4.59373">
        <ele>225</ele>
        <time>2012-01-28T09:57:04Z</time>
      </trkpt>
      <trkpt lat="44.57065" lon="4.59374">
        <ele>226</ele>
        <time>2012-01-28T09:57:14Z</time>
      </trkpt>
      <trkpt lat="44.57065" lon="4.59374">
        <ele>229</ele>
        <time>2012-01-28T09:57:29Z</time>
      </trkpt>
      <trkpt lat="44.57065" lon="4.59374">
        <ele>231</ele>
        <time>2012-01-28T09:57:40Z</time>
      </trkpt>
      <trkpt lat="44.57117" lon="4.59372">
        <ele>233</ele>
        <time>2012-01-28T09:57:56Z</time>
      </trkpt>
      <trkpt lat="44.5713" lon="4.59379">
        <ele>235</ele>
        <time>2012-01-28T09:58:08Z</time>
      </trkpt>
      <trkpt lat="44.5714" lon="4.59383">
        <ele>237</ele>
        <time>2012-01-28T09:58:19Z</time>
      </trkpt>
      <trkpt lat="44.5714" lon="4.59383">
        <ele>239</ele>
        <time>2012-01-28T09:58:30Z</time>
      </trkpt>
      <trkpt lat="44.57166" lon="4.59362">
        <ele>240</ele>
        <time>2012-01-28T09:58:44Z</time>
      </trkpt>
      <trkpt lat="44.57172" lon="4.59357">
        <ele>241</ele>
        <time>2012-01-28T09:58:50Z</time>
      </trkpt>
      <trkpt lat="44.57181" lon="4.59349">
        <ele>243</ele>
        <time>2012-01-28T09:58:59Z</time>
      </trkpt>
      <trkpt lat="44.57198" lon="4.59332">
        <ele>245</ele>
        <time>2012-01-28T09:59:13Z</time>
      </trkpt>
      <trkpt lat="44.57209" lon="4.59321">
        <ele>246</ele>
        <time>2012-01-28T09:59:23Z</time>
      </trkpt>
      <trkpt lat="44.57225" lon="4.59307">
        <ele>248</ele>
        <time>2012-01-28T09:59:37Z</time>
      </trkpt>
      <trkpt lat="44.5724" lon="4.59295">
        <ele>248</ele>
        <time>2012-01-28T09:59:49Z</time>
      </trkpt>
      <trkpt lat="44.57253" lon="4.59289">
        <ele>250</ele>
        <time>2012-01-28T10:00:01Z</time>
      </trkpt>
      <trkpt lat="44.57265" lon="4.59285">
        <ele>251</ele>
        <time>2012-01-28T10:00:09Z</time>
      </trkpt>
      <trkpt lat="44.57271" lon="4.59283">
        <ele>252</ele>
        <time>2012-01-28T10:00:19Z</time>
      </trkpt>
      <trkpt lat="44.57291" lon="4.59276">
        <ele>254</ele>
        <time>2012-01-28T10:00:35Z</time>
      </trkpt>
      <trkpt lat="44.5731" lon="4.59271">
        <ele>255</ele>
        <time>2012-01-28T10:00:48Z</time>
      </trkpt>
      <trkpt lat="44.5731" lon="4.59271">
        <ele>258</ele>
        <time>2012-01-28T10:01:00Z</time>
      </trkpt>
      <trkpt lat="44.57334" lon="4.59267">
        <ele>258</ele>
        <time>2012-01-28T10:01:11Z</time>
      </trkpt>
      <trkpt lat="44.57356" lon="4.59262">
        <ele>260</ele>
        <time>2012-01-28T10:01:27Z</time>
      </trkpt>
      <trkpt lat="44.57374" lon="4.59252">
        <ele>262</ele>
        <time>2012-01-28T10:01:40Z</time>
      </trkpt>
      <trkpt lat="44.57392" lon="4.59246">
        <ele>263</ele>
        <time>2012-01-28T10:01:53Z</time>
      </trkpt>
      <trkpt lat="44.57404" lon="4.59244">
        <ele>264</ele>
        <time>2012-01-28T10:02:07Z</time>
      </trkpt>
      <trkpt lat="44.57404" lon="4.59244">
        <ele>264</ele>
        <time>2012-01-28T10:02:15Z</time>
      </trkpt>
      <trkpt lat="44.57404" lon="4.59244">
        <ele>264</ele>
        <time>2012-01-28T10:02:24Z</time>
      </trkpt>
      <trkpt lat="44.57404" lon="4.59244">
        <ele>264</ele>
        <time>2012-01-28T10:02:36Z</time>
      </trkpt>
      <trkpt lat="44.57404" lon="4.59244">
        <ele>264</ele>
        <time>2012-01-28T10:02:47Z</time>
      </trkpt>
      <trkpt lat="44.57404" lon="4.59244">
        <ele>264</ele>
        <time>2012-01-28T10:02:55Z</time>
      </trkpt>
      <trkpt lat="44.57404" lon="4.59244">
        <ele>264</ele>
        <time>2012-01-28T10:03:09Z</time>
      </trkpt>
      <trkpt lat="44.57404" lon="4.59244">
        <ele>263</ele>
        <time>2012-01-28T10:03:29Z</time>
      </trkpt>
      <trkpt lat="44.57404" lon="4.59244">
        <ele>264</ele>
        <time>2012-01-28T10:03:38Z</time>
      </trkpt>
      <trkpt lat="44.57404" lon="4.59244">
        <ele>264</ele>
        <time>2012-01-28T10:03:50Z</time>
      </trkpt>
      <trkpt lat="44.57404" lon="4.59244">
        <ele>263</ele>
        <time>2012-01-28T10:03:59Z</time>
      </trkpt>
      <trkpt lat="44.57404" lon="4.59244">
        <ele>264</ele>
        <time>2012-01-28T10:04:10Z</time>
      </trkpt>
      <trkpt lat="44.57404" lon="4.59244">
        <ele>264</ele>
        <time>2012-01-28T10:04:26Z</time>
      </trkpt>
      <trkpt lat="44.57404" lon="4.59244">
        <ele>264</ele>
        <time>2012-01-28T10:04:38Z</time>
      </trkpt>
      <trkpt lat="44.57404" lon="4.59244">
        <ele>264</ele>
        <time>2012-01-28T10:04:41Z</time>
      </trkpt>
      <trkpt lat="44.57404" lon="4.59244">
        <ele>264</ele>
        <time>2012-01-28T10:04:44Z</time>
      </trkpt>
      <trkpt lat="44.57416" lon="4.59244">
        <ele>265</ele>
        <time>2012-01-28T10:04:51Z</time>
      </trkpt>
      <trkpt lat="44.5743" lon="4.5925">
        <ele>265</ele>
        <time>2012-01-28T10:05:00Z</time>
      </trkpt>
      <trkpt lat="44.57442" lon="4.59258">
        <ele>265</ele>
        <time>2012-01-28T10:05:08Z</time>
      </trkpt>
      <trkpt lat="44.57457" lon="4.59269">
        <ele>265</ele>
        <time>2012-01-28T10:05:16Z</time>
      </trkpt>
      <trkpt lat="44.57469" lon="4.5929">
        <ele>266</ele>
        <time>2012-01-28T10:05:24Z</time>
      </trkpt>
      <trkpt lat="44.57487" lon="4.5932">
        <ele>268</ele>
        <time>2012-01-28T10:05:37Z</time>
      </trkpt>
      <trkpt lat="44.57499" lon="4.59336">
        <ele>270</ele>
        <time>2012-01-28T10:05:47Z</time>
      </trkpt>
      <trkpt lat="44.57513" lon="4.59347">
        <ele>271</ele>
        <time>2012-01-28T10:05:57Z</time>
      </trkpt>
      <trkpt lat="44.57513" lon="4.59347">
        <ele>272</ele>
        <time>2012-01-28T10:06:06Z</time>
      </trkpt>
      <trkpt lat="44.57522" lon="4.59357">
        <ele>272</ele>
        <time>2012-01-28T10:06:10Z</time>
      </trkpt>
      <trkpt lat="44.57525" lon="4.5936">
        <ele>273</ele>
        <time>2012-01-28T10:06:12Z</time>
      </trkpt>
      <trkpt lat="44.57539" lon="4.59366">
        <ele>275</ele>
        <time>2012-01-28T10:06:22Z</time>
      </trkpt>
      <trkpt lat="44.57548" lon="4.59369">
        <ele>275</ele>
        <time>2012-01-28T10:06:30Z</time>
      </trkpt>
      <trkpt lat="44.57562" lon="4.59373">
        <ele>276</ele>
        <time>2012-01-28T10:06:41Z</time>
      </trkpt>
      <trkpt lat="44.57581" lon="4.59377">
        <ele>277</ele>
        <time>2012-01-28T10:06:53Z</time>
      </trkpt>
      <trkpt lat="44.57603" lon="4.59383">
        <ele>279</ele>
        <time>2012-01-28T10:07:06Z</time>
      </trkpt>
      <trkpt lat="44.57625" lon="4.59386">
        <ele>279</ele>
        <time>2012-01-28T10:07:17Z</time>
      </trkpt>
      <trkpt lat="44.57648" lon="4.59382">
        <ele>279</ele>
        <time>2012-01-28T10:07:26Z</time>
      </trkpt>
      <trkpt lat="44.57665" lon="4.59386">
        <ele>279</ele>
        <time>2012-01-28T10:07:34Z</time>
      </trkpt>
      <trkpt lat="44.57683" lon="4.59394">
        <ele>280</ele>
        <time>2012-01-28T10:07:46Z</time>
      </trkpt>
      <trkpt lat="44.577" lon="4.594">
        <ele>281</ele>
        <time>2012-01-28T10:07:58Z</time>
      </trkpt>
      <trkpt lat="44.57725" lon="4.5941">
        <ele>282</ele>
        <time>2012-01-28T10:08:14Z</time>
      </trkpt>
      <trkpt lat="44.57743" lon="4.59418">
        <ele>284</ele>
        <time>2012-01-28T10:08:24Z</time>
      </trkpt>
      <trkpt lat="44.5777" lon="4.59429">
        <ele>284</ele>
        <time>2012-01-28T10:08:33Z</time>
      </trkpt>
      <trkpt lat="44.57804" lon="4.59445">
        <ele>284</ele>
        <time>2012-01-28T10:08:44Z</time>
      </trkpt>
      <trkpt lat="44.57834" lon="4.5946">
        <ele>285</ele>
        <time>2012-01-28T10:08:55Z</time>
      </trkpt>
      <trkpt lat="44.57862" lon="4.59468">
        <ele>284</ele>
        <time>2012-01-28T10:09:04Z</time>
      </trkpt>
      <trkpt lat="44.57892" lon="4.59481">
        <ele>285</ele>
        <time>2012-01-28T10:09:15Z</time>
      </trkpt>
      <trkpt lat="44.57919" lon="4.59501">
        <ele>287</ele>
        <time>2012-01-28T10:09:29Z</time>
      </trkpt>
      <trkpt lat="44.57928" lon="4.59516">
        <ele>288</ele>
        <time>2012-01-28T10:09:39Z</time>
      </trkpt>
      <trkpt lat="44.5793" lon="4.59519">
        <ele>290</ele>
        <time>2012-01-28T10:09:51Z</time>
      </trkpt>
      <trkpt lat="44.5793" lon="4.59519">
        <ele>289</ele>
        <time>2012-01-28T10:10:04Z</time>
      </trkpt>
      <trkpt lat="44.5793" lon="4.59519">
        <ele>289</ele>
        <time>2012-01-28T10:10:26Z</time>
      </trkpt>
      <trkpt lat="44.5793" lon="4.59519">
        <ele>290</ele>
        <time>2012-01-28T10:11:27Z</time>
      </trkpt>
      <trkpt lat="44.5793" lon="4.59519">
        <ele>290</ele>
        <time>2012-01-28T10:11:45Z</time>
      </trkpt>
      <trkpt lat="44.57937" lon="4.59529">
        <ele>290</ele>
        <time>2012-01-28T10:11:50Z</time>
      </trkpt>
      <trkpt lat="44.57963" lon="4.5954">
        <ele>290</ele>
        <time>2012-01-28T10:12:03Z</time>
      </trkpt>
      <trkpt lat="44.57993" lon="4.59552">
        <ele>289</ele>
        <time>2012-01-28T10:12:11Z</time>
      </trkpt>
      <trkpt lat="44.58032" lon="4.59568">
        <ele>287</ele>
        <time>2012-01-28T10:12:19Z</time>
      </trkpt>
      <trkpt lat="44.58062" lon="4.59584">
        <ele>286</ele>
        <time>2012-01-28T10:12:26Z</time>
      </trkpt>
      <trkpt lat="44.58088" lon="4.59595">
        <ele>285</ele>
        <time>2012-01-28T10:12:34Z</time>
      </trkpt>
      <trkpt lat="44.58123" lon="4.59604">
        <ele>285</ele>
        <time>2012-01-28T10:12:42Z</time>
      </trkpt>
      <trkpt lat="44.58191" lon="4.59611">
        <ele>282</ele>
        <time>2012-01-28T10:12:53Z</time>
      </trkpt>
      <trkpt lat="44.58208" lon="4.59612">
        <ele>282</ele>
        <time>2012-01-28T10:12:58Z</time>
      </trkpt>
      <trkpt lat="44.58235" lon="4.59608">
        <ele>281</ele>
        <time>2012-01-28T10:13:05Z</time>
      </trkpt>
      <trkpt lat="44.58251" lon="4.59606">
        <ele>279</ele>
        <time>2012-01-28T10:13:08Z</time>
      </trkpt>
      <trkpt lat="44.58263" lon="4.59608">
        <ele>278</ele>
        <time>2012-01-28T10:13:10Z</time>
      </trkpt>
      <trkpt lat="44.58275" lon="4.59607">
        <ele>277</ele>
        <time>2012-01-28T10:13:12Z</time>
      </trkpt>
      <trkpt lat="44.58278" lon="4.59606">
        <ele>276</ele>
        <time>2012-01-28T10:13:14Z</time>
      </trkpt>
      <trkpt lat="44.58278" lon="4.59606">
        <ele>276</ele>
        <time>2012-01-28T10:13:16Z</time>
      </trkpt>
      <trkpt lat="44.58278" lon="4.59606">
        <ele>276</ele>
        <time>2012-01-28T10:13:27Z</time>
      </trkpt>
      <trkpt lat="44.58297" lon="4.59606">
        <ele>275</ele>
        <time>2012-01-28T10:13:45Z</time>
      </trkpt>
      <trkpt lat="44.58326" lon="4.59611">
        <ele>273</ele>
        <time>2012-01-28T10:13:52Z</time>
      </trkpt>
      <trkpt lat="44.58345" lon="4.59613">
        <ele>270</ele>
        <time>2012-01-28T10:13:56Z</time>
      </trkpt>
      <trkpt lat="44.58355" lon="4.596">
        <ele>270</ele>
        <time>2012-01-28T10:14:00Z</time>
      </trkpt>
      <trkpt lat="44.58352" lon="4.5959">
        <ele>270</ele>
        <time>2012-01-28T10:14:02Z</time>
      </trkpt>
      <trkpt lat="44.58354" lon="4.59555">
        <ele>270</ele>
        <time>2012-01-28T10:14:09Z</time>
      </trkpt>
      <trkpt lat="44.58368" lon="4.59514">
        <ele>271</ele>
        <time>2012-01-28T10:14:20Z</time>
      </trkpt>
      <trkpt lat="44.58386" lon="4.59474">
        <ele>268</ele>
        <time>2012-01-28T10:14:28Z</time>
      </trkpt>
      <trkpt lat="44.58391" lon="4.59468">
        <ele>268</ele>
        <time>2012-01-28T10:14:29Z</time>
      </trkpt>
      <trkpt lat="44.58413" lon="4.59445">
        <ele>266</ele>
        <time>2012-01-28T10:14:33Z</time>
      </trkpt>
      <trkpt lat="44.58419" lon="4.5944">
        <ele>265</ele>
        <time>2012-01-28T10:14:34Z</time>
      </trkpt>
      <trkpt lat="44.58445" lon="4.59435">
        <ele>265</ele>
        <time>2012-01-28T10:14:39Z</time>
      </trkpt>
      <trkpt lat="44.58465" lon="4.59423">
        <ele>265</ele>
        <time>2012-01-28T10:14:46Z</time>
      </trkpt>
      <trkpt lat="44.58472" lon="4.59401">
        <ele>265</ele>
        <time>2012-01-28T10:14:52Z</time>
      </trkpt>
      <trkpt lat="44.58477" lon="4.59385">
        <ele>267</ele>
        <time>2012-01-28T10:14:57Z</time>
      </trkpt>
      <trkpt lat="44.58491" lon="4.59368">
        <ele>268</ele>
        <time>2012-01-28T10:15:09Z</time>
      </trkpt>
      <trkpt lat="44.5851" lon="4.59366">
        <ele>270</ele>
        <time>2012-01-28T10:15:21Z</time>
      </trkpt>
      <trkpt lat="44.58537" lon="4.59366">
        <ele>271</ele>
        <time>2012-01-28T10:15:36Z</time>
      </trkpt>
      <trkpt lat="44.58556" lon="4.59363">
        <ele>271</ele>
        <time>2012-01-28T10:15:44Z</time>
      </trkpt>
      <trkpt lat="44.58567" lon="4.59372">
        <ele>272</ele>
        <time>2012-01-28T10:15:52Z</time>
      </trkpt>
      <trkpt lat="44.58587" lon="4.59382">
        <ele>275</ele>
        <time>2012-01-28T10:16:07Z</time>
      </trkpt>
      <trkpt lat="44.58595" lon="4.59385">
        <ele>277</ele>
        <time>2012-01-28T10:16:13Z</time>
      </trkpt>
      <trkpt lat="44.58614" lon="4.59387">
        <ele>278</ele>
        <time>2012-01-28T10:16:26Z</time>
      </trkpt>
      <trkpt lat="44.58618" lon="4.59386">
        <ele>279</ele>
        <time>2012-01-28T10:16:30Z</time>
      </trkpt>
      <trkpt lat="44.58618" lon="4.59382">
        <ele>279</ele>
        <time>2012-01-28T10:16:35Z</time>
      </trkpt>
      <trkpt lat="44.58605" lon="4.59358">
        <ele>281</ele>
        <time>2012-01-28T10:16:50Z</time>
      </trkpt>
      <trkpt lat="44.58609" lon="4.59344">
        <ele>283</ele>
        <time>2012-01-28T10:16:58Z</time>
      </trkpt>
      <trkpt lat="44.58622" lon="4.59349">
        <ele>285</ele>
        <time>2012-01-28T10:17:07Z</time>
      </trkpt>
      <trkpt lat="44.58636" lon="4.59351">
        <ele>287</ele>
        <time>2012-01-28T10:17:18Z</time>
      </trkpt>
      <trkpt lat="44.58641" lon="4.5934">
        <ele>288</ele>
        <time>2012-01-28T10:17:28Z</time>
      </trkpt>
      <trkpt lat="44.58649" lon="4.59315">
        <ele>289</ele>
        <time>2012-01-28T10:17:40Z</time>
      </trkpt>
      <trkpt lat="44.5865" lon="4.59309">
        <ele>289</ele>
        <time>2012-01-28T10:17:43Z</time>
      </trkpt>
      <trkpt lat="44.58651" lon="4.59299">
        <ele>292</ele>
        <time>2012-01-28T10:17:55Z</time>
      </trkpt>
      <trkpt lat="44.58651" lon="4.59299">
        <ele>295</ele>
        <time>2012-01-28T10:18:12Z</time>
      </trkpt>
      <trkpt lat="44.58675" lon="4.59268">
        <ele>295</ele>
        <time>2012-01-28T10:18:21Z</time>
      </trkpt>
      <trkpt lat="44.58687" lon="4.59238">
        <ele>296</ele>
        <time>2012-01-28T10:18:34Z</time>
      </trkpt>
      <trkpt lat="44.58694" lon="4.59211">
        <ele>297</ele>
        <time>2012-01-28T10:18:46Z</time>
      </trkpt>
      <trkpt lat="44.58697" lon="4.59178">
        <ele>299</ele>
        <time>2012-01-28T10:19:00Z</time>
      </trkpt>
      <trkpt lat="44.58705" lon="4.59142">
        <ele>300</ele>
        <time>2012-01-28T10:19:13Z</time>
      </trkpt>
      <trkpt lat="44.58714" lon="4.59126">
        <ele>301</ele>
        <time>2012-01-28T10:19:17Z</time>
      </trkpt>
      <trkpt lat="44.5874" lon="4.59091">
        <ele>301</ele>
        <time>2012-01-28T10:19:26Z</time>
      </trkpt>
      <trkpt lat="44.58756" lon="4.59074">
        <ele>300</ele>
        <time>2012-01-28T10:19:30Z</time>
      </trkpt>
      <trkpt lat="44.58769" lon="4.5907">
        <ele>300</ele>
        <time>2012-01-28T10:19:36Z</time>
      </trkpt>
      <trkpt lat="44.58769" lon="4.5907">
        <ele>301</ele>
        <time>2012-01-28T10:19:43Z</time>
      </trkpt>
      <trkpt lat="44.58769" lon="4.5907">
        <ele>302</ele>
        <time>2012-01-28T10:19:44Z</time>
      </trkpt>
      <trkpt lat="44.58763" lon="4.5907">
        <ele>302</ele>
        <time>2012-01-28T10:20:00Z</time>
      </trkpt>
      <trkpt lat="44.58763" lon="4.5907">
        <ele>304</ele>
        <time>2012-01-28T10:20:14Z</time>
      </trkpt>
      <trkpt lat="44.58763" lon="4.5907">
        <ele>306</ele>
        <time>2012-01-28T10:20:27Z</time>
      </trkpt>
      <trkpt lat="44.58763" lon="4.5907">
        <ele>307</ele>
        <time>2012-01-28T10:20:37Z</time>
      </trkpt>
      <trkpt lat="44.58763" lon="4.5907">
        <ele>310</ele>
        <time>2012-01-28T10:20:49Z</time>
      </trkpt>
      <trkpt lat="44.58763" lon="4.5907">
        <ele>311</ele>
        <time>2012-01-28T10:20:57Z</time>
      </trkpt>
      <trkpt lat="44.58763" lon="4.5907">
        <ele>313</ele>
        <time>2012-01-28T10:21:07Z</time>
      </trkpt>
      <trkpt lat="44.58763" lon="4.5907">
        <ele>314</ele>
        <time>2012-01-28T10:21:12Z</time>
      </trkpt>
      <trkpt lat="44.58763" lon="4.5907">
        <ele>315</ele>
        <time>2012-01-28T10:21:16Z</time>
      </trkpt>
      <trkpt lat="44.58763" lon="4.5907">
        <ele>317</ele>
        <time>2012-01-28T10:21:29Z</time>
      </trkpt>
      <trkpt lat="44.58669" lon="4.59053">
        <ele>319</ele>
        <time>2012-01-28T10:21:41Z</time>
      </trkpt>
      <trkpt lat="44.58669" lon="4.59053">
        <ele>321</ele>
        <time>2012-01-28T10:21:52Z</time>
      </trkpt>
      <trkpt lat="44.58669" lon="4.59053">
        <ele>321</ele>
        <time>2012-01-28T10:21:54Z</time>
      </trkpt>
      <trkpt lat="44.58669" lon="4.59053">
        <ele>323</ele>
        <time>2012-01-28T10:22:04Z</time>
      </trkpt>
      <trkpt lat="44.58669" lon="4.59053">
        <ele>325</ele>
        <time>2012-01-28T10:22:16Z</time>
      </trkpt>
      <trkpt lat="44.58669" lon="4.59053">
        <ele>327</ele>
        <time>2012-01-28T10:22:30Z</time>
      </trkpt>
      <trkpt lat="44.58669" lon="4.59053">
        <ele>326</ele>
        <time>2012-01-28T10:22:31Z</time>
      </trkpt>
      <trkpt lat="44.58669" lon="4.59053">
        <ele>327</ele>
        <time>2012-01-28T10:22:40Z</time>
      </trkpt>
      <trkpt lat="44.58617" lon="4.59067">
        <ele>329</ele>
        <time>2012-01-28T10:22:48Z</time>
      </trkpt>
      <trkpt lat="44.58617" lon="4.59067">
        <ele>331</ele>
        <time>2012-01-28T10:22:59Z</time>
      </trkpt>
      <trkpt lat="44.58617" lon="4.59067">
        <ele>332</ele>
        <time>2012-01-28T10:23:05Z</time>
      </trkpt>
      <trkpt lat="44.58617" lon="4.59067">
        <ele>334</ele>
        <time>2012-01-28T10:23:19Z</time>
      </trkpt>
      <trkpt lat="44.58617" lon="4.59067">
        <ele>336</ele>
        <time>2012-01-28T10:23:33Z</time>
      </trkpt>
      <trkpt lat="44.58621" lon="4.58995">
        <ele>336</ele>
        <time>2012-01-28T10:23:44Z</time>
      </trkpt>
      <trkpt lat="44.58614" lon="4.58963">
        <ele>336</ele>
        <time>2012-01-28T10:23:57Z</time>
      </trkpt>
      <trkpt lat="44.58612" lon="4.58945">
        <ele>337</ele>
        <time>2012-01-28T10:24:07Z</time>
      </trkpt>
      <trkpt lat="44.58612" lon="4.58935">
        <ele>337</ele>
        <time>2012-01-28T10:24:16Z</time>
      </trkpt>
      <trkpt lat="44.58612" lon="4.58923">
        <ele>339</ele>
        <time>2012-01-28T10:24:27Z</time>
      </trkpt>
      <trkpt lat="44.58612" lon="4.58923">
        <ele>341</ele>
        <time>2012-01-28T10:24:43Z</time>
      </trkpt>
      <trkpt lat="44.58612" lon="4.58923">
        <ele>343</ele>
        <time>2012-01-28T10:24:55Z</time>
      </trkpt>
      <trkpt lat="44.58612" lon="4.58923">
        <ele>345</ele>
        <time>2012-01-28T10:25:06Z</time>
      </trkpt>
      <trkpt lat="44.58612" lon="4.58923">
        <ele>347</ele>
        <time>2012-01-28T10:25:20Z</time>
      </trkpt>
      <trkpt lat="44.58612" lon="4.58923">
        <ele>349</ele>
        <time>2012-01-28T10:25:32Z</time>
      </trkpt>
      <trkpt lat="44.58612" lon="4.58923">
        <ele>350</ele>
        <time>2012-01-28T10:25:41Z</time>
      </trkpt>
      <trkpt lat="44.58612" lon="4.58923">
        <ele>352</ele>
        <time>2012-01-28T10:25:52Z</time>
      </trkpt>
      <trkpt lat="44.58612" lon="4.58923">
        <ele>352</ele>
        <time>2012-01-28T10:25:59Z</time>
      </trkpt>
      <trkpt lat="44.58612" lon="4.58923">
        <ele>352</ele>
        <time>2012-01-28T10:26:07Z</time>
      </trkpt>
      <trkpt lat="44.58612" lon="4.58923">
        <ele>351</ele>
        <time>2012-01-28T10:26:25Z</time>
      </trkpt>
      <trkpt lat="44.58612" lon="4.58923">
        <ele>351</ele>
        <time>2012-01-28T10:26:36Z</time>
      </trkpt>
      <trkpt lat="44.58612" lon="4.58923">
        <ele>351</ele>
        <time>2012-01-28T10:27:02Z</time>
      </trkpt>
      <trkpt lat="44.58612" lon="4.58923">
        <ele>352</ele>
        <time>2012-01-28T10:27:11Z</time>
      </trkpt>
      <trkpt lat="44.58612" lon="4.58923">
        <ele>352</ele>
        <time>2012-01-28T10:27:24Z</time>
      </trkpt>
      <trkpt lat="44.58612" lon="4.58923">
        <ele>352</ele>
        <time>2012-01-28T10:27:39Z</time>
      </trkpt>
      <trkpt lat="44.58612" lon="4.58923">
        <ele>351</ele>
        <time>2012-01-28T10:28:22Z</time>
      </trkpt>
      <trkpt lat="44.58612" lon="4.58923">
        <ele>350</ele>
        <time>2012-01-28T10:28:50Z</time>
      </trkpt>
      <trkpt lat="44.58612" lon="4.58923">
        <ele>351</ele>
        <time>2012-01-28T10:29:54Z</time>
      </trkpt>
      <trkpt lat="44.58612" lon="4.58923">
        <ele>352</ele>
        <time>2012-01-28T10:30:09Z</time>
      </trkpt>
      <trkpt lat="44.58613" lon="4.58814">
        <ele>352</ele>
        <time>2012-01-28T10:30:14Z</time>
      </trkpt>
      <trkpt lat="44.58625" lon="4.58811">
        <ele>353</ele>
        <time>2012-01-28T10:30:23Z</time>
      </trkpt>
      <trkpt lat="44.58642" lon="4.5881">
        <ele>355</ele>
        <time>2012-01-28T10:30:36Z</time>
      </trkpt>
      <trkpt lat="44.58655" lon="4.58809">
        <ele>357</ele>
        <time>2012-01-28T10:30:50Z</time>
      </trkpt>
      <trkpt lat="44.58675" lon="4.58808">
        <ele>359</ele>
        <time>2012-01-28T10:31:02Z</time>
      </trkpt>
      <trkpt lat="44.58689" lon="4.58819">
        <ele>361</ele>
        <time>2012-01-28T10:31:14Z</time>
      </trkpt>
      <trkpt lat="44.58704" lon="4.58817">
        <ele>363</ele>
        <time>2012-01-28T10:31:27Z</time>
      </trkpt>
      <trkpt lat="44.5872" lon="4.58814">
        <ele>365</ele>
        <time>2012-01-28T10:31:41Z</time>
      </trkpt>
      <trkpt lat="44.58724" lon="4.58813">
        <ele>365</ele>
        <time>2012-01-28T10:31:42Z</time>
      </trkpt>
      <trkpt lat="44.58744" lon="4.58811">
        <ele>368</ele>
        <time>2012-01-28T10:31:58Z</time>
      </trkpt>
      <trkpt lat="44.58759" lon="4.58808">
        <ele>370</ele>
        <time>2012-01-28T10:32:11Z</time>
      </trkpt>
      <trkpt lat="44.5877" lon="4.58806">
        <ele>371</ele>
        <time>2012-01-28T10:32:20Z</time>
      </trkpt>
      <trkpt lat="44.58787" lon="4.58804">
        <ele>373</ele>
        <time>2012-01-28T10:32:35Z</time>
      </trkpt>
      <trkpt lat="44.58788" lon="4.58804">
        <ele>374</ele>
        <time>2012-01-28T10:32:50Z</time>
      </trkpt>
      <trkpt lat="44.58788" lon="4.58804">
        <ele>376</ele>
        <time>2012-01-28T10:33:06Z</time>
      </trkpt>
      <trkpt lat="44.58788" lon="4.58804">
        <ele>377</ele>
        <time>2012-01-28T10:33:16Z</time>
      </trkpt>
      <trkpt lat="44.58788" lon="4.58804">
        <ele>378</ele>
        <time>2012-01-28T10:33:26Z</time>
      </trkpt>
      <trkpt lat="44.58788" lon="4.58804">
        <ele>380</ele>
        <time>2012-01-28T10:33:39Z</time>
      </trkpt>
      <trkpt lat="44.58788" lon="4.58804">
        <ele>380</ele>
        <time>2012-01-28T10:33:40Z</time>
      </trkpt>
      <trkpt lat="44.58788" lon="4.58804">
        <ele>382</ele>
        <time>2012-01-28T10:33:51Z</time>
      </trkpt>
      <trkpt lat="44.58788" lon="4.58804">
        <ele>382</ele>
        <time>2012-01-28T10:33:52Z</time>
      </trkpt>
      <trkpt lat="44.58847" lon="4.58767">
        <ele>381</ele>
        <time>2012-01-28T10:33:58Z</time>
      </trkpt>
      <trkpt lat="44.58847" lon="4.58767">
        <ele>381</ele>
        <time>2012-01-28T10:34:16Z</time>
      </trkpt>
      <trkpt lat="44.58847" lon="4.58767">
        <ele>382</ele>
        <time>2012-01-28T10:34:19Z</time>
      </trkpt>
      <trkpt lat="44.58868" lon="4.58764">
        <ele>383</ele>
        <time>2012-01-28T10:34:32Z</time>
      </trkpt>
      <trkpt lat="44.58887" lon="4.58763">
        <ele>384</ele>
        <time>2012-01-28T10:34:44Z</time>
      </trkpt>
      <trkpt lat="44.58912" lon="4.58766">
        <ele>385</ele>
        <time>2012-01-28T10:34:56Z</time>
      </trkpt>
      <trkpt lat="44.58938" lon="4.58779">
        <ele>386</ele>
        <time>2012-01-28T10:35:06Z</time>
      </trkpt>
      <trkpt lat="44.58956" lon="4.58784">
        <ele>387</ele>
        <time>2012-01-28T10:35:14Z</time>
      </trkpt>
      <trkpt lat="44.5897" lon="4.58785">
        <ele>388</ele>
        <time>2012-01-28T10:35:21Z</time>
      </trkpt>
      <trkpt lat="44.58994" lon="4.58786">
        <ele>389</ele>
        <time>2012-01-28T10:35:34Z</time>
      </trkpt>
      <trkpt lat="44.59019" lon="4.58792">
        <ele>390</ele>
        <time>2012-01-28T10:35:47Z</time>
      </trkpt>
      <trkpt lat="44.59045" lon="4.58798">
        <ele>392</ele>
        <time>2012-01-28T10:36:04Z</time>
      </trkpt>
      <trkpt lat="44.59061" lon="4.58802">
        <ele>393</ele>
        <time>2012-01-28T10:36:18Z</time>
      </trkpt>
      <trkpt lat="44.5907" lon="4.58804">
        <ele>393</ele>
        <time>2012-01-28T10:36:37Z</time>
      </trkpt>
      <trkpt lat="44.59088" lon="4.58809">
        <ele>395</ele>
        <time>2012-01-28T10:36:49Z</time>
      </trkpt>
      <trkpt lat="44.59108" lon="4.58814">
        <ele>396</ele>
        <time>2012-01-28T10:36:58Z</time>
      </trkpt>
      <trkpt lat="44.59126" lon="4.58819">
        <ele>398</ele>
        <time>2012-01-28T10:37:07Z</time>
      </trkpt>
      <trkpt lat="44.59141" lon="4.58824">
        <ele>400</ele>
        <time>2012-01-28T10:37:18Z</time>
      </trkpt>
      <trkpt lat="44.5916" lon="4.58829">
        <ele>401</ele>
        <time>2012-01-28T10:37:32Z</time>
      </trkpt>
      <trkpt lat="44.5916" lon="4.58829">
        <ele>402</ele>
        <time>2012-01-28T10:37:40Z</time>
      </trkpt>
      <trkpt lat="44.5916" lon="4.58829">
        <ele>401</ele>
        <time>2012-01-28T10:37:56Z</time>
      </trkpt>
      <trkpt lat="44.5916" lon="4.58829">
        <ele>402</ele>
        <time>2012-01-28T10:38:53Z</time>
      </trkpt>
      <trkpt lat="44.5916" lon="4.58829">
        <ele>402</ele>
        <time>2012-01-28T10:39:06Z</time>
      </trkpt>
      <trkpt lat="44.59173" lon="4.58837">
        <ele>403</ele>
        <time>2012-01-28T10:39:12Z</time>
      </trkpt>
      <trkpt lat="44.59191" lon="4.5885">
        <ele>405</ele>
        <time>2012-01-28T10:39:26Z</time>
      </trkpt>
      <trkpt lat="44.59206" lon="4.5887">
        <ele>408</ele>
        <time>2012-01-28T10:39:42Z</time>
      </trkpt>
      <trkpt lat="44.59215" lon="4.58883">
        <ele>409</ele>
        <time>2012-01-28T10:39:52Z</time>
      </trkpt>
      <trkpt lat="44.59222" lon="4.58894">
        <ele>412</ele>
        <time>2012-01-28T10:40:06Z</time>
      </trkpt>
      <trkpt lat="44.59222" lon="4.58894">
        <ele>414</ele>
        <time>2012-01-28T10:40:16Z</time>
      </trkpt>
      <trkpt lat="44.59222" lon="4.58894">
        <ele>417</ele>
        <time>2012-01-28T10:40:28Z</time>
      </trkpt>
      <trkpt lat="44.59222" lon="4.58894">
        <ele>418</ele>
        <time>2012-01-28T10:40:37Z</time>
      </trkpt>
      <trkpt lat="44.59222" lon="4.58894">
        <ele>420</ele>
        <time>2012-01-28T10:40:49Z</time>
      </trkpt>
      <trkpt lat="44.59222" lon="4.58894">
        <ele>422</ele>
        <time>2012-01-28T10:41:06Z</time>
      </trkpt>
      <trkpt lat="44.59222" lon="4.58894">
        <ele>425</ele>
        <time>2012-01-28T10:41:20Z</time>
      </trkpt>
      <trkpt lat="44.59249" lon="4.59018">
        <ele>426</ele>
        <time>2012-01-28T10:41:33Z</time>
      </trkpt>
      <trkpt lat="44.59258" lon="4.59035">
        <ele>428</ele>
        <time>2012-01-28T10:41:45Z</time>
      </trkpt>
      <trkpt lat="44.59267" lon="4.5904">
        <ele>429</ele>
        <time>2012-01-28T10:41:54Z</time>
      </trkpt>
      <trkpt lat="44.59276" lon="4.59043">
        <ele>430</ele>
        <time>2012-01-28T10:41:59Z</time>
      </trkpt>
      <trkpt lat="44.59292" lon="4.59046">
        <ele>432</ele>
        <time>2012-01-28T10:42:12Z</time>
      </trkpt>
      <trkpt lat="44.59304" lon="4.59048">
        <ele>432</ele>
        <time>2012-01-28T10:42:22Z</time>
      </trkpt>
      <trkpt lat="44.59307" lon="4.59049">
        <ele>434</ele>
        <time>2012-01-28T10:42:32Z</time>
      </trkpt>
      <trkpt lat="44.59307" lon="4.59049">
        <ele>435</ele>
        <time>2012-01-28T10:42:39Z</time>
      </trkpt>
      <trkpt lat="44.59325" lon="4.59057">
        <ele>436</ele>
        <time>2012-01-28T10:42:50Z</time>
      </trkpt>
      <trkpt lat="44.5934" lon="4.59055">
        <ele>436</ele>
        <time>2012-01-28T10:42:57Z</time>
      </trkpt>
      <trkpt lat="44.5935" lon="4.59067">
        <ele>437</ele>
        <time>2012-01-28T10:43:07Z</time>
      </trkpt>
      <trkpt lat="44.5936" lon="4.59086">
        <ele>438</ele>
        <time>2012-01-28T10:43:16Z</time>
      </trkpt>
      <trkpt lat="44.59376" lon="4.5909">
        <ele>438</ele>
        <time>2012-01-28T10:43:25Z</time>
      </trkpt>
      <trkpt lat="44.59391" lon="4.59088">
        <ele>440</ele>
        <time>2012-01-28T10:43:34Z</time>
      </trkpt>
      <trkpt lat="44.59394" lon="4.59106">
        <ele>439</ele>
        <time>2012-01-28T10:43:40Z</time>
      </trkpt>
      <trkpt lat="44.59405" lon="4.5913">
        <ele>439</ele>
        <time>2012-01-28T10:43:46Z</time>
      </trkpt>
      <trkpt lat="44.59406" lon="4.59133">
        <ele>439</ele>
        <time>2012-01-28T10:43:47Z</time>
      </trkpt>
      <trkpt lat="44.59406" lon="4.59135">
        <ele>439</ele>
        <time>2012-01-28T10:43:54Z</time>
      </trkpt>
      <trkpt lat="44.59406" lon="4.59135">
        <ele>439</ele>
        <time>2012-01-28T10:44:18Z</time>
      </trkpt>
      <trkpt lat="44.59413" lon="4.59152">
        <ele>439</ele>
        <time>2012-01-28T10:44:25Z</time>
      </trkpt>
      <trkpt lat="44.59418" lon="4.5918">
        <ele>440</ele>
        <time>2012-01-28T10:44:32Z</time>
      </trkpt>
      <trkpt lat="44.59419" lon="4.59184">
        <ele>440</ele>
        <time>2012-01-28T10:44:33Z</time>
      </trkpt>
      <trkpt lat="44.59419" lon="4.59219">
        <ele>440</ele>
        <time>2012-01-28T10:44:42Z</time>
      </trkpt>
      <trkpt lat="44.59422" lon="4.59237">
        <ele>440</ele>
        <time>2012-01-28T10:44:47Z</time>
      </trkpt>
      <trkpt lat="44.59436" lon="4.59256">
        <ele>440</ele>
        <time>2012-01-28T10:44:53Z</time>
      </trkpt>
      <trkpt lat="44.59452" lon="4.59268">
        <ele>441</ele>
        <time>2012-01-28T10:44:59Z</time>
      </trkpt>
      <trkpt lat="44.59475" lon="4.59288">
        <ele>441</ele>
        <time>2012-01-28T10:45:07Z</time>
      </trkpt>
      <trkpt lat="44.59487" lon="4.59304">
        <ele>441</ele>
        <time>2012-01-28T10:45:12Z</time>
      </trkpt>
      <trkpt lat="44.59507" lon="4.59334">
        <ele>440</ele>
        <time>2012-01-28T10:45:19Z</time>
      </trkpt>
      <trkpt lat="44.59524" lon="4.59356">
        <ele>441</ele>
        <time>2012-01-28T10:45:25Z</time>
      </trkpt>
      <trkpt lat="44.59536" lon="4.5937">
        <ele>442</ele>
        <time>2012-01-28T10:45:30Z</time>
      </trkpt>
      <trkpt lat="44.59553" lon="4.59385">
        <ele>443</ele>
        <time>2012-01-28T10:45:38Z</time>
      </trkpt>
      <trkpt lat="44.59572" lon="4.59395">
        <ele>443</ele>
        <time>2012-01-28T10:45:46Z</time>
      </trkpt>
      <trkpt lat="44.59586" lon="4.594">
        <ele>444</ele>
        <time>2012-01-28T10:45:53Z</time>
      </trkpt>
      <trkpt lat="44.59588" lon="4.59401">
        <ele>444</ele>
        <time>2012-01-28T10:45:55Z</time>
      </trkpt>
      <trkpt lat="44.596" lon="4.59402">
        <ele>445</ele>
        <time>2012-01-28T10:46:01Z</time>
      </trkpt>
      <trkpt lat="44.59605" lon="4.59403">
        <ele>445</ele>
        <time>2012-01-28T10:46:03Z</time>
      </trkpt>
      <trkpt lat="44.59619" lon="4.59405">
        <ele>446</ele>
        <time>2012-01-28T10:46:10Z</time>
      </trkpt>
      <trkpt lat="44.59635" lon="4.59405">
        <ele>446</ele>
        <time>2012-01-28T10:46:18Z</time>
      </trkpt>
      <trkpt lat="44.59652" lon="4.59405">
        <ele>445</ele>
        <time>2012-01-28T10:46:22Z</time>
      </trkpt>
      <trkpt lat="44.59681" lon="4.59406">
        <ele>444</ele>
        <time>2012-01-28T10:46:29Z</time>
      </trkpt>
      <trkpt lat="44.59698" lon="4.59406">
        <ele>444</ele>
        <time>2012-01-28T10:46:35Z</time>
      </trkpt>
      <trkpt lat="44.5971" lon="4.59407">
        <ele>445</ele>
        <time>2012-01-28T10:46:41Z</time>
      </trkpt>
      <trkpt lat="44.59732" lon="4.59412">
        <ele>446</ele>
        <time>2012-01-28T10:46:50Z</time>
      </trkpt>
      <trkpt lat="44.59743" lon="4.59415">
        <ele>447</ele>
        <time>2012-01-28T10:46:55Z</time>
      </trkpt>
      <trkpt lat="44.59744" lon="4.59416">
        <ele>448</ele>
        <time>2012-01-28T10:46:57Z</time>
      </trkpt>
      <trkpt lat="44.59759" lon="4.59421">
        <ele>448</ele>
        <time>2012-01-28T10:47:04Z</time>
      </trkpt>
      <trkpt lat="44.59779" lon="4.59428">
        <ele>450</ele>
        <time>2012-01-28T10:47:13Z</time>
      </trkpt>
      <trkpt lat="44.59793" lon="4.59437">
        <ele>450</ele>
        <time>2012-01-28T10:47:20Z</time>
      </trkpt>
      <trkpt lat="44.59803" lon="4.59445">
        <ele>450</ele>
        <time>2012-01-28T10:47:24Z</time>
      </trkpt>
      <trkpt lat="44.59813" lon="4.59457">
        <ele>449</ele>
        <time>2012-01-28T10:47:27Z</time>
      </trkpt>
      <trkpt lat="44.59833" lon="4.5948">
        <ele>449</ele>
        <time>2012-01-28T10:47:34Z</time>
      </trkpt>
      <trkpt lat="44.59853" lon="4.59499">
        <ele>450</ele>
        <time>2012-01-28T10:47:42Z</time>
      </trkpt>
      <trkpt lat="44.59872" lon="4.59511">
        <ele>451</ele>
        <time>2012-01-28T10:47:50Z</time>
      </trkpt>
      <trkpt lat="44.59883" lon="4.59514">
        <ele>451</ele>
        <time>2012-01-28T10:47:59Z</time>
      </trkpt>
      <trkpt lat="44.59897" lon="4.59539">
        <ele>453</ele>
        <time>2012-01-28T10:48:07Z</time>
      </trkpt>
      <trkpt lat="44.59909" lon="4.59558">
        <ele>454</ele>
        <time>2012-01-28T10:48:17Z</time>
      </trkpt>
      <trkpt lat="44.5992" lon="4.59568">
        <ele>455</ele>
        <time>2012-01-28T10:48:24Z</time>
      </trkpt>
      <trkpt lat="44.59928" lon="4.59574">
        <ele>453</ele>
        <time>2012-01-28T10:48:30Z</time>
      </trkpt>
      <trkpt lat="44.5995" lon="4.59577">
        <ele>451</ele>
        <time>2012-01-28T10:48:34Z</time>
      </trkpt>
      <trkpt lat="44.5995" lon="4.59577">
        <ele>451</ele>
        <time>2012-01-28T10:48:42Z</time>
      </trkpt>
      <trkpt lat="44.59948" lon="4.59578">
        <ele>451</ele>
        <time>2012-01-28T10:48:51Z</time>
      </trkpt>
      <trkpt lat="44.59948" lon="4.59578">
        <ele>452</ele>
        <time>2012-01-28T10:48:58Z</time>
      </trkpt>
      <trkpt lat="44.59948" lon="4.59578">
        <ele>451</ele>
        <time>2012-01-28T10:49:39Z</time>
      </trkpt>
      <trkpt lat="44.59948" lon="4.59578">
        <ele>452</ele>
        <time>2012-01-28T10:50:09Z</time>
      </trkpt>
      <trkpt lat="44.59948" lon="4.59578">
        <ele>451</ele>
        <time>2012-01-28T10:50:18Z</time>
      </trkpt>
      <trkpt lat="44.59948" lon="4.59578">
        <ele>451</ele>
        <time>2012-01-28T10:50:28Z</time>
      </trkpt>
      <trkpt lat="44.59948" lon="4.59578">
        <ele>452</ele>
        <time>2012-01-28T10:50:33Z</time>
      </trkpt>
      <trkpt lat="44.59951" lon="4.59577">
        <ele>452</ele>
        <time>2012-01-28T10:50:37Z</time>
      </trkpt>
      <trkpt lat="44.59972" lon="4.59574">
        <ele>452</ele>
        <time>2012-01-28T10:50:44Z</time>
      </trkpt>
      <trkpt lat="44.59986" lon="4.59575">
        <ele>452</ele>
        <time>2012-01-28T10:50:50Z</time>
      </trkpt>
      <trkpt lat="44.60001" lon="4.59576">
        <ele>454</ele>
        <time>2012-01-28T10:50:58Z</time>
      </trkpt>
      <trkpt lat="44.60016" lon="4.59577">
        <ele>455</ele>
        <time>2012-01-28T10:51:07Z</time>
      </trkpt>
      <trkpt lat="44.6003" lon="4.59582">
        <ele>456</ele>
        <time>2012-01-28T10:51:17Z</time>
      </trkpt>
      <trkpt lat="44.6004" lon="4.59586">
        <ele>458</ele>
        <time>2012-01-28T10:51:25Z</time>
      </trkpt>
      <trkpt lat="44.60054" lon="4.59589">
        <ele>459</ele>
        <time>2012-01-28T10:51:35Z</time>
      </trkpt>
      <trkpt lat="44.60068" lon="4.59592">
        <ele>461</ele>
        <time>2012-01-28T10:51:46Z</time>
      </trkpt>
      <trkpt lat="44.60083" lon="4.59596">
        <ele>462</ele>
        <time>2012-01-28T10:51:58Z</time>
      </trkpt>
      <trkpt lat="44.60101" lon="4.59601">
        <ele>463</ele>
        <time>2012-01-28T10:52:10Z</time>
      </trkpt>
      <trkpt lat="44.60114" lon="4.59602">
        <ele>464</ele>
        <time>2012-01-28T10:52:19Z</time>
      </trkpt>
      <trkpt lat="44.60117" lon="4.59602">
        <ele>465</ele>
        <time>2012-01-28T10:52:24Z</time>
      </trkpt>
      <trkpt lat="44.60117" lon="4.59602">
        <ele>465</ele>
        <time>2012-01-28T10:52:26Z</time>
      </trkpt>
      <trkpt lat="44.60131" lon="4.596">
        <ele>467</ele>
        <time>2012-01-28T10:52:38Z</time>
      </trkpt>
      <trkpt lat="44.60146" lon="4.59598">
        <ele>468</ele>
        <time>2012-01-28T10:52:46Z</time>
      </trkpt>
      <trkpt lat="44.6015" lon="4.59598">
        <ele>469</ele>
        <time>2012-01-28T10:52:55Z</time>
      </trkpt>
      <trkpt lat="44.60165" lon="4.59592">
        <ele>470</ele>
        <time>2012-01-28T10:53:03Z</time>
      </trkpt>
      <trkpt lat="44.60165" lon="4.59592">
        <ele>472</ele>
        <time>2012-01-28T10:53:08Z</time>
      </trkpt>
      <trkpt lat="44.60171" lon="4.5959">
        <ele>473</ele>
        <time>2012-01-28T10:53:10Z</time>
      </trkpt>
      <trkpt lat="44.60177" lon="4.59589">
        <ele>474</ele>
        <time>2012-01-28T10:53:19Z</time>
      </trkpt>
      <trkpt lat="44.60177" lon="4.59589">
        <ele>475</ele>
        <time>2012-01-28T10:53:26Z</time>
      </trkpt>
      <trkpt lat="44.60193" lon="4.59589">
        <ele>477</ele>
        <time>2012-01-28T10:53:36Z</time>
      </trkpt>
      <trkpt lat="44.60193" lon="4.59589">
        <ele>478</ele>
        <time>2012-01-28T10:53:42Z</time>
      </trkpt>
      <trkpt lat="44.60219" lon="4.59599">
        <ele>478</ele>
        <time>2012-01-28T10:53:50Z</time>
      </trkpt>
      <trkpt lat="44.60224" lon="4.59602">
        <ele>479</ele>
        <time>2012-01-28T10:53:53Z</time>
      </trkpt>
      <trkpt lat="44.60227" lon="4.59603">
        <ele>480</ele>
        <time>2012-01-28T10:54:03Z</time>
      </trkpt>
      <trkpt lat="44.60239" lon="4.59611">
        <ele>482</ele>
        <time>2012-01-28T10:54:11Z</time>
      </trkpt>
      <trkpt lat="44.60239" lon="4.59611">
        <ele>484</ele>
        <time>2012-01-28T10:54:20Z</time>
      </trkpt>
      <trkpt lat="44.60239" lon="4.59611">
        <ele>485</ele>
        <time>2012-01-28T10:54:29Z</time>
      </trkpt>
      <trkpt lat="44.60239" lon="4.59611">
        <ele>486</ele>
        <time>2012-01-28T10:54:38Z</time>
      </trkpt>
      <trkpt lat="44.60239" lon="4.59611">
        <ele>486</ele>
        <time>2012-01-28T10:54:50Z</time>
      </trkpt>
      <trkpt lat="44.60239" lon="4.59611">
        <ele>486</ele>
        <time>2012-01-28T10:54:51Z</time>
      </trkpt>
      <trkpt lat="44.60288" lon="4.59616">
        <ele>487</ele>
        <time>2012-01-28T10:54:56Z</time>
      </trkpt>
      <trkpt lat="44.60289" lon="4.59616">
        <ele>487</ele>
        <time>2012-01-28T10:55:06Z</time>
      </trkpt>
      <trkpt lat="44.60289" lon="4.59616">
        <ele>486</ele>
        <time>2012-01-28T10:55:15Z</time>
      </trkpt>
      <trkpt lat="44.60289" lon="4.59616">
        <ele>486</ele>
        <time>2012-01-28T10:55:21Z</time>
      </trkpt>
      <trkpt lat="44.60289" lon="4.59616">
        <ele>486</ele>
        <time>2012-01-28T10:55:29Z</time>
      </trkpt>
      <trkpt lat="44.60289" lon="4.59616">
        <ele>486</ele>
        <time>2012-01-28T10:55:56Z</time>
      </trkpt>
      <trkpt lat="44.60289" lon="4.59616">
        <ele>486</ele>
        <time>2012-01-28T10:56:11Z</time>
      </trkpt>
      <trkpt lat="44.60289" lon="4.59616">
        <ele>487</ele>
        <time>2012-01-28T10:56:15Z</time>
      </trkpt>
      <trkpt lat="44.60305" lon="4.59615">
        <ele>488</ele>
        <time>2012-01-28T10:56:20Z</time>
      </trkpt>
      <trkpt lat="44.60305" lon="4.59615">
        <ele>488</ele>
        <time>2012-01-28T10:56:28Z</time>
      </trkpt>
      <trkpt lat="44.60305" lon="4.59615">
        <ele>489</ele>
        <time>2012-01-28T10:56:37Z</time>
      </trkpt>
      <trkpt lat="44.60305" lon="4.59615">
        <ele>491</ele>
        <time>2012-01-28T10:56:47Z</time>
      </trkpt>
      <trkpt lat="44.60346" lon="4.59619">
        <ele>492</ele>
        <time>2012-01-28T10:56:56Z</time>
      </trkpt>
      <trkpt lat="44.60349" lon="4.5962">
        <ele>494</ele>
        <time>2012-01-28T10:57:04Z</time>
      </trkpt>
      <trkpt lat="44.60349" lon="4.5962">
        <ele>494</ele>
        <time>2012-01-28T10:57:06Z</time>
      </trkpt>
      <trkpt lat="44.60349" lon="4.5962">
        <ele>495</ele>
        <time>2012-01-28T10:57:14Z</time>
      </trkpt>
      <trkpt lat="44.60349" lon="4.5962">
        <ele>496</ele>
        <time>2012-01-28T10:57:21Z</time>
      </trkpt>
      <trkpt lat="44.60376" lon="4.59623">
        <ele>496</ele>
        <time>2012-01-28T10:57:24Z</time>
      </trkpt>
      <trkpt lat="44.60382" lon="4.59623">
        <ele>496</ele>
        <time>2012-01-28T10:57:27Z</time>
      </trkpt>
      <trkpt lat="44.60395" lon="4.59622">
        <ele>498</ele>
        <time>2012-01-28T10:57:36Z</time>
      </trkpt>
      <trkpt lat="44.60395" lon="4.59622">
        <ele>499</ele>
        <time>2012-01-28T10:57:39Z</time>
      </trkpt>
      <trkpt lat="44.60406" lon="4.59621">
        <ele>500</ele>
        <time>2012-01-28T10:57:47Z</time>
      </trkpt>
      <trkpt lat="44.60406" lon="4.59621">
        <ele>501</ele>
        <time>2012-01-28T10:57:51Z</time>
      </trkpt>
      <trkpt lat="44.60417" lon="4.59619">
        <ele>503</ele>
        <time>2012-01-28T10:58:02Z</time>
      </trkpt>
      <trkpt lat="44.60417" lon="4.59619">
        <ele>503</ele>
        <time>2012-01-28T10:58:05Z</time>
      </trkpt>
      <trkpt lat="44.60443" lon="4.59619">
        <ele>503</ele>
        <time>2012-01-28T10:58:18Z</time>
      </trkpt>
      <trkpt lat="44.60445" lon="4.59619">
        <ele>504</ele>
        <time>2012-01-28T10:58:28Z</time>
      </trkpt>
      <trkpt lat="44.60469" lon="4.59623">
        <ele>503</ele>
        <time>2012-01-28T10:58:37Z</time>
      </trkpt>
      <trkpt lat="44.60474" lon="4.59623">
        <ele>503</ele>
        <time>2012-01-28T10:58:41Z</time>
      </trkpt>
      <trkpt lat="44.60477" lon="4.59623">
        <ele>504</ele>
        <time>2012-01-28T10:58:53Z</time>
      </trkpt>
      <trkpt lat="44.60477" lon="4.59623">
        <ele>504</ele>
        <time>2012-01-28T10:59:03Z</time>
      </trkpt>
      <trkpt lat="44.60477" lon="4.59623">
        <ele>504</ele>
        <time>2012-01-28T10:59:11Z</time>
      </trkpt>
      <trkpt lat="44.60477" lon="4.59623">
        <ele>504</ele>
        <time>2012-01-28T11:01:27Z</time>
      </trkpt>
      <trkpt lat="44.60497" lon="4.59623">
        <ele>505</ele>
        <time>2012-01-28T11:01:36Z</time>
      </trkpt>
      <trkpt lat="44.60519" lon="4.59631">
        <ele>505</ele>
        <time>2012-01-28T11:01:47Z</time>
      </trkpt>
      <trkpt lat="44.60529" lon="4.59639">
        <ele>505</ele>
        <time>2012-01-28T11:01:50Z</time>
      </trkpt>
      <trkpt lat="44.60547" lon="4.59651">
        <ele>505</ele>
        <time>2012-01-28T11:01:57Z</time>
      </trkpt>
      <trkpt lat="44.60579" lon="4.59666">
        <ele>506</ele>
        <time>2012-01-28T11:02:08Z</time>
      </trkpt>
      <trkpt lat="44.60597" lon="4.59667">
        <ele>508</ele>
        <time>2012-01-28T11:02:16Z</time>
      </trkpt>
      <trkpt lat="44.60607" lon="4.59669">
        <ele>509</ele>
        <time>2012-01-28T11:02:21Z</time>
      </trkpt>
      <trkpt lat="44.60624" lon="4.59672">
        <ele>510</ele>
        <time>2012-01-28T11:02:31Z</time>
      </trkpt>
      <trkpt lat="44.60637" lon="4.59675">
        <ele>511</ele>
        <time>2012-01-28T11:02:39Z</time>
      </trkpt>
      <trkpt lat="44.60647" lon="4.59679">
        <ele>512</ele>
        <time>2012-01-28T11:02:47Z</time>
      </trkpt>
      <trkpt lat="44.60663" lon="4.59685">
        <ele>513</ele>
        <time>2012-01-28T11:02:53Z</time>
      </trkpt>
      <trkpt lat="44.60687" lon="4.59697">
        <ele>514</ele>
        <time>2012-01-28T11:03:04Z</time>
      </trkpt>
      <trkpt lat="44.60711" lon="4.59706">
        <ele>515</ele>
        <time>2012-01-28T11:03:14Z</time>
      </trkpt>
      <trkpt lat="44.60733" lon="4.59715">
        <ele>516</ele>
        <time>2012-01-28T11:03:23Z</time>
      </trkpt>
      <trkpt lat="44.60748" lon="4.5972">
        <ele>516</ele>
        <time>2012-01-28T11:03:29Z</time>
      </trkpt>
      <trkpt lat="44.60764" lon="4.59727">
        <ele>517</ele>
        <time>2012-01-28T11:03:37Z</time>
      </trkpt>
      <trkpt lat="44.60786" lon="4.59737">
        <ele>518</ele>
        <time>2012-01-28T11:03:45Z</time>
      </trkpt>
      <trkpt lat="44.6081" lon="4.59747">
        <ele>519</ele>
        <time>2012-01-28T11:03:56Z</time>
      </trkpt>
      <trkpt lat="44.60832" lon="4.59755">
        <ele>520</ele>
        <time>2012-01-28T11:04:08Z</time>
      </trkpt>
      <trkpt lat="44.60842" lon="4.59757">
        <ele>522</ele>
        <time>2012-01-28T11:04:14Z</time>
      </trkpt>
      <trkpt lat="44.60853" lon="4.59759">
        <ele>523</ele>
        <time>2012-01-28T11:04:21Z</time>
      </trkpt>
      <trkpt lat="44.60867" lon="4.59757">
        <ele>526</ele>
        <time>2012-01-28T11:04:30Z</time>
      </trkpt>
      <trkpt lat="44.60883" lon="4.59755">
        <ele>527</ele>
        <time>2012-01-28T11:04:41Z</time>
      </trkpt>
      <trkpt lat="44.609" lon="4.59747">
        <ele>528</ele>
        <time>2012-01-28T11:04:54Z</time>
      </trkpt>
      <trkpt lat="44.60919" lon="4.59739">
        <ele>531</ele>
        <time>2012-01-28T11:05:08Z</time>
      </trkpt>
      <trkpt lat="44.6094" lon="4.59739">
        <ele>534</ele>
        <time>2012-01-28T11:05:21Z</time>
      </trkpt>
      <trkpt lat="44.6096" lon="4.59739">
        <ele>536</ele>
        <time>2012-01-28T11:05:33Z</time>
      </trkpt>
      <trkpt lat="44.60972" lon="4.59738">
        <ele>537</ele>
        <time>2012-01-28T11:05:41Z</time>
      </trkpt>
      <trkpt lat="44.60995" lon="4.59737">
        <ele>539</ele>
        <time>2012-01-28T11:05:55Z</time>
      </trkpt>
      <trkpt lat="44.61013" lon="4.59735">
        <ele>538</ele>
        <time>2012-01-28T11:06:03Z</time>
      </trkpt>
      <trkpt lat="44.61034" lon="4.59726">
        <ele>538</ele>
        <time>2012-01-28T11:06:09Z</time>
      </trkpt>
      <trkpt lat="44.61046" lon="4.59722">
        <ele>539</ele>
        <time>2012-01-28T11:06:17Z</time>
      </trkpt>
      <trkpt lat="44.61064" lon="4.59722">
        <ele>541</ele>
        <time>2012-01-28T11:06:28Z</time>
      </trkpt>
      <trkpt lat="44.61085" lon="4.59728">
        <ele>543</ele>
        <time>2012-01-28T11:06:42Z</time>
      </trkpt>
      <trkpt lat="44.61109" lon="4.59736">
        <ele>544</ele>
        <time>2012-01-28T11:06:54Z</time>
      </trkpt>
      <trkpt lat="44.61134" lon="4.59743">
        <ele>543</ele>
        <time>2012-01-28T11:07:03Z</time>
      </trkpt>
      <trkpt lat="44.61164" lon="4.59752">
        <ele>542</ele>
        <time>2012-01-28T11:07:13Z</time>
      </trkpt>
      <trkpt lat="44.61167" lon="4.59752">
        <ele>542</ele>
        <time>2012-01-28T11:07:18Z</time>
      </trkpt>
      <trkpt lat="44.61172" lon="4.59754">
        <ele>542</ele>
        <time>2012-01-28T11:08:32Z</time>
      </trkpt>
      <trkpt lat="44.61174" lon="4.59754">
        <ele>541</ele>
        <time>2012-01-28T11:08:33Z</time>
      </trkpt>
      <trkpt lat="44.61178" lon="4.59755">
        <ele>540</ele>
        <time>2012-01-28T11:08:35Z</time>
      </trkpt>
      <trkpt lat="44.6119" lon="4.59758">
        <ele>537</ele>
        <time>2012-01-28T11:08:41Z</time>
      </trkpt>
      <trkpt lat="44.61194" lon="4.59759">
        <ele>535</ele>
        <time>2012-01-28T11:08:43Z</time>
      </trkpt>
      <trkpt lat="44.6119" lon="4.59802">
        <ele>534</ele>
        <time>2012-01-28T11:08:46Z</time>
      </trkpt>
      <trkpt lat="44.61185" lon="4.59819">
        <ele>531</ele>
        <time>2012-01-28T11:08:52Z</time>
      </trkpt>
      <trkpt lat="44.61184" lon="4.59824">
        <ele>530</ele>
        <time>2012-01-28T11:08:55Z</time>
      </trkpt>
      <trkpt lat="44.61183" lon="4.59825">
        <ele>529</ele>
        <time>2012-01-28T11:09:04Z</time>
      </trkpt>
      <trkpt lat="44.61183" lon="4.59825">
        <ele>529</ele>
        <time>2012-01-28T11:09:14Z</time>
      </trkpt>
      <trkpt lat="44.61184" lon="4.59827">
        <ele>529</ele>
        <time>2012-01-28T11:09:19Z</time>
      </trkpt>
      <trkpt lat="44.61183" lon="4.59825">
        <ele>529</ele>
        <time>2012-01-28T11:09:26Z</time>
      </trkpt>
      <trkpt lat="44.61184" lon="4.59828">
        <ele>528</ele>
        <time>2012-01-28T11:09:37Z</time>
      </trkpt>
      <trkpt lat="44.61185" lon="4.59826">
        <ele>528</ele>
        <time>2012-01-28T11:09:42Z</time>
      </trkpt>
      <trkpt lat="44.61185" lon="4.59826">
        <ele>528</ele>
        <time>2012-01-28T11:09:48Z</time>
      </trkpt>
      <trkpt lat="44.61185" lon="4.59826">
        <ele>528</ele>
        <time>2012-01-28T11:09:51Z</time>
      </trkpt>
      <trkpt lat="44.61185" lon="4.59827">
        <ele>527</ele>
        <time>2012-01-28T11:10:00Z</time>
      </trkpt>
      <trkpt lat="44.61196" lon="4.59837">
        <ele>525</ele>
        <time>2012-01-28T11:10:06Z</time>
      </trkpt>
      <trkpt lat="44.61197" lon="4.59839">
        <ele>525</ele>
        <time>2012-01-28T11:10:07Z</time>
      </trkpt>
      <trkpt lat="44.6121" lon="4.59864">
        <ele>520</ele>
        <time>2012-01-28T11:10:13Z</time>
      </trkpt>
      <trkpt lat="44.6122" lon="4.59877">
        <ele>516</ele>
        <time>2012-01-28T11:10:17Z</time>
      </trkpt>
      <trkpt lat="44.61232" lon="4.59895">
        <ele>513</ele>
        <time>2012-01-28T11:10:22Z</time>
      </trkpt>
      <trkpt lat="44.61241" lon="4.59908">
        <ele>511</ele>
        <time>2012-01-28T11:10:25Z</time>
      </trkpt>
      <trkpt lat="44.61249" lon="4.59919">
        <ele>508</ele>
        <time>2012-01-28T11:10:28Z</time>
      </trkpt>
      <trkpt lat="44.61258" lon="4.59927">
        <ele>506</ele>
        <time>2012-01-28T11:10:33Z</time>
      </trkpt>
      <trkpt lat="44.61263" lon="4.59929">
        <ele>506</ele>
        <time>2012-01-28T11:10:37Z</time>
      </trkpt>
      <trkpt lat="44.61282" lon="4.59944">
        <ele>503</ele>
        <time>2012-01-28T11:10:44Z</time>
      </trkpt>
      <trkpt lat="44.61291" lon="4.59954">
        <ele>501</ele>
        <time>2012-01-28T11:10:47Z</time>
      </trkpt>
      <trkpt lat="44.61298" lon="4.5996">
        <ele>500</ele>
        <time>2012-01-28T11:10:50Z</time>
      </trkpt>
      <trkpt lat="44.61301" lon="4.59967">
        <ele>499</ele>
        <time>2012-01-28T11:10:59Z</time>
      </trkpt>
      <trkpt lat="44.61302" lon="4.59968">
        <ele>499</ele>
        <time>2012-01-28T11:11:03Z</time>
      </trkpt>
      <trkpt lat="44.61308" lon="4.59974">
        <ele>498</ele>
        <time>2012-01-28T11:11:07Z</time>
      </trkpt>
      <trkpt lat="44.61314" lon="4.59978">
        <ele>497</ele>
        <time>2012-01-28T11:11:09Z</time>
      </trkpt>
      <trkpt lat="44.61335" lon="4.60035">
        <ele>496</ele>
        <time>2012-01-28T11:11:13Z</time>
      </trkpt>
      <trkpt lat="44.61355" lon="4.60042">
        <ele>494</ele>
        <time>2012-01-28T11:11:19Z</time>
      </trkpt>
      <trkpt lat="44.61358" lon="4.60045">
        <ele>492</ele>
        <time>2012-01-28T11:11:23Z</time>
      </trkpt>
      <trkpt lat="44.61373" lon="4.60059">
        <ele>490</ele>
        <time>2012-01-28T11:11:30Z</time>
      </trkpt>
      <trkpt lat="44.61382" lon="4.60067">
        <ele>488</ele>
        <time>2012-01-28T11:11:36Z</time>
      </trkpt>
      <trkpt lat="44.61383" lon="4.60068">
        <ele>487</ele>
        <time>2012-01-28T11:11:42Z</time>
      </trkpt>
      <trkpt lat="44.61393" lon="4.6008">
        <ele>486</ele>
        <time>2012-01-28T11:11:52Z</time>
      </trkpt>
      <trkpt lat="44.61405" lon="4.60089">
        <ele>485</ele>
        <time>2012-01-28T11:11:58Z</time>
      </trkpt>
      <trkpt lat="44.6141" lon="4.60092">
        <ele>484</ele>
        <time>2012-01-28T11:12:00Z</time>
      </trkpt>
      <trkpt lat="44.61425" lon="4.60102">
        <ele>481</ele>
        <time>2012-01-28T11:12:08Z</time>
      </trkpt>
      <trkpt lat="44.61427" lon="4.60103">
        <ele>481</ele>
        <time>2012-01-28T11:12:09Z</time>
      </trkpt>
      <trkpt lat="44.61433" lon="4.60108">
        <ele>481</ele>
        <time>2012-01-28T11:12:12Z</time>
      </trkpt>
      <trkpt lat="44.61441" lon="4.60115">
        <ele>479</ele>
        <time>2012-01-28T11:12:19Z</time>
      </trkpt>
      <trkpt lat="44.61447" lon="4.6012">
        <ele>479</ele>
        <time>2012-01-28T11:12:26Z</time>
      </trkpt>
      <trkpt lat="44.61447" lon="4.6012">
        <ele>479</ele>
        <time>2012-01-28T11:12:45Z</time>
      </trkpt>
      <trkpt lat="44.61447" lon="4.6012">
        <ele>479</ele>
        <time>2012-01-28T11:13:18Z</time>
      </trkpt>
      <trkpt lat="44.61447" lon="4.6012">
        <ele>479</ele>
        <time>2012-01-28T11:13:30Z</time>
      </trkpt>
      <trkpt lat="44.61447" lon="4.6012">
        <ele>479</ele>
        <time>2012-01-28T11:13:37Z</time>
      </trkpt>
      <trkpt lat="44.61447" lon="4.6012">
        <ele>479</ele>
        <time>2012-01-28T11:13:39Z</time>
      </trkpt>
      <trkpt lat="44.61468" lon="4.60136">
        <ele>477</ele>
        <time>2012-01-28T11:13:46Z</time>
      </trkpt>
      <trkpt lat="44.61481" lon="4.60145">
        <ele>475</ele>
        <time>2012-01-28T11:13:49Z</time>
      </trkpt>
      <trkpt lat="44.61506" lon="4.60167">
        <ele>470</ele>
        <time>2012-01-28T11:13:54Z</time>
      </trkpt>
      <trkpt lat="44.61519" lon="4.60178">
        <ele>467</ele>
        <time>2012-01-28T11:13:57Z</time>
      </trkpt>
      <trkpt lat="44.61528" lon="4.60187">
        <ele>465</ele>
        <time>2012-01-28T11:13:59Z</time>
      </trkpt>
      <trkpt lat="44.61538" lon="4.602">
        <ele>461</ele>
        <time>2012-01-28T11:14:03Z</time>
      </trkpt>
      <trkpt lat="44.61538" lon="4.602">
        <ele>460</ele>
        <time>2012-01-28T11:14:05Z</time>
      </trkpt>
      <trkpt lat="44.61544" lon="4.60207">
        <ele>459</ele>
        <time>2012-01-28T11:14:19Z</time>
      </trkpt>
      <trkpt lat="44.61562" lon="4.60223">
        <ele>456</ele>
        <time>2012-01-28T11:14:24Z</time>
      </trkpt>
      <trkpt lat="44.61565" lon="4.60225">
        <ele>455</ele>
        <time>2012-01-28T11:14:25Z</time>
      </trkpt>
      <trkpt lat="44.61579" lon="4.60233">
        <ele>452</ele>
        <time>2012-01-28T11:14:30Z</time>
      </trkpt>
      <trkpt lat="44.61586" lon="4.60233">
        <ele>450</ele>
        <time>2012-01-28T11:14:36Z</time>
      </trkpt>
      <trkpt lat="44.61586" lon="4.60233">
        <ele>450</ele>
        <time>2012-01-28T11:14:41Z</time>
      </trkpt>
      <trkpt lat="44.61586" lon="4.60233">
        <ele>449</ele>
        <time>2012-01-28T11:14:50Z</time>
      </trkpt>
      <trkpt lat="44.61586" lon="4.60233">
        <ele>448</ele>
        <time>2012-01-28T11:14:54Z</time>
      </trkpt>
      <trkpt lat="44.61582" lon="4.60233">
        <ele>449</ele>
        <time>2012-01-28T11:14:56Z</time>
      </trkpt>
      <trkpt lat="44.61583" lon="4.60233">
        <ele>449</ele>
        <time>2012-01-28T11:14:59Z</time>
      </trkpt>
      <trkpt lat="44.61583" lon="4.60233">
        <ele>449</ele>
        <time>2012-01-28T11:15:06Z</time>
      </trkpt>
      <trkpt lat="44.61583" lon="4.60233">
        <ele>449</ele>
        <time>2012-01-28T11:15:10Z</time>
      </trkpt>
      <trkpt lat="44.61583" lon="4.60233">
        <ele>447</ele>
        <time>2012-01-28T11:15:18Z</time>
      </trkpt>
      <trkpt lat="44.61583" lon="4.60233">
        <ele>448</ele>
        <time>2012-01-28T11:16:06Z</time>
      </trkpt>
      <trkpt lat="44.61583" lon="4.60233">
        <ele>449</ele>
        <time>2012-01-28T11:16:25Z</time>
      </trkpt>
      <trkpt lat="44.61583" lon="4.60233">
        <ele>448</ele>
        <time>2012-01-28T11:16:26Z</time>
      </trkpt>
      <trkpt lat="44.61586" lon="4.60233">
        <ele>447</ele>
        <time>2012-01-28T11:16:30Z</time>
      </trkpt>
      <trkpt lat="44.61611" lon="4.60238">
        <ele>442</ele>
        <time>2012-01-28T11:16:34Z</time>
      </trkpt>
      <trkpt lat="44.61614" lon="4.60241">
        <ele>441</ele>
        <time>2012-01-28T11:16:36Z</time>
      </trkpt>
      <trkpt lat="44.61628" lon="4.60253">
        <ele>439</ele>
        <time>2012-01-28T11:16:40Z</time>
      </trkpt>
      <trkpt lat="44.61641" lon="4.60262">
        <ele>437</ele>
        <time>2012-01-28T11:16:43Z</time>
      </trkpt>
      <trkpt lat="44.61652" lon="4.60269">
        <ele>434</ele>
        <time>2012-01-28T11:16:45Z</time>
      </trkpt>
      <trkpt lat="44.61668" lon="4.6028">
        <ele>431</ele>
        <time>2012-01-28T11:16:48Z</time>
      </trkpt>
      <trkpt lat="44.61683" lon="4.60289">
        <ele>428</ele>
        <time>2012-01-28T11:16:51Z</time>
      </trkpt>
      <trkpt lat="44.61689" lon="4.60291">
        <ele>426</ele>
        <time>2012-01-28T11:16:54Z</time>
      </trkpt>
      <trkpt lat="44.61703" lon="4.60293">
        <ele>425</ele>
        <time>2012-01-28T11:16:58Z</time>
      </trkpt>
      <trkpt lat="44.61707" lon="4.60293">
        <ele>425</ele>
        <time>2012-01-28T11:16:59Z</time>
      </trkpt>
      <trkpt lat="44.61729" lon="4.60308">
        <ele>425</ele>
        <time>2012-01-28T11:17:05Z</time>
      </trkpt>
      <trkpt lat="44.61746" lon="4.6032">
        <ele>421</ele>
        <time>2012-01-28T11:17:08Z</time>
      </trkpt>
      <trkpt lat="44.61752" lon="4.60325">
        <ele>421</ele>
        <time>2012-01-28T11:17:09Z</time>
      </trkpt>
      <trkpt lat="44.61769" lon="4.60348">
        <ele>420</ele>
        <time>2012-01-28T11:17:13Z</time>
      </trkpt>
      <trkpt lat="44.61788" lon="4.60363">
        <ele>418</ele>
        <time>2012-01-28T11:17:19Z</time>
      </trkpt>
      <trkpt lat="44.61802" lon="4.60382">
        <ele>417</ele>
        <time>2012-01-28T11:17:26Z</time>
      </trkpt>
      <trkpt lat="44.61805" lon="4.60387">
        <ele>416</ele>
        <time>2012-01-28T11:17:27Z</time>
      </trkpt>
      <trkpt lat="44.61812" lon="4.60402">
        <ele>414</ele>
        <time>2012-01-28T11:17:31Z</time>
      </trkpt>
      <trkpt lat="44.61815" lon="4.60417">
        <ele>413</ele>
        <time>2012-01-28T11:17:37Z</time>
      </trkpt>
      <trkpt lat="44.61814" lon="4.60424">
        <ele>413</ele>
        <time>2012-01-28T11:17:42Z</time>
      </trkpt>
      <trkpt lat="44.61814" lon="4.60424">
        <ele>413</ele>
        <time>2012-01-28T11:17:46Z</time>
      </trkpt>
      <trkpt lat="44.61814" lon="4.60437">
        <ele>414</ele>
        <time>2012-01-28T11:17:57Z</time>
      </trkpt>
      <trkpt lat="44.61814" lon="4.60437">
        <ele>414</ele>
        <time>2012-01-28T11:18:05Z</time>
      </trkpt>
      <trkpt lat="44.61818" lon="4.60443">
        <ele>414</ele>
        <time>2012-01-28T11:18:20Z</time>
      </trkpt>
      <trkpt lat="44.61825" lon="4.60458">
        <ele>414</ele>
        <time>2012-01-28T11:18:25Z</time>
      </trkpt>
      <trkpt lat="44.61825" lon="4.60463">
        <ele>414</ele>
        <time>2012-01-28T11:18:27Z</time>
      </trkpt>
      <trkpt lat="44.61826" lon="4.60473">
        <ele>414</ele>
        <time>2012-01-28T11:18:31Z</time>
      </trkpt>
      <trkpt lat="44.6183" lon="4.60494">
        <ele>416</ele>
        <time>2012-01-28T11:18:39Z</time>
      </trkpt>
      <trkpt lat="44.61834" lon="4.60508">
        <ele>417</ele>
        <time>2012-01-28T11:18:45Z</time>
      </trkpt>
      <trkpt lat="44.61837" lon="4.60519">
        <ele>417</ele>
        <time>2012-01-28T11:18:51Z</time>
      </trkpt>
      <trkpt lat="44.61839" lon="4.60528">
        <ele>418</ele>
        <time>2012-01-28T11:18:56Z</time>
      </trkpt>
      <trkpt lat="44.6184" lon="4.60531">
        <ele>419</ele>
        <time>2012-01-28T11:18:58Z</time>
      </trkpt>
      <trkpt lat="44.61842" lon="4.60539">
        <ele>419</ele>
        <time>2012-01-28T11:19:03Z</time>
      </trkpt>
      <trkpt lat="44.61843" lon="4.60547">
        <ele>420</ele>
        <time>2012-01-28T11:19:14Z</time>
      </trkpt>
      <trkpt lat="44.61843" lon="4.60547">
        <ele>421</ele>
        <time>2012-01-28T11:19:17Z</time>
      </trkpt>
      <trkpt lat="44.61849" lon="4.60566">
        <ele>421</ele>
        <time>2012-01-28T11:19:20Z</time>
      </trkpt>
      <trkpt lat="44.61858" lon="4.60564">
        <ele>421</ele>
        <time>2012-01-28T11:19:22Z</time>
      </trkpt>
      <trkpt lat="44.61862" lon="4.60577">
        <ele>424</ele>
        <time>2012-01-28T11:19:32Z</time>
      </trkpt>
      <trkpt lat="44.61862" lon="4.60584">
        <ele>426</ele>
        <time>2012-01-28T11:19:37Z</time>
      </trkpt>
      <trkpt lat="44.61862" lon="4.6059">
        <ele>426</ele>
        <time>2012-01-28T11:19:41Z</time>
      </trkpt>
      <trkpt lat="44.6186" lon="4.60597">
        <ele>427</ele>
        <time>2012-01-28T11:19:45Z</time>
      </trkpt>
      <trkpt lat="44.61861" lon="4.606">
        <ele>427</ele>
        <time>2012-01-28T11:19:47Z</time>
      </trkpt>
      <trkpt lat="44.61859" lon="4.60604">
        <ele>427</ele>
        <time>2012-01-28T11:19:50Z</time>
      </trkpt>
      <trkpt lat="44.61858" lon="4.60606">
        <ele>428</ele>
        <time>2012-01-28T11:19:52Z</time>
      </trkpt>
      <trkpt lat="44.61854" lon="4.60614">
        <ele>428</ele>
        <time>2012-01-28T11:19:58Z</time>
      </trkpt>
      <trkpt lat="44.61856" lon="4.60629">
        <ele>430</ele>
        <time>2012-01-28T11:20:10Z</time>
      </trkpt>
      <trkpt lat="44.61856" lon="4.60642">
        <ele>432</ele>
        <time>2012-01-28T11:20:19Z</time>
      </trkpt>
      <trkpt lat="44.61856" lon="4.60643">
        <ele>433</ele>
        <time>2012-01-28T11:20:20Z</time>
      </trkpt>
      <trkpt lat="44.61857" lon="4.60649">
        <ele>433</ele>
        <time>2012-01-28T11:20:25Z</time>
      </trkpt>
      <trkpt lat="44.61854" lon="4.60661">
        <ele>434</ele>
        <time>2012-01-28T11:20:34Z</time>
      </trkpt>
      <trkpt lat="44.61851" lon="4.60671">
        <ele>435</ele>
        <time>2012-01-28T11:20:42Z</time>
      </trkpt>
      <trkpt lat="44.61846" lon="4.60688">
        <ele>437</ele>
        <time>2012-01-28T11:20:56Z</time>
      </trkpt>
      <trkpt lat="44.61843" lon="4.60703">
        <ele>438</ele>
        <time>2012-01-28T11:21:09Z</time>
      </trkpt>
      <trkpt lat="44.61841" lon="4.60715">
        <ele>439</ele>
        <time>2012-01-28T11:21:17Z</time>
      </trkpt>
      <trkpt lat="44.6184" lon="4.60734">
        <ele>441</ele>
        <time>2012-01-28T11:21:30Z</time>
      </trkpt>
      <trkpt lat="44.61836" lon="4.60744">
        <ele>441</ele>
        <time>2012-01-28T11:21:40Z</time>
      </trkpt>
      <trkpt lat="44.61834" lon="4.60749">
        <ele>441</ele>
        <time>2012-01-28T11:21:54Z</time>
      </trkpt>
      <trkpt lat="44.61824" lon="4.60769">
        <ele>441</ele>
        <time>2012-01-28T11:22:04Z</time>
      </trkpt>
      <trkpt lat="44.61814" lon="4.60788">
        <ele>440</ele>
        <time>2012-01-28T11:22:09Z</time>
      </trkpt>
      <trkpt lat="44.61805" lon="4.60802">
        <ele>440</ele>
        <time>2012-01-28T11:22:15Z</time>
      </trkpt>
      <trkpt lat="44.61805" lon="4.60802">
        <ele>441</ele>
        <time>2012-01-28T11:22:16Z</time>
      </trkpt>
      <trkpt lat="44.61796" lon="4.60809">
        <ele>442</ele>
        <time>2012-01-28T11:22:21Z</time>
      </trkpt>
      <trkpt lat="44.61787" lon="4.60817">
        <ele>444</ele>
        <time>2012-01-28T11:22:35Z</time>
      </trkpt>
      <trkpt lat="44.61775" lon="4.60825">
        <ele>447</ele>
        <time>2012-01-28T11:22:50Z</time>
      </trkpt>
      <trkpt lat="44.61775" lon="4.60825">
        <ele>449</ele>
        <time>2012-01-28T11:23:04Z</time>
      </trkpt>
      <trkpt lat="44.6175" lon="4.60844">
        <ele>451</ele>
        <time>2012-01-28T11:23:26Z</time>
      </trkpt>
      <trkpt lat="44.61735" lon="4.6085">
        <ele>453</ele>
        <time>2012-01-28T11:23:38Z</time>
      </trkpt>
      <trkpt lat="44.61715" lon="4.60851">
        <ele>456</ele>
        <time>2012-01-28T11:23:53Z</time>
      </trkpt>
      <trkpt lat="44.61698" lon="4.60847">
        <ele>459</ele>
        <time>2012-01-28T11:24:06Z</time>
      </trkpt>
      <trkpt lat="44.61684" lon="4.60844">
        <ele>462</ele>
        <time>2012-01-28T11:24:17Z</time>
      </trkpt>
      <trkpt lat="44.61671" lon="4.60841">
        <ele>464</ele>
        <time>2012-01-28T11:24:27Z</time>
      </trkpt>
      <trkpt lat="44.6166" lon="4.60838">
        <ele>467</ele>
        <time>2012-01-28T11:24:35Z</time>
      </trkpt>
      <trkpt lat="44.61655" lon="4.60837">
        <ele>467</ele>
        <time>2012-01-28T11:24:40Z</time>
      </trkpt>
      <trkpt lat="44.61648" lon="4.60836">
        <ele>468</ele>
        <time>2012-01-28T11:24:49Z</time>
      </trkpt>
      <trkpt lat="44.61648" lon="4.60836">
        <ele>468</ele>
        <time>2012-01-28T11:24:51Z</time>
      </trkpt>
      <trkpt lat="44.61649" lon="4.60836">
        <ele>469</ele>
        <time>2012-01-28T11:24:55Z</time>
      </trkpt>
      <trkpt lat="44.61663" lon="4.6082">
        <ele>469</ele>
        <time>2012-01-28T11:25:05Z</time>
      </trkpt>
      <trkpt lat="44.61668" lon="4.60801">
        <ele>471</ele>
        <time>2012-01-28T11:25:15Z</time>
      </trkpt>
      <trkpt lat="44.61668" lon="4.60796">
        <ele>472</ele>
        <time>2012-01-28T11:25:18Z</time>
      </trkpt>
      <trkpt lat="44.61668" lon="4.60796">
        <ele>473</ele>
        <time>2012-01-28T11:25:20Z</time>
      </trkpt>
      <trkpt lat="44.61668" lon="4.60796">
        <ele>473</ele>
        <time>2012-01-28T11:25:24Z</time>
      </trkpt>
      <trkpt lat="44.61668" lon="4.60802">
        <ele>473</ele>
        <time>2012-01-28T11:25:29Z</time>
      </trkpt>
      <trkpt lat="44.61664" lon="4.60817">
        <ele>471</ele>
        <time>2012-01-28T11:25:31Z</time>
      </trkpt>
      <trkpt lat="44.6165" lon="4.60832">
        <ele>469</ele>
        <time>2012-01-28T11:25:34Z</time>
      </trkpt>
      <trkpt lat="44.61647" lon="4.60836">
        <ele>469</ele>
        <time>2012-01-28T11:25:35Z</time>
      </trkpt>
      <trkpt lat="44.61647" lon="4.60836">
        <ele>468</ele>
        <time>2012-01-28T11:25:40Z</time>
      </trkpt>
      <trkpt lat="44.61642" lon="4.6084">
        <ele>469</ele>
        <time>2012-01-28T11:25:42Z</time>
      </trkpt>
      <trkpt lat="44.61642" lon="4.60842">
        <ele>468</ele>
        <time>2012-01-28T11:25:49Z</time>
      </trkpt>
      <trkpt lat="44.61642" lon="4.60842">
        <ele>468</ele>
        <time>2012-01-28T11:26:03Z</time>
      </trkpt>
      <trkpt lat="44.61642" lon="4.60842">
        <ele>468</ele>
        <time>2012-01-28T11:26:06Z</time>
      </trkpt>
      <trkpt lat="44.61642" lon="4.60838">
        <ele>469</ele>
        <time>2012-01-28T11:26:12Z</time>
      </trkpt>
      <trkpt lat="44.61622" lon="4.60831">
        <ele>468</ele>
        <time>2012-01-28T11:26:18Z</time>
      </trkpt>
      <trkpt lat="44.61606" lon="4.60831">
        <ele>467</ele>
        <time>2012-01-28T11:26:23Z</time>
      </trkpt>
      <trkpt lat="44.6159" lon="4.60843">
        <ele>465</ele>
        <time>2012-01-28T11:26:29Z</time>
      </trkpt>
      <trkpt lat="44.61577" lon="4.60851">
        <ele>464</ele>
        <time>2012-01-28T11:26:33Z</time>
      </trkpt>
      <trkpt lat="44.61556" lon="4.60851">
        <ele>462</ele>
        <time>2012-01-28T11:26:39Z</time>
      </trkpt>
      <trkpt lat="44.61556" lon="4.60851">
        <ele>461</ele>
        <time>2012-01-28T11:26:45Z</time>
      </trkpt>
      <trkpt lat="44.61556" lon="4.60851">
        <ele>461</ele>
        <time>2012-01-28T11:26:52Z</time>
      </trkpt>
      <trkpt lat="44.61556" lon="4.60851">
        <ele>461</ele>
        <time>2012-01-28T11:26:59Z</time>
      </trkpt>
      <trkpt lat="44.61556" lon="4.60851">
        <ele>460</ele>
        <time>2012-01-28T11:27:48Z</time>
      </trkpt>
      <trkpt lat="44.61556" lon="4.60851">
        <ele>461</ele>
        <time>2012-01-28T11:28:09Z</time>
      </trkpt>
      <trkpt lat="44.61538" lon="4.60852">
        <ele>461</ele>
        <time>2012-01-28T11:28:16Z</time>
      </trkpt>
      <trkpt lat="44.61517" lon="4.60853">
        <ele>460</ele>
        <time>2012-01-28T11:28:22Z</time>
      </trkpt>
      <trkpt lat="44.61502" lon="4.60841">
        <ele>459</ele>
        <time>2012-01-28T11:28:26Z</time>
      </trkpt>
      <trkpt lat="44.61485" lon="4.60822">
        <ele>457</ele>
        <time>2012-01-28T11:28:31Z</time>
      </trkpt>
      <trkpt lat="44.61476" lon="4.60809">
        <ele>456</ele>
        <time>2012-01-28T11:28:37Z</time>
      </trkpt>
      <trkpt lat="44.61467" lon="4.60795">
        <ele>455</ele>
        <time>2012-01-28T11:28:40Z</time>
      </trkpt>
      <trkpt lat="44.61441" lon="4.60739">
        <ele>451</ele>
        <time>2012-01-28T11:28:47Z</time>
      </trkpt>
      <trkpt lat="44.61433" lon="4.60716">
        <ele>450</ele>
        <time>2012-01-28T11:28:52Z</time>
      </trkpt>
      <trkpt lat="44.61432" lon="4.60711">
        <ele>450</ele>
        <time>2012-01-28T11:28:54Z</time>
      </trkpt>
      <trkpt lat="44.61427" lon="4.60707">
        <ele>449</ele>
        <time>2012-01-28T11:28:56Z</time>
      </trkpt>
      <trkpt lat="44.61425" lon="4.60675">
        <ele>448</ele>
        <time>2012-01-28T11:28:59Z</time>
      </trkpt>
      <trkpt lat="44.6141" lon="4.60646">
        <ele>444</ele>
        <time>2012-01-28T11:29:03Z</time>
      </trkpt>
      <trkpt lat="44.61394" lon="4.6062">
        <ele>441</ele>
        <time>2012-01-28T11:29:07Z</time>
      </trkpt>
      <trkpt lat="44.61374" lon="4.60601">
        <ele>439</ele>
        <time>2012-01-28T11:29:11Z</time>
      </trkpt>
      <trkpt lat="44.61351" lon="4.60582">
        <ele>436</ele>
        <time>2012-01-28T11:29:15Z</time>
      </trkpt>
      <trkpt lat="44.61345" lon="4.60578">
        <ele>436</ele>
        <time>2012-01-28T11:29:16Z</time>
      </trkpt>
      <trkpt lat="44.61312" lon="4.60546">
        <ele>432</ele>
        <time>2012-01-28T11:29:22Z</time>
      </trkpt>
      <trkpt lat="44.61299" lon="4.60526">
        <ele>429</ele>
        <time>2012-01-28T11:29:27Z</time>
      </trkpt>
      <trkpt lat="44.61298" lon="4.60522">
        <ele>429</ele>
        <time>2012-01-28T11:29:28Z</time>
      </trkpt>
      <trkpt lat="44.61295" lon="4.60507">
        <ele>430</ele>
        <time>2012-01-28T11:29:33Z</time>
      </trkpt>
      <trkpt lat="44.61134" lon="4.60517">
        <ele>424</ele>
        <time>2012-01-28T11:30:36Z</time>
      </trkpt>
      <trkpt lat="44.61097" lon="4.6055">
        <ele>422</ele>
        <time>2012-01-28T11:30:48Z</time>
      </trkpt>
      <trkpt lat="44.61086" lon="4.60545">
        <ele>423</ele>
        <time>2012-01-28T11:30:53Z</time>
      </trkpt>
      <trkpt lat="44.61082" lon="4.60536">
        <ele>423</ele>
        <time>2012-01-28T11:30:56Z</time>
      </trkpt>
      <trkpt lat="44.61076" lon="4.60524">
        <ele>424</ele>
        <time>2012-01-28T11:31:03Z</time>
      </trkpt>
      <trkpt lat="44.61068" lon="4.60517">
        <ele>425</ele>
        <time>2012-01-28T11:31:09Z</time>
      </trkpt>
      <trkpt lat="44.61066" lon="4.60515">
        <ele>426</ele>
        <time>2012-01-28T11:31:10Z</time>
      </trkpt>
      <trkpt lat="44.61062" lon="4.60513">
        <ele>426</ele>
        <time>2012-01-28T11:31:12Z</time>
      </trkpt>
      <trkpt lat="44.6104" lon="4.60502">
        <ele>426</ele>
        <time>2012-01-28T11:31:22Z</time>
      </trkpt>
      <trkpt lat="44.61022" lon="4.60503">
        <ele>426</ele>
        <time>2012-01-28T11:31:30Z</time>
      </trkpt>
      <trkpt lat="44.61002" lon="4.60494">
        <ele>426</ele>
        <time>2012-01-28T11:31:40Z</time>
      </trkpt>
      <trkpt lat="44.60986" lon="4.60484">
        <ele>425</ele>
        <time>2012-01-28T11:31:48Z</time>
      </trkpt>
      <trkpt lat="44.60982" lon="4.60478">
        <ele>425</ele>
        <time>2012-01-28T11:32:06Z</time>
      </trkpt>
      <trkpt lat="44.60982" lon="4.60477">
        <ele>424</ele>
        <time>2012-01-28T11:32:16Z</time>
      </trkpt>
      <trkpt lat="44.60977" lon="4.6047">
        <ele>424</ele>
        <time>2012-01-28T11:32:36Z</time>
      </trkpt>
      <trkpt lat="44.60968" lon="4.6046">
        <ele>424</ele>
        <time>2012-01-28T11:32:39Z</time>
      </trkpt>
      <trkpt lat="44.60958" lon="4.60447">
        <ele>424</ele>
        <time>2012-01-28T11:32:42Z</time>
      </trkpt>
      <trkpt lat="44.60929" lon="4.60422">
        <ele>422</ele>
        <time>2012-01-28T11:32:48Z</time>
      </trkpt>
      <trkpt lat="44.60918" lon="4.60416">
        <ele>421</ele>
        <time>2012-01-28T11:32:50Z</time>
      </trkpt>
      <trkpt lat="44.60876" lon="4.60402">
        <ele>420</ele>
        <time>2012-01-28T11:32:56Z</time>
      </trkpt>
      <trkpt lat="44.60821" lon="4.60396">
        <ele>418</ele>
        <time>2012-01-28T11:33:03Z</time>
      </trkpt>
      <trkpt lat="44.60807" lon="4.60393">
        <ele>418</ele>
        <time>2012-01-28T11:33:05Z</time>
      </trkpt>
      <trkpt lat="44.60778" lon="4.60377">
        <ele>415</ele>
        <time>2012-01-28T11:33:09Z</time>
      </trkpt>
      <trkpt lat="44.60744" lon="4.60361">
        <ele>415</ele>
        <time>2012-01-28T11:33:14Z</time>
      </trkpt>
      <trkpt lat="44.60728" lon="4.6036">
        <ele>417</ele>
        <time>2012-01-28T11:33:18Z</time>
      </trkpt>
      <trkpt lat="44.60716" lon="4.60389">
        <ele>418</ele>
        <time>2012-01-28T11:33:25Z</time>
      </trkpt>
      <trkpt lat="44.60705" lon="4.60398">
        <ele>420</ele>
        <time>2012-01-28T11:33:32Z</time>
      </trkpt>
      <trkpt lat="44.60688" lon="4.60412">
        <ele>421</ele>
        <time>2012-01-28T11:33:41Z</time>
      </trkpt>
      <trkpt lat="44.60673" lon="4.60404">
        <ele>421</ele>
        <time>2012-01-28T11:33:48Z</time>
      </trkpt>
      <trkpt lat="44.60658" lon="4.60392">
        <ele>423</ele>
        <time>2012-01-28T11:33:58Z</time>
      </trkpt>
      <trkpt lat="44.60644" lon="4.60382">
        <ele>425</ele>
        <time>2012-01-28T11:34:09Z</time>
      </trkpt>
      <trkpt lat="44.60639" lon="4.6038">
        <ele>427</ele>
        <time>2012-01-28T11:34:15Z</time>
      </trkpt>
      <trkpt lat="44.60634" lon="4.60378">
        <ele>427</ele>
        <time>2012-01-28T11:34:18Z</time>
      </trkpt>
      <trkpt lat="44.60622" lon="4.60374">
        <ele>430</ele>
        <time>2012-01-28T11:34:28Z</time>
      </trkpt>
      <trkpt lat="44.60612" lon="4.60372">
        <ele>433</ele>
        <time>2012-01-28T11:34:39Z</time>
      </trkpt>
      <trkpt lat="44.60594" lon="4.60372">
        <ele>435</ele>
        <time>2012-01-28T11:34:51Z</time>
      </trkpt>
      <trkpt lat="44.60579" lon="4.60375">
        <ele>438</ele>
        <time>2012-01-28T11:35:03Z</time>
      </trkpt>
      <trkpt lat="44.60562" lon="4.60378">
        <ele>439</ele>
        <time>2012-01-28T11:35:16Z</time>
      </trkpt>
      <trkpt lat="44.6054" lon="4.60387">
        <ele>443</ele>
        <time>2012-01-28T11:35:32Z</time>
      </trkpt>
      <trkpt lat="44.60527" lon="4.60394">
        <ele>445</ele>
        <time>2012-01-28T11:35:42Z</time>
      </trkpt>
      <trkpt lat="44.60508" lon="4.60405">
        <ele>448</ele>
        <time>2012-01-28T11:35:56Z</time>
      </trkpt>
      <trkpt lat="44.60496" lon="4.60411">
        <ele>449</ele>
        <time>2012-01-28T11:36:05Z</time>
      </trkpt>
      <trkpt lat="44.60492" lon="4.60412">
        <ele>449</ele>
        <time>2012-01-28T11:36:09Z</time>
      </trkpt>
      <trkpt lat="44.6049" lon="4.60412">
        <ele>449</ele>
        <time>2012-01-28T11:36:16Z</time>
      </trkpt>
      <trkpt lat="44.6049" lon="4.60412">
        <ele>449</ele>
        <time>2012-01-28T11:36:23Z</time>
      </trkpt>
      <trkpt lat="44.6049" lon="4.60412">
        <ele>449</ele>
        <time>2012-01-28T11:36:40Z</time>
      </trkpt>
      <trkpt lat="44.6049" lon="4.60412">
        <ele>449</ele>
        <time>2012-01-28T11:37:12Z</time>
      </trkpt>
      <trkpt lat="44.6049" lon="4.60412">
        <ele>449</ele>
        <time>2012-01-28T11:37:15Z</time>
      </trkpt>
      <trkpt lat="44.60483" lon="4.60413">
        <ele>450</ele>
        <time>2012-01-28T11:37:17Z</time>
      </trkpt>
      <trkpt lat="44.60464" lon="4.60415">
        <ele>450</ele>
        <time>2012-01-28T11:37:27Z</time>
      </trkpt>
      <trkpt lat="44.60439" lon="4.60417">
        <ele>450</ele>
        <time>2012-01-28T11:37:35Z</time>
      </trkpt>
      <trkpt lat="44.6042" lon="4.60419">
        <ele>450</ele>
        <time>2012-01-28T11:37:40Z</time>
      </trkpt>
      <trkpt lat="44.60408" lon="4.60421">
        <ele>450</ele>
        <time>2012-01-28T11:37:43Z</time>
      </trkpt>
      <trkpt lat="44.60378" lon="4.60424">
        <ele>451</ele>
        <time>2012-01-28T11:37:51Z</time>
      </trkpt>
      <trkpt lat="44.60366" lon="4.60426">
        <ele>453</ele>
        <time>2012-01-28T11:37:58Z</time>
      </trkpt>
      <trkpt lat="44.60356" lon="4.60426">
        <ele>454</ele>
        <time>2012-01-28T11:38:03Z</time>
      </trkpt>
      <trkpt lat="44.60356" lon="4.60426">
        <ele>455</ele>
        <time>2012-01-28T11:38:05Z</time>
      </trkpt>
      <trkpt lat="44.60348" lon="4.60425">
        <ele>457</ele>
        <time>2012-01-28T11:38:09Z</time>
      </trkpt>
      <trkpt lat="44.6034" lon="4.60424">
        <ele>458</ele>
        <time>2012-01-28T11:38:13Z</time>
      </trkpt>
      <trkpt lat="44.60336" lon="4.60424">
        <ele>460</ele>
        <time>2012-01-28T11:38:16Z</time>
      </trkpt>
      <trkpt lat="44.60328" lon="4.60424">
        <ele>462</ele>
        <time>2012-01-28T11:38:23Z</time>
      </trkpt>
      <trkpt lat="44.60309" lon="4.60429">
        <ele>463</ele>
        <time>2012-01-28T11:38:30Z</time>
      </trkpt>
      <trkpt lat="44.60306" lon="4.60432">
        <ele>464</ele>
        <time>2012-01-28T11:38:32Z</time>
      </trkpt>
      <trkpt lat="44.60294" lon="4.60444">
        <ele>467</ele>
        <time>2012-01-28T11:38:42Z</time>
      </trkpt>
      <trkpt lat="44.60281" lon="4.60454">
        <ele>468</ele>
        <time>2012-01-28T11:38:51Z</time>
      </trkpt>
      <trkpt lat="44.60281" lon="4.60454">
        <ele>469</ele>
        <time>2012-01-28T11:38:54Z</time>
      </trkpt>
      <trkpt lat="44.60266" lon="4.60464">
        <ele>471</ele>
        <time>2012-01-28T11:39:02Z</time>
      </trkpt>
      <trkpt lat="44.60258" lon="4.60468">
        <ele>473</ele>
        <time>2012-01-28T11:39:11Z</time>
      </trkpt>
      <trkpt lat="44.60248" lon="4.60471">
        <ele>474</ele>
        <time>2012-01-28T11:39:13Z</time>
      </trkpt>
      <trkpt lat="44.60237" lon="4.60471">
        <ele>475</ele>
        <time>2012-01-28T11:39:21Z</time>
      </trkpt>
      <trkpt lat="44.60221" lon="4.60478">
        <ele>477</ele>
        <time>2012-01-28T11:39:31Z</time>
      </trkpt>
      <trkpt lat="44.60213" lon="4.60492">
        <ele>478</ele>
        <time>2012-01-28T11:39:39Z</time>
      </trkpt>
      <trkpt lat="44.60201" lon="4.60504">
        <ele>480</ele>
        <time>2012-01-28T11:39:48Z</time>
      </trkpt>
      <trkpt lat="44.60191" lon="4.60505">
        <ele>481</ele>
        <time>2012-01-28T11:39:54Z</time>
      </trkpt>
      <trkpt lat="44.60175" lon="4.60506">
        <ele>482</ele>
        <time>2012-01-28T11:40:03Z</time>
      </trkpt>
      <trkpt lat="44.60153" lon="4.60503">
        <ele>484</ele>
        <time>2012-01-28T11:40:15Z</time>
      </trkpt>
      <trkpt lat="44.60142" lon="4.60505">
        <ele>485</ele>
        <time>2012-01-28T11:40:22Z</time>
      </trkpt>
      <trkpt lat="44.60129" lon="4.60512">
        <ele>488</ele>
        <time>2012-01-28T11:40:31Z</time>
      </trkpt>
      <trkpt lat="44.60123" lon="4.60515">
        <ele>489</ele>
        <time>2012-01-28T11:40:38Z</time>
      </trkpt>
      <trkpt lat="44.60113" lon="4.60521">
        <ele>491</ele>
        <time>2012-01-28T11:40:45Z</time>
      </trkpt>
      <trkpt lat="44.60104" lon="4.6053">
        <ele>492</ele>
        <time>2012-01-28T11:40:53Z</time>
      </trkpt>
      <trkpt lat="44.60102" lon="4.60533">
        <ele>493</ele>
        <time>2012-01-28T11:40:55Z</time>
      </trkpt>
      <trkpt lat="44.60092" lon="4.60543">
        <ele>492</ele>
        <time>2012-01-28T11:41:03Z</time>
      </trkpt>
      <trkpt lat="44.60077" lon="4.60552">
        <ele>492</ele>
        <time>2012-01-28T11:41:10Z</time>
      </trkpt>
      <trkpt lat="44.6006" lon="4.60561">
        <ele>492</ele>
        <time>2012-01-28T11:41:18Z</time>
      </trkpt>
      <trkpt lat="44.60049" lon="4.60561">
        <ele>493</ele>
        <time>2012-01-28T11:41:25Z</time>
      </trkpt>
      <trkpt lat="44.60038" lon="4.60569">
        <ele>494</ele>
        <time>2012-01-28T11:41:32Z</time>
      </trkpt>
      <trkpt lat="44.60019" lon="4.60583">
        <ele>495</ele>
        <time>2012-01-28T11:41:42Z</time>
      </trkpt>
      <trkpt lat="44.60008" lon="4.6059">
        <ele>497</ele>
        <time>2012-01-28T11:41:50Z</time>
      </trkpt>
      <trkpt lat="44.60003" lon="4.60594">
        <ele>497</ele>
        <time>2012-01-28T11:41:54Z</time>
      </trkpt>
      <trkpt lat="44.59995" lon="4.60605">
        <ele>497</ele>
        <time>2012-01-28T11:42:00Z</time>
      </trkpt>
      <trkpt lat="44.5999" lon="4.60613">
        <ele>497</ele>
        <time>2012-01-28T11:42:03Z</time>
      </trkpt>
      <trkpt lat="44.59971" lon="4.60622">
        <ele>498</ele>
        <time>2012-01-28T11:42:13Z</time>
      </trkpt>
      <trkpt lat="44.59951" lon="4.60625">
        <ele>498</ele>
        <time>2012-01-28T11:42:22Z</time>
      </trkpt>
      <trkpt lat="44.59922" lon="4.6063">
        <ele>496</ele>
        <time>2012-01-28T11:42:29Z</time>
      </trkpt>
      <trkpt lat="44.59905" lon="4.6064">
        <ele>495</ele>
        <time>2012-01-28T11:42:35Z</time>
      </trkpt>
      <trkpt lat="44.59886" lon="4.60653">
        <ele>494</ele>
        <time>2012-01-28T11:42:41Z</time>
      </trkpt>
      <trkpt lat="44.59882" lon="4.60658">
        <ele>493</ele>
        <time>2012-01-28T11:42:47Z</time>
      </trkpt>
      <trkpt lat="44.59879" lon="4.60661">
        <ele>493</ele>
        <time>2012-01-28T11:43:09Z</time>
      </trkpt>
      <trkpt lat="44.59874" lon="4.60664">
        <ele>493</ele>
        <time>2012-01-28T11:43:22Z</time>
      </trkpt>
      <trkpt lat="44.59871" lon="4.60666">
        <ele>493</ele>
        <time>2012-01-28T11:43:23Z</time>
      </trkpt>
      <trkpt lat="44.59853" lon="4.6068">
        <ele>491</ele>
        <time>2012-01-28T11:43:30Z</time>
      </trkpt>
      <trkpt lat="44.59842" lon="4.60694">
        <ele>491</ele>
        <time>2012-01-28T11:43:37Z</time>
      </trkpt>
      <trkpt lat="44.59839" lon="4.60698">
        <ele>491</ele>
        <time>2012-01-28T11:43:39Z</time>
      </trkpt>
      <trkpt lat="44.59836" lon="4.60703">
        <ele>491</ele>
        <time>2012-01-28T11:43:43Z</time>
      </trkpt>
      <trkpt lat="44.59832" lon="4.60707">
        <ele>491</ele>
        <time>2012-01-28T11:43:46Z</time>
      </trkpt>
      <trkpt lat="44.5983" lon="4.6071">
        <ele>491</ele>
        <time>2012-01-28T11:43:49Z</time>
      </trkpt>
      <trkpt lat="44.59816" lon="4.60726">
        <ele>492</ele>
        <time>2012-01-28T11:43:58Z</time>
      </trkpt>
      <trkpt lat="44.59796" lon="4.60744">
        <ele>494</ele>
        <time>2012-01-28T11:44:10Z</time>
      </trkpt>
      <trkpt lat="44.59786" lon="4.60756">
        <ele>495</ele>
        <time>2012-01-28T11:44:17Z</time>
      </trkpt>
      <trkpt lat="44.59775" lon="4.60769">
        <ele>496</ele>
        <time>2012-01-28T11:44:24Z</time>
      </trkpt>
      <trkpt lat="44.59768" lon="4.60777">
        <ele>498</ele>
        <time>2012-01-28T11:44:32Z</time>
      </trkpt>
      <trkpt lat="44.5976" lon="4.60788">
        <ele>500</ele>
        <time>2012-01-28T11:44:41Z</time>
      </trkpt>
      <trkpt lat="44.59752" lon="4.60797">
        <ele>502</ele>
        <time>2012-01-28T11:44:49Z</time>
      </trkpt>
      <trkpt lat="44.59748" lon="4.60801">
        <ele>503</ele>
        <time>2012-01-28T11:44:57Z</time>
      </trkpt>
      <trkpt lat="44.5974" lon="4.60807">
        <ele>503</ele>
        <time>2012-01-28T11:44:58Z</time>
      </trkpt>
      <trkpt lat="44.59738" lon="4.60809">
        <ele>504</ele>
        <time>2012-01-28T11:45:01Z</time>
      </trkpt>
      <trkpt lat="44.59733" lon="4.60812">
        <ele>505</ele>
        <time>2012-01-28T11:45:03Z</time>
      </trkpt>
      <trkpt lat="44.59732" lon="4.60813">
        <ele>505</ele>
        <time>2012-01-28T11:45:05Z</time>
      </trkpt>
      <trkpt lat="44.59732" lon="4.60813">
        <ele>506</ele>
        <time>2012-01-28T11:45:08Z</time>
      </trkpt>
      <trkpt lat="44.5972" lon="4.60821">
        <ele>506</ele>
        <time>2012-01-28T11:45:14Z</time>
      </trkpt>
      <trkpt lat="44.59707" lon="4.60827">
        <ele>507</ele>
        <time>2012-01-28T11:45:22Z</time>
      </trkpt>
      <trkpt lat="44.59693" lon="4.60831">
        <ele>507</ele>
        <time>2012-01-28T11:45:28Z</time>
      </trkpt>
      <trkpt lat="44.59681" lon="4.60838">
        <ele>507</ele>
        <time>2012-01-28T11:45:32Z</time>
      </trkpt>
      <trkpt lat="44.59664" lon="4.60854">
        <ele>509</ele>
        <time>2012-01-28T11:45:39Z</time>
      </trkpt>
      <trkpt lat="44.59649" lon="4.60861">
        <ele>510</ele>
        <time>2012-01-28T11:45:48Z</time>
      </trkpt>
      <trkpt lat="44.59646" lon="4.60863">
        <ele>510</ele>
        <time>2012-01-28T11:45:55Z</time>
      </trkpt>
      <trkpt lat="44.59646" lon="4.60863">
        <ele>510</ele>
        <time>2012-01-28T11:46:11Z</time>
      </trkpt>
      <trkpt lat="44.59635" lon="4.60866">
        <ele>511</ele>
        <time>2012-01-28T11:47:56Z</time>
      </trkpt>
      <trkpt lat="44.5961" lon="4.6087">
        <ele>509</ele>
        <time>2012-01-28T11:48:04Z</time>
      </trkpt>
      <trkpt lat="44.59579" lon="4.60866">
        <ele>508</ele>
        <time>2012-01-28T11:48:10Z</time>
      </trkpt>
      <trkpt lat="44.59554" lon="4.60868">
        <ele>507</ele>
        <time>2012-01-28T11:48:16Z</time>
      </trkpt>
      <trkpt lat="44.59533" lon="4.60868">
        <ele>509</ele>
        <time>2012-01-28T11:48:23Z</time>
      </trkpt>
      <trkpt lat="44.59509" lon="4.60869">
        <ele>510</ele>
        <time>2012-01-28T11:48:33Z</time>
      </trkpt>
      <trkpt lat="44.59485" lon="4.60864">
        <ele>508</ele>
        <time>2012-01-28T11:48:39Z</time>
      </trkpt>
      <trkpt lat="44.59477" lon="4.60864">
        <ele>508</ele>
        <time>2012-01-28T11:48:44Z</time>
      </trkpt>
      <trkpt lat="44.59477" lon="4.60864">
        <ele>508</ele>
        <time>2012-01-28T11:48:50Z</time>
      </trkpt>
      <trkpt lat="44.59479" lon="4.60864">
        <ele>508</ele>
        <time>2012-01-28T11:48:53Z</time>
      </trkpt>
      <trkpt lat="44.59504" lon="4.60867">
        <ele>509</ele>
        <time>2012-01-28T11:49:04Z</time>
      </trkpt>
      <trkpt lat="44.59521" lon="4.6087">
        <ele>510</ele>
        <time>2012-01-28T11:49:13Z</time>
      </trkpt>
      <trkpt lat="44.59528" lon="4.60869">
        <ele>510</ele>
        <time>2012-01-28T11:49:19Z</time>
      </trkpt>
      <trkpt lat="44.59526" lon="4.60876">
        <ele>511</ele>
        <time>2012-01-28T11:49:25Z</time>
      </trkpt>
      <trkpt lat="44.59515" lon="4.6088">
        <ele>512</ele>
        <time>2012-01-28T11:49:34Z</time>
      </trkpt>
      <trkpt lat="44.59512" lon="4.60879">
        <ele>512</ele>
        <time>2012-01-28T11:49:36Z</time>
      </trkpt>
      <trkpt lat="44.59506" lon="4.60881">
        <ele>513</ele>
        <time>2012-01-28T11:49:40Z</time>
      </trkpt>
      <trkpt lat="44.59498" lon="4.60881">
        <ele>513</ele>
        <time>2012-01-28T11:49:45Z</time>
      </trkpt>
      <trkpt lat="44.59494" lon="4.60881">
        <ele>514</ele>
        <time>2012-01-28T11:49:51Z</time>
      </trkpt>
      <trkpt lat="44.59492" lon="4.60881">
        <ele>514</ele>
        <time>2012-01-28T11:49:58Z</time>
      </trkpt>
      <trkpt lat="44.59491" lon="4.60883">
        <ele>514</ele>
        <time>2012-01-28T11:50:10Z</time>
      </trkpt>
      <trkpt lat="44.59486" lon="4.60883">
        <ele>515</ele>
        <time>2012-01-28T11:50:19Z</time>
      </trkpt>
      <trkpt lat="44.59481" lon="4.60892">
        <ele>516</ele>
        <time>2012-01-28T11:50:29Z</time>
      </trkpt>
      <trkpt lat="44.5948" lon="4.60894">
        <ele>516</ele>
        <time>2012-01-28T11:50:37Z</time>
      </trkpt>
      <trkpt lat="44.59478" lon="4.60899">
        <ele>517</ele>
        <time>2012-01-28T11:50:40Z</time>
      </trkpt>
      <trkpt lat="44.59469" lon="4.60912">
        <ele>519</ele>
        <time>2012-01-28T11:50:50Z</time>
      </trkpt>
      <trkpt lat="44.59461" lon="4.60914">
        <ele>520</ele>
        <time>2012-01-28T11:50:57Z</time>
      </trkpt>
      <trkpt lat="44.59452" lon="4.60916">
        <ele>522</ele>
        <time>2012-01-28T11:51:05Z</time>
      </trkpt>
      <trkpt lat="44.59447" lon="4.60915">
        <ele>523</ele>
        <time>2012-01-28T11:51:14Z</time>
      </trkpt>
      <trkpt lat="44.59441" lon="4.60915">
        <ele>526</ele>
        <time>2012-01-28T11:52:08Z</time>
      </trkpt>
      <trkpt lat="44.59435" lon="4.60913">
        <ele>527</ele>
        <time>2012-01-28T11:52:15Z</time>
      </trkpt>
      <trkpt lat="44.59428" lon="4.60914">
        <ele>528</ele>
        <time>2012-01-28T11:52:23Z</time>
      </trkpt>
      <trkpt lat="44.59421" lon="4.60914">
        <ele>530</ele>
        <time>2012-01-28T11:52:32Z</time>
      </trkpt>
      <trkpt lat="44.59419" lon="4.60913">
        <ele>531</ele>
        <time>2012-01-28T11:52:36Z</time>
      </trkpt>
      <trkpt lat="44.59415" lon="4.60914">
        <ele>532</ele>
        <time>2012-01-28T11:52:41Z</time>
      </trkpt>
      <trkpt lat="44.59409" lon="4.60913">
        <ele>534</ele>
        <time>2012-01-28T11:52:54Z</time>
      </trkpt>
      <trkpt lat="44.59403" lon="4.60911">
        <ele>536</ele>
        <time>2012-01-28T11:53:04Z</time>
      </trkpt>
      <trkpt lat="44.59398" lon="4.60912">
        <ele>538</ele>
        <time>2012-01-28T11:53:22Z</time>
      </trkpt>
      <trkpt lat="44.5939" lon="4.60912">
        <ele>539</ele>
        <time>2012-01-28T11:53:34Z</time>
      </trkpt>
      <trkpt lat="44.59385" lon="4.60911">
        <ele>541</ele>
        <time>2012-01-28T11:53:42Z</time>
      </trkpt>
      <trkpt lat="44.59379" lon="4.6091">
        <ele>542</ele>
        <time>2012-01-28T11:53:50Z</time>
      </trkpt>
      <trkpt lat="44.59374" lon="4.60913">
        <ele>544</ele>
        <time>2012-01-28T11:54:01Z</time>
      </trkpt>
      <trkpt lat="44.59371" lon="4.60914">
        <ele>544</ele>
        <time>2012-01-28T11:54:12Z</time>
      </trkpt>
      <trkpt lat="44.59368" lon="4.60914">
        <ele>545</ele>
        <time>2012-01-28T11:54:21Z</time>
      </trkpt>
      <trkpt lat="44.59368" lon="4.60917">
        <ele>545</ele>
        <time>2012-01-28T11:54:27Z</time>
      </trkpt>
      <trkpt lat="44.5937" lon="4.60919">
        <ele>544</ele>
        <time>2012-01-28T11:54:35Z</time>
      </trkpt>
      <trkpt lat="44.59369" lon="4.60918">
        <ele>545</ele>
        <time>2012-01-28T11:56:42Z</time>
      </trkpt>
      <trkpt lat="44.59368" lon="4.60916">
        <ele>545</ele>
        <time>2012-01-28T11:56:51Z</time>
      </trkpt>
      <trkpt lat="44.59367" lon="4.60915">
        <ele>545</ele>
        <time>2012-01-28T11:56:57Z</time>
      </trkpt>
      <trkpt lat="44.59355" lon="4.60906">
        <ele>545</ele>
        <time>2012-01-28T11:57:06Z</time>
      </trkpt>
      <trkpt lat="44.59339" lon="4.60896">
        <ele>546</ele>
        <time>2012-01-28T11:57:17Z</time>
      </trkpt>
      <trkpt lat="44.59323" lon="4.60888">
        <ele>546</ele>
        <time>2012-01-28T11:57:26Z</time>
      </trkpt>
      <trkpt lat="44.59313" lon="4.60882">
        <ele>547</ele>
        <time>2012-01-28T11:57:31Z</time>
      </trkpt>
      <trkpt lat="44.59309" lon="4.6088">
        <ele>546</ele>
        <time>2012-01-28T11:57:33Z</time>
      </trkpt>
      <trkpt lat="44.59304" lon="4.6088">
        <ele>547</ele>
        <time>2012-01-28T11:57:39Z</time>
      </trkpt>
      <trkpt lat="44.59306" lon="4.60882">
        <ele>547</ele>
        <time>2012-01-28T11:57:48Z</time>
      </trkpt>
      <trkpt lat="44.59306" lon="4.60882">
        <ele>547</ele>
        <time>2012-01-28T11:58:10Z</time>
      </trkpt>
      <trkpt lat="44.59303" lon="4.60879">
        <ele>547</ele>
        <time>2012-01-28T11:58:16Z</time>
      </trkpt>
      <trkpt lat="44.59294" lon="4.60881">
        <ele>547</ele>
        <time>2012-01-28T11:58:27Z</time>
      </trkpt>
      <trkpt lat="44.59294" lon="4.60882">
        <ele>547</ele>
        <time>2012-01-28T11:58:28Z</time>
      </trkpt>
      <trkpt lat="44.59289" lon="4.6088">
        <ele>548</ele>
        <time>2012-01-28T11:58:36Z</time>
      </trkpt>
      <trkpt lat="44.59286" lon="4.60881">
        <ele>548</ele>
        <time>2012-01-28T11:58:40Z</time>
      </trkpt>
      <trkpt lat="44.5928" lon="4.60882">
        <ele>547</ele>
        <time>2012-01-28T11:58:44Z</time>
      </trkpt>
      <trkpt lat="44.59272" lon="4.60879">
        <ele>547</ele>
        <time>2012-01-28T11:58:53Z</time>
      </trkpt>
      <trkpt lat="44.59271" lon="4.60879">
        <ele>547</ele>
        <time>2012-01-28T11:58:59Z</time>
      </trkpt>
      <trkpt lat="44.59268" lon="4.60878">
        <ele>547</ele>
        <time>2012-01-28T11:59:15Z</time>
      </trkpt>
      <trkpt lat="44.59267" lon="4.60879">
        <ele>547</ele>
        <time>2012-01-28T11:59:25Z</time>
      </trkpt>
      <trkpt lat="44.59267" lon="4.60879">
        <ele>547</ele>
        <time>2012-01-28T11:59:27Z</time>
      </trkpt>
      <trkpt lat="44.59265" lon="4.60881">
        <ele>547</ele>
        <time>2012-01-28T11:59:29Z</time>
      </trkpt>
      <trkpt lat="44.59244" lon="4.60881">
        <ele>547</ele>
        <time>2012-01-28T11:59:38Z</time>
      </trkpt>
      <trkpt lat="44.59221" lon="4.60888">
        <ele>546</ele>
        <time>2012-01-28T11:59:44Z</time>
      </trkpt>
      <trkpt lat="44.59201" lon="4.60899">
        <ele>545</ele>
        <time>2012-01-28T11:59:50Z</time>
      </trkpt>
      <trkpt lat="44.59181" lon="4.60917">
        <ele>544</ele>
        <time>2012-01-28T11:59:58Z</time>
      </trkpt>
      <trkpt lat="44.59153" lon="4.60938">
        <ele>544</ele>
        <time>2012-01-28T12:00:08Z</time>
      </trkpt>
      <trkpt lat="44.59142" lon="4.60944">
        <ele>545</ele>
        <time>2012-01-28T12:00:14Z</time>
      </trkpt>
      <trkpt lat="44.59131" lon="4.60949">
        <ele>546</ele>
        <time>2012-01-28T12:00:20Z</time>
      </trkpt>
      <trkpt lat="44.59116" lon="4.60952">
        <ele>547</ele>
        <time>2012-01-28T12:00:27Z</time>
      </trkpt>
      <trkpt lat="44.59093" lon="4.6095">
        <ele>548</ele>
        <time>2012-01-28T12:00:36Z</time>
      </trkpt>
      <trkpt lat="44.59078" lon="4.6096">
        <ele>548</ele>
        <time>2012-01-28T12:00:43Z</time>
      </trkpt>
      <trkpt lat="44.59063" lon="4.60964">
        <ele>545</ele>
        <time>2012-01-28T12:00:46Z</time>
      </trkpt>
      <trkpt lat="44.59041" lon="4.60963">
        <ele>541</ele>
        <time>2012-01-28T12:00:50Z</time>
      </trkpt>
      <trkpt lat="44.59038" lon="4.60964">
        <ele>541</ele>
        <time>2012-01-28T12:00:51Z</time>
      </trkpt>
      <trkpt lat="44.59025" lon="4.60948">
        <ele>537</ele>
        <time>2012-01-28T12:00:55Z</time>
      </trkpt>
      <trkpt lat="44.5902" lon="4.60944">
        <ele>537</ele>
        <time>2012-01-28T12:00:56Z</time>
      </trkpt>
      <trkpt lat="44.59016" lon="4.60942">
        <ele>537</ele>
        <time>2012-01-28T12:00:57Z</time>
      </trkpt>
      <trkpt lat="44.58995" lon="4.60937">
        <ele>534</ele>
        <time>2012-01-28T12:01:04Z</time>
      </trkpt>
      <trkpt lat="44.58981" lon="4.60929">
        <ele>534</ele>
        <time>2012-01-28T12:01:10Z</time>
      </trkpt>
      <trkpt lat="44.58978" lon="4.60928">
        <ele>534</ele>
        <time>2012-01-28T12:01:13Z</time>
      </trkpt>
      <trkpt lat="44.58973" lon="4.60923">
        <ele>534</ele>
        <time>2012-01-28T12:01:17Z</time>
      </trkpt>
      <trkpt lat="44.58966" lon="4.60919">
        <ele>534</ele>
        <time>2012-01-28T12:01:27Z</time>
      </trkpt>
      <trkpt lat="44.58965" lon="4.60919">
        <ele>534</ele>
        <time>2012-01-28T12:01:40Z</time>
      </trkpt>
      <trkpt lat="44.58965" lon="4.60919">
        <ele>537</ele>
        <time>2012-01-28T12:01:46Z</time>
      </trkpt>
      <trkpt lat="44.58964" lon="4.60919">
        <ele>534</ele>
        <time>2012-01-28T12:01:47Z</time>
      </trkpt>
      <trkpt lat="44.58964" lon="4.6092">
        <ele>533</ele>
        <time>2012-01-28T12:01:49Z</time>
      </trkpt>
      <trkpt lat="44.58965" lon="4.60921">
        <ele>534</ele>
        <time>2012-01-28T12:01:56Z</time>
      </trkpt>
      <trkpt lat="44.58966" lon="4.60922">
        <ele>534</ele>
        <time>2012-01-28T12:02:07Z</time>
      </trkpt>
      <trkpt lat="44.58966" lon="4.60923">
        <ele>534</ele>
        <time>2012-01-28T12:02:17Z</time>
      </trkpt>
      <trkpt lat="44.58966" lon="4.60922">
        <ele>534</ele>
        <time>2012-01-28T12:03:37Z</time>
      </trkpt>
      <trkpt lat="44.58958" lon="4.60904">
        <ele>533</ele>
        <time>2012-01-28T12:03:43Z</time>
      </trkpt>
      <trkpt lat="44.58945" lon="4.6089">
        <ele>530</ele>
        <time>2012-01-28T12:03:48Z</time>
      </trkpt>
      <trkpt lat="44.58928" lon="4.60874">
        <ele>527</ele>
        <time>2012-01-28T12:03:53Z</time>
      </trkpt>
      <trkpt lat="44.58902" lon="4.60867">
        <ele>528</ele>
        <time>2012-01-28T12:04:00Z</time>
      </trkpt>
      <trkpt lat="44.58888" lon="4.60862">
        <ele>529</ele>
        <time>2012-01-28T12:04:07Z</time>
      </trkpt>
      <trkpt lat="44.58872" lon="4.60865">
        <ele>528</ele>
        <time>2012-01-28T12:04:13Z</time>
      </trkpt>
      <trkpt lat="44.58857" lon="4.6087">
        <ele>529</ele>
        <time>2012-01-28T12:04:20Z</time>
      </trkpt>
      <trkpt lat="44.58835" lon="4.60879">
        <ele>530</ele>
        <time>2012-01-28T12:04:31Z</time>
      </trkpt>
      <trkpt lat="44.58812" lon="4.60898">
        <ele>529</ele>
        <time>2012-01-28T12:04:41Z</time>
      </trkpt>
      <trkpt lat="44.58792" lon="4.60918">
        <ele>529</ele>
        <time>2012-01-28T12:04:51Z</time>
      </trkpt>
      <trkpt lat="44.58783" lon="4.60936">
        <ele>529</ele>
        <time>2012-01-28T12:04:59Z</time>
      </trkpt>
      <trkpt lat="44.58781" lon="4.60948">
        <ele>529</ele>
        <time>2012-01-28T12:05:03Z</time>
      </trkpt>
      <trkpt lat="44.58781" lon="4.60969">
        <ele>530</ele>
        <time>2012-01-28T12:05:12Z</time>
      </trkpt>
      <trkpt lat="44.58784" lon="4.60981">
        <ele>530</ele>
        <time>2012-01-28T12:05:26Z</time>
      </trkpt>
      <trkpt lat="44.58791" lon="4.6102">
        <ele>530</ele>
        <time>2012-01-28T12:05:34Z</time>
      </trkpt>
      <trkpt lat="44.58802" lon="4.61051">
        <ele>530</ele>
        <time>2012-01-28T12:05:42Z</time>
      </trkpt>
      <trkpt lat="44.58805" lon="4.61081">
        <ele>530</ele>
        <time>2012-01-28T12:05:49Z</time>
      </trkpt>
      <trkpt lat="44.5881" lon="4.61114">
        <ele>530</ele>
        <time>2012-01-28T12:05:56Z</time>
      </trkpt>
      <trkpt lat="44.58814" lon="4.61144">
        <ele>530</ele>
        <time>2012-01-28T12:06:03Z</time>
      </trkpt>
      <trkpt lat="44.58812" lon="4.61178">
        <ele>530</ele>
        <time>2012-01-28T12:06:11Z</time>
      </trkpt>
      <trkpt lat="44.58811" lon="4.61187">
        <ele>530</ele>
        <time>2012-01-28T12:06:13Z</time>
      </trkpt>
      <trkpt lat="44.58809" lon="4.6122">
        <ele>529</ele>
        <time>2012-01-28T12:06:22Z</time>
      </trkpt>
      <trkpt lat="44.58807" lon="4.61243">
        <ele>529</ele>
        <time>2012-01-28T12:06:31Z</time>
      </trkpt>
      <trkpt lat="44.5881" lon="4.61258">
        <ele>529</ele>
        <time>2012-01-28T12:06:37Z</time>
      </trkpt>
      <trkpt lat="44.58808" lon="4.61267">
        <ele>529</ele>
        <time>2012-01-28T12:06:45Z</time>
      </trkpt>
      <trkpt lat="44.58808" lon="4.61266">
        <ele>528</ele>
        <time>2012-01-28T12:07:12Z</time>
      </trkpt>
      <trkpt lat="44.58806" lon="4.6127">
        <ele>529</ele>
        <time>2012-01-28T12:07:33Z</time>
      </trkpt>
      <trkpt lat="44.58807" lon="4.61268">
        <ele>529</ele>
        <time>2012-01-28T12:07:42Z</time>
      </trkpt>
      <trkpt lat="44.58805" lon="4.61269">
        <ele>528</ele>
        <time>2012-01-28T12:07:55Z</time>
      </trkpt>
      <trkpt lat="44.58807" lon="4.61268">
        <ele>529</ele>
        <time>2012-01-28T12:08:09Z</time>
      </trkpt>
      <trkpt lat="44.58805" lon="4.61267">
        <ele>529</ele>
        <time>2012-01-28T12:08:20Z</time>
      </trkpt>
      <trkpt lat="44.58805" lon="4.61268">
        <ele>529</ele>
        <time>2012-01-28T12:08:31Z</time>
      </trkpt>
      <trkpt lat="44.58804" lon="4.61269">
        <ele>529</ele>
        <time>2012-01-28T12:08:40Z</time>
      </trkpt>
      <trkpt lat="44.58805" lon="4.61271">
        <ele>529</ele>
        <time>2012-01-28T12:08:53Z</time>
      </trkpt>
      <trkpt lat="44.58805" lon="4.61271">
        <ele>529</ele>
        <time>2012-01-28T12:09:02Z</time>
      </trkpt>
      <trkpt lat="44.588" lon="4.61286">
        <ele>530</ele>
        <time>2012-01-28T12:09:09Z</time>
      </trkpt>
      <trkpt lat="44.58786" lon="4.61316">
        <ele>529</ele>
        <time>2012-01-28T12:09:20Z</time>
      </trkpt>
      <trkpt lat="44.58746" lon="4.61455">
        <ele>529</ele>
        <time>2012-01-28T12:09:52Z</time>
      </trkpt>
      <trkpt lat="44.58737" lon="4.61457">
        <ele>528</ele>
        <time>2012-01-28T12:10:01Z</time>
      </trkpt>
      <trkpt lat="44.58734" lon="4.6146">
        <ele>526</ele>
        <time>2012-01-28T12:10:06Z</time>
      </trkpt>
      <trkpt lat="44.58732" lon="4.61463">
        <ele>524</ele>
        <time>2012-01-28T12:10:12Z</time>
      </trkpt>
      <trkpt lat="44.58731" lon="4.61465">
        <ele>523</ele>
        <time>2012-01-28T12:10:22Z</time>
      </trkpt>
      <trkpt lat="44.58733" lon="4.61468">
        <ele>522</ele>
        <time>2012-01-28T12:11:19Z</time>
      </trkpt>
      <trkpt lat="44.58732" lon="4.61471">
        <ele>520</ele>
        <time>2012-01-28T12:11:26Z</time>
      </trkpt>
      <trkpt lat="44.5873" lon="4.61475">
        <ele>518</ele>
        <time>2012-01-28T12:11:36Z</time>
      </trkpt>
      <trkpt lat="44.58728" lon="4.61478">
        <ele>516</ele>
        <time>2012-01-28T12:11:41Z</time>
      </trkpt>
      <trkpt lat="44.58728" lon="4.61482">
        <ele>515</ele>
        <time>2012-01-28T12:11:47Z</time>
      </trkpt>
      <trkpt lat="44.58729" lon="4.61484">
        <ele>515</ele>
        <time>2012-01-28T12:11:54Z</time>
      </trkpt>
      <trkpt lat="44.5873" lon="4.61488">
        <ele>514</ele>
        <time>2012-01-28T12:11:59Z</time>
      </trkpt>
      <trkpt lat="44.58732" lon="4.61492">
        <ele>514</ele>
        <time>2012-01-28T12:12:06Z</time>
      </trkpt>
      <trkpt lat="44.58734" lon="4.61496">
        <ele>516</ele>
        <time>2012-01-28T12:12:13Z</time>
      </trkpt>
      <trkpt lat="44.58735" lon="4.61497">
        <ele>516</ele>
        <time>2012-01-28T12:12:22Z</time>
      </trkpt>
      <trkpt lat="44.58737" lon="4.61499">
        <ele>515</ele>
        <time>2012-01-28T12:12:30Z</time>
      </trkpt>
      <trkpt lat="44.58738" lon="4.615">
        <ele>516</ele>
        <time>2012-01-28T12:12:39Z</time>
      </trkpt>
      <trkpt lat="44.58738" lon="4.61497">
        <ele>516</ele>
        <time>2012-01-28T12:13:05Z</time>
      </trkpt>
      <trkpt lat="44.58739" lon="4.61497">
        <ele>516</ele>
        <time>2012-01-28T12:13:22Z</time>
      </trkpt>
      <trkpt lat="44.5874" lon="4.61499">
        <ele>516</ele>
        <time>2012-01-28T12:15:26Z</time>
      </trkpt>
      <trkpt lat="44.58743" lon="4.615">
        <ele>516</ele>
        <time>2012-01-28T12:15:31Z</time>
      </trkpt>
      <trkpt lat="44.58748" lon="4.61504">
        <ele>516</ele>
        <time>2012-01-28T12:15:37Z</time>
      </trkpt>
      <trkpt lat="44.58759" lon="4.61508">
        <ele>516</ele>
        <time>2012-01-28T12:15:45Z</time>
      </trkpt>
      <trkpt lat="44.58763" lon="4.61509">
        <ele>516</ele>
        <time>2012-01-28T12:15:48Z</time>
      </trkpt>
      <trkpt lat="44.58782" lon="4.6151">
        <ele>516</ele>
        <time>2012-01-28T12:15:58Z</time>
      </trkpt>
      <trkpt lat="44.58794" lon="4.61507">
        <ele>516</ele>
        <time>2012-01-28T12:16:04Z</time>
      </trkpt>
      <trkpt lat="44.58798" lon="4.61504">
        <ele>516</ele>
        <time>2012-01-28T12:16:06Z</time>
      </trkpt>
      <trkpt lat="44.58804" lon="4.61501">
        <ele>516</ele>
        <time>2012-01-28T12:16:10Z</time>
      </trkpt>
      <trkpt lat="44.58808" lon="4.61497">
        <ele>516</ele>
        <time>2012-01-28T12:16:13Z</time>
      </trkpt>
      <trkpt lat="44.58825" lon="4.61489">
        <ele>516</ele>
        <time>2012-01-28T12:16:19Z</time>
      </trkpt>
      <trkpt lat="44.58837" lon="4.6148">
        <ele>516</ele>
        <time>2012-01-28T12:16:24Z</time>
      </trkpt>
      <trkpt lat="44.58847" lon="4.61472">
        <ele>516</ele>
        <time>2012-01-28T12:16:29Z</time>
      </trkpt>
      <trkpt lat="44.58861" lon="4.61463">
        <ele>516</ele>
        <time>2012-01-28T12:16:34Z</time>
      </trkpt>
      <trkpt lat="44.58875" lon="4.61451">
        <ele>516</ele>
        <time>2012-01-28T12:16:41Z</time>
      </trkpt>
      <trkpt lat="44.58885" lon="4.6144">
        <ele>516</ele>
        <time>2012-01-28T12:16:47Z</time>
      </trkpt>
      <trkpt lat="44.58891" lon="4.61435">
        <ele>515</ele>
        <time>2012-01-28T12:16:49Z</time>
      </trkpt>
      <trkpt lat="44.58904" lon="4.61424">
        <ele>515</ele>
        <time>2012-01-28T12:16:53Z</time>
      </trkpt>
      <trkpt lat="44.58915" lon="4.61413">
        <ele>515</ele>
        <time>2012-01-28T12:16:58Z</time>
      </trkpt>
      <trkpt lat="44.58921" lon="4.61411">
        <ele>513</ele>
        <time>2012-01-28T12:17:05Z</time>
      </trkpt>
      <trkpt lat="44.58926" lon="4.61407">
        <ele>510</ele>
        <time>2012-01-28T12:17:11Z</time>
      </trkpt>
      <trkpt lat="44.58929" lon="4.61405">
        <ele>509</ele>
        <time>2012-01-28T12:17:17Z</time>
      </trkpt>
      <trkpt lat="44.5893" lon="4.61405">
        <ele>509</ele>
        <time>2012-01-28T12:17:26Z</time>
      </trkpt>
      <trkpt lat="44.58931" lon="4.61406">
        <ele>510</ele>
        <time>2012-01-28T12:18:10Z</time>
      </trkpt>
      <trkpt lat="44.58936" lon="4.61413">
        <ele>510</ele>
        <time>2012-01-28T12:18:41Z</time>
      </trkpt>
      <trkpt lat="44.58935" lon="4.61413">
        <ele>509</ele>
        <time>2012-01-28T12:18:45Z</time>
      </trkpt>
      <trkpt lat="44.58933" lon="4.61416">
        <ele>508</ele>
        <time>2012-01-28T12:18:48Z</time>
      </trkpt>
      <trkpt lat="44.58932" lon="4.61418">
        <ele>508</ele>
        <time>2012-01-28T12:18:50Z</time>
      </trkpt>
      <trkpt lat="44.58929" lon="4.61421">
        <ele>506</ele>
        <time>2012-01-28T12:18:53Z</time>
      </trkpt>
      <trkpt lat="44.58926" lon="4.61427">
        <ele>505</ele>
        <time>2012-01-28T12:18:59Z</time>
      </trkpt>
      <trkpt lat="44.58925" lon="4.61433">
        <ele>504</ele>
        <time>2012-01-28T12:19:12Z</time>
      </trkpt>
      <trkpt lat="44.58925" lon="4.61434">
        <ele>504</ele>
        <time>2012-01-28T12:19:14Z</time>
      </trkpt>
      <trkpt lat="44.58921" lon="4.61439">
        <ele>503</ele>
        <time>2012-01-28T12:19:17Z</time>
      </trkpt>
      <trkpt lat="44.58916" lon="4.61442">
        <ele>501</ele>
        <time>2012-01-28T12:19:22Z</time>
      </trkpt>
      <trkpt lat="44.58917" lon="4.61452">
        <ele>500</ele>
        <time>2012-01-28T12:19:29Z</time>
      </trkpt>
      <trkpt lat="44.58919" lon="4.61456">
        <ele>499</ele>
        <time>2012-01-28T12:19:32Z</time>
      </trkpt>
      <trkpt lat="44.5892" lon="4.6146">
        <ele>499</ele>
        <time>2012-01-28T12:19:34Z</time>
      </trkpt>
      <trkpt lat="44.58918" lon="4.6147">
        <ele>498</ele>
        <time>2012-01-28T12:19:37Z</time>
      </trkpt>
      <trkpt lat="44.58914" lon="4.61481">
        <ele>496</ele>
        <time>2012-01-28T12:19:42Z</time>
      </trkpt>
      <trkpt lat="44.58909" lon="4.61486">
        <ele>495</ele>
        <time>2012-01-28T12:19:49Z</time>
      </trkpt>
      <trkpt lat="44.5891" lon="4.61491">
        <ele>495</ele>
        <time>2012-01-28T12:21:52Z</time>
      </trkpt>
      <trkpt lat="44.58912" lon="4.61507">
        <ele>492</ele>
        <time>2012-01-28T12:21:57Z</time>
      </trkpt>
      <trkpt lat="44.5891" lon="4.6151">
        <ele>490</ele>
        <time>2012-01-28T12:21:58Z</time>
      </trkpt>
      <trkpt lat="44.58896" lon="4.61536">
        <ele>488</ele>
        <time>2012-01-28T12:22:03Z</time>
      </trkpt>
      <trkpt lat="44.58895" lon="4.61541">
        <ele>487</ele>
        <time>2012-01-28T12:22:04Z</time>
      </trkpt>
      <trkpt lat="44.58897" lon="4.61555">
        <ele>484</ele>
        <time>2012-01-28T12:22:08Z</time>
      </trkpt>
      <trkpt lat="44.58908" lon="4.61575">
        <ele>479</ele>
        <time>2012-01-28T12:22:16Z</time>
      </trkpt>
      <trkpt lat="44.58897" lon="4.61602">
        <ele>475</ele>
        <time>2012-01-28T12:22:22Z</time>
      </trkpt>
      <trkpt lat="44.589" lon="4.61646">
        <ele>470</ele>
        <time>2012-01-28T12:22:27Z</time>
      </trkpt>
      <trkpt lat="44.58896" lon="4.61652">
        <ele>469</ele>
        <time>2012-01-28T12:22:30Z</time>
      </trkpt>
      <trkpt lat="44.58888" lon="4.6167">
        <ele>466</ele>
        <time>2012-01-28T12:22:34Z</time>
      </trkpt>
      <trkpt lat="44.58882" lon="4.61683">
        <ele>464</ele>
        <time>2012-01-28T12:22:37Z</time>
      </trkpt>
      <trkpt lat="44.58874" lon="4.61701">
        <ele>463</ele>
        <time>2012-01-28T12:22:41Z</time>
      </trkpt>
      <trkpt lat="44.58869" lon="4.61702">
        <ele>461</ele>
        <time>2012-01-28T12:22:43Z</time>
      </trkpt>
      <trkpt lat="44.58873" lon="4.61709">
        <ele>459</ele>
        <time>2012-01-28T12:22:45Z</time>
      </trkpt>
      <trkpt lat="44.58875" lon="4.61715">
        <ele>458</ele>
        <time>2012-01-28T12:22:47Z</time>
      </trkpt>
      <trkpt lat="44.58869" lon="4.6173">
        <ele>456</ele>
        <time>2012-01-28T12:22:51Z</time>
      </trkpt>
      <trkpt lat="44.58869" lon="4.61737">
        <ele>455</ele>
        <time>2012-01-28T12:22:57Z</time>
      </trkpt>
      <trkpt lat="44.58868" lon="4.61739">
        <ele>454</ele>
        <time>2012-01-28T12:23:08Z</time>
      </trkpt>
      <trkpt lat="44.58867" lon="4.61741">
        <ele>454</ele>
        <time>2012-01-28T12:23:24Z</time>
      </trkpt>
      <trkpt lat="44.58869" lon="4.61744">
        <ele>453</ele>
        <time>2012-01-28T12:23:40Z</time>
      </trkpt>
      <trkpt lat="44.58867" lon="4.61747">
        <ele>453</ele>
        <time>2012-01-28T12:23:44Z</time>
      </trkpt>
      <trkpt lat="44.5886" lon="4.61757">
        <ele>452</ele>
        <time>2012-01-28T12:23:50Z</time>
      </trkpt>
      <trkpt lat="44.58852" lon="4.61769">
        <ele>449</ele>
        <time>2012-01-28T12:23:56Z</time>
      </trkpt>
      <trkpt lat="44.58851" lon="4.61771">
        <ele>448</ele>
        <time>2012-01-28T12:23:57Z</time>
      </trkpt>
      <trkpt lat="44.58842" lon="4.61783">
        <ele>446</ele>
        <time>2012-01-28T12:24:00Z</time>
      </trkpt>
      <trkpt lat="44.58836" lon="4.61799">
        <ele>444</ele>
        <time>2012-01-28T12:24:02Z</time>
      </trkpt>
      <trkpt lat="44.58825" lon="4.6183">
        <ele>438</ele>
        <time>2012-01-28T12:24:05Z</time>
      </trkpt>
      <trkpt lat="44.58821" lon="4.61847">
        <ele>436</ele>
        <time>2012-01-28T12:24:07Z</time>
      </trkpt>
      <trkpt lat="44.58818" lon="4.61864">
        <ele>433</ele>
        <time>2012-01-28T12:24:09Z</time>
      </trkpt>
      <trkpt lat="44.5881" lon="4.61877">
        <ele>431</ele>
        <time>2012-01-28T12:24:11Z</time>
      </trkpt>
      <trkpt lat="44.58792" lon="4.61892">
        <ele>426</ele>
        <time>2012-01-28T12:24:14Z</time>
      </trkpt>
      <trkpt lat="44.58785" lon="4.61901">
        <ele>425</ele>
        <time>2012-01-28T12:24:17Z</time>
      </trkpt>
      <trkpt lat="44.58782" lon="4.61905">
        <ele>423</ele>
        <time>2012-01-28T12:24:18Z</time>
      </trkpt>
      <trkpt lat="44.58759" lon="4.61942">
        <ele>419</ele>
        <time>2012-01-28T12:24:23Z</time>
      </trkpt>
      <trkpt lat="44.58741" lon="4.61967">
        <ele>414</ele>
        <time>2012-01-28T12:24:26Z</time>
      </trkpt>
      <trkpt lat="44.58714" lon="4.6199">
        <ele>408</ele>
        <time>2012-01-28T12:24:30Z</time>
      </trkpt>
      <trkpt lat="44.58705" lon="4.61986">
        <ele>405</ele>
        <time>2012-01-28T12:24:33Z</time>
      </trkpt>
      <trkpt lat="44.58705" lon="4.61986">
        <ele>404</ele>
        <time>2012-01-28T12:24:34Z</time>
      </trkpt>
      <trkpt lat="44.58697" lon="4.61978">
        <ele>401</ele>
        <time>2012-01-28T12:24:37Z</time>
      </trkpt>
      <trkpt lat="44.58694" lon="4.6199">
        <ele>401</ele>
        <time>2012-01-28T12:24:39Z</time>
      </trkpt>
      <trkpt lat="44.58691" lon="4.62016">
        <ele>398</ele>
        <time>2012-01-28T12:24:42Z</time>
      </trkpt>
      <trkpt lat="44.58688" lon="4.62044">
        <ele>394</ele>
        <time>2012-01-28T12:24:45Z</time>
      </trkpt>
      <trkpt lat="44.58688" lon="4.62046">
        <ele>390</ele>
        <time>2012-01-28T12:24:48Z</time>
      </trkpt>
      <trkpt lat="44.58675" lon="4.62071">
        <ele>386</ele>
        <time>2012-01-28T12:24:52Z</time>
      </trkpt>
      <trkpt lat="44.58671" lon="4.62079">
        <ele>385</ele>
        <time>2012-01-28T12:24:54Z</time>
      </trkpt>
      <trkpt lat="44.58667" lon="4.62087">
        <ele>383</ele>
        <time>2012-01-28T12:24:56Z</time>
      </trkpt>
      <trkpt lat="44.58658" lon="4.62094">
        <ele>380</ele>
        <time>2012-01-28T12:24:58Z</time>
      </trkpt>
      <trkpt lat="44.58655" lon="4.62096">
        <ele>380</ele>
        <time>2012-01-28T12:24:59Z</time>
      </trkpt>
      <trkpt lat="44.58647" lon="4.62104">
        <ele>377</ele>
        <time>2012-01-28T12:25:02Z</time>
      </trkpt>
      <trkpt lat="44.58645" lon="4.62112">
        <ele>376</ele>
        <time>2012-01-28T12:25:04Z</time>
      </trkpt>
      <trkpt lat="44.58637" lon="4.62128">
        <ele>373</ele>
        <time>2012-01-28T12:25:08Z</time>
      </trkpt>
      <trkpt lat="44.58635" lon="4.62133">
        <ele>372</ele>
        <time>2012-01-28T12:25:09Z</time>
      </trkpt>
      <trkpt lat="44.58635" lon="4.62148">
        <ele>369</ele>
        <time>2012-01-28T12:25:12Z</time>
      </trkpt>
      <trkpt lat="44.58635" lon="4.62151">
        <ele>368</ele>
        <time>2012-01-28T12:25:13Z</time>
      </trkpt>
      <trkpt lat="44.58635" lon="4.62162">
        <ele>366</ele>
        <time>2012-01-28T12:25:17Z</time>
      </trkpt>
      <trkpt lat="44.58633" lon="4.62164">
        <ele>364</ele>
        <time>2012-01-28T12:25:20Z</time>
      </trkpt>
      <trkpt lat="44.58632" lon="4.62164">
        <ele>364</ele>
        <time>2012-01-28T12:25:26Z</time>
      </trkpt>
      <trkpt lat="44.58632" lon="4.62164">
        <ele>365</ele>
        <time>2012-01-28T12:25:41Z</time>
      </trkpt>
      <trkpt lat="44.58632" lon="4.62164">
        <ele>366</ele>
        <time>2012-01-28T12:25:43Z</time>
      </trkpt>
      <trkpt lat="44.58632" lon="4.62164">
        <ele>368</ele>
        <time>2012-01-28T12:25:53Z</time>
      </trkpt>
      <trkpt lat="44.58632" lon="4.62164">
        <ele>368</ele>
        <time>2012-01-28T12:26:02Z</time>
      </trkpt>
      <trkpt lat="44.58632" lon="4.62164">
        <ele>368</ele>
        <time>2012-01-28T12:26:10Z</time>
      </trkpt>
      <trkpt lat="44.58632" lon="4.62164">
        <ele>368</ele>
        <time>2012-01-28T12:27:13Z</time>
      </trkpt>
      <trkpt lat="44.58632" lon="4.62164">
        <ele>368</ele>
        <time>2012-01-28T12:27:14Z</time>
      </trkpt>
      <trkpt lat="44.58636" lon="4.62154">
        <ele>366</ele>
        <time>2012-01-28T12:27:22Z</time>
      </trkpt>
      <trkpt lat="44.58635" lon="4.62163">
        <ele>365</ele>
        <time>2012-01-28T12:27:24Z</time>
      </trkpt>
      <trkpt lat="44.58635" lon="4.62163">
        <ele>365</ele>
        <time>2012-01-28T12:27:26Z</time>
      </trkpt>
      <trkpt lat="44.58623" lon="4.62166">
        <ele>363</ele>
        <time>2012-01-28T12:27:33Z</time>
      </trkpt>
      <trkpt lat="44.58619" lon="4.62167">
        <ele>362</ele>
        <time>2012-01-28T12:27:38Z</time>
      </trkpt>
      <trkpt lat="44.58619" lon="4.62167">
        <ele>361</ele>
        <time>2012-01-28T12:28:19Z</time>
      </trkpt>
      <trkpt lat="44.58605" lon="4.62169">
        <ele>361</ele>
        <time>2012-01-28T12:28:24Z</time>
      </trkpt>
      <trkpt lat="44.58588" lon="4.62172">
        <ele>356</ele>
        <time>2012-01-28T12:28:27Z</time>
      </trkpt>
      <trkpt lat="44.58585" lon="4.62173">
        <ele>356</ele>
        <time>2012-01-28T12:28:28Z</time>
      </trkpt>
      <trkpt lat="44.58581" lon="4.62186">
        <ele>353</ele>
        <time>2012-01-28T12:28:33Z</time>
      </trkpt>
      <trkpt lat="44.5858" lon="4.62191">
        <ele>351</ele>
        <time>2012-01-28T12:28:35Z</time>
      </trkpt>
      <trkpt lat="44.5857" lon="4.62195">
        <ele>351</ele>
        <time>2012-01-28T12:28:37Z</time>
      </trkpt>
      <trkpt lat="44.58561" lon="4.6219">
        <ele>349</ele>
        <time>2012-01-28T12:28:39Z</time>
      </trkpt>
      <trkpt lat="44.58544" lon="4.62196">
        <ele>344</ele>
        <time>2012-01-28T12:28:43Z</time>
      </trkpt>
      <trkpt lat="44.58525" lon="4.62217">
        <ele>341</ele>
        <time>2012-01-28T12:28:47Z</time>
      </trkpt>
      <trkpt lat="44.58514" lon="4.62228">
        <ele>338</ele>
        <time>2012-01-28T12:28:49Z</time>
      </trkpt>
      <trkpt lat="44.58496" lon="4.62249">
        <ele>335</ele>
        <time>2012-01-28T12:28:52Z</time>
      </trkpt>
      <trkpt lat="44.58482" lon="4.6226">
        <ele>330</ele>
        <time>2012-01-28T12:28:57Z</time>
      </trkpt>
      <trkpt lat="44.58459" lon="4.62265">
        <ele>327</ele>
        <time>2012-01-28T12:29:02Z</time>
      </trkpt>
      <trkpt lat="44.58459" lon="4.62265">
        <ele>327</ele>
        <time>2012-01-28T12:29:04Z</time>
      </trkpt>
      <trkpt lat="44.58482" lon="4.6226">
        <ele>326</ele>
        <time>2012-01-28T12:29:07Z</time>
      </trkpt>
      <trkpt lat="44.58453" lon="4.62266">
        <ele>326</ele>
        <time>2012-01-28T12:29:12Z</time>
      </trkpt>
      <trkpt lat="44.58453" lon="4.62266">
        <ele>326</ele>
        <time>2012-01-28T12:29:26Z</time>
      </trkpt>
      <trkpt lat="44.58457" lon="4.62295">
        <ele>326</ele>
        <time>2012-01-28T12:29:32Z</time>
      </trkpt>
      <trkpt lat="44.58463" lon="4.62317">
        <ele>325</ele>
        <time>2012-01-28T12:29:35Z</time>
      </trkpt>
      <trkpt lat="44.58466" lon="4.62381">
        <ele>323</ele>
        <time>2012-01-28T12:29:41Z</time>
      </trkpt>
      <trkpt lat="44.58475" lon="4.6242">
        <ele>319</ele>
        <time>2012-01-28T12:29:44Z</time>
      </trkpt>
      <trkpt lat="44.58477" lon="4.62434">
        <ele>319</ele>
        <time>2012-01-28T12:29:45Z</time>
      </trkpt>
      <trkpt lat="44.58484" lon="4.62462">
        <ele>317</ele>
        <time>2012-01-28T12:29:47Z</time>
      </trkpt>
      <trkpt lat="44.58481" lon="4.62504">
        <ele>315</ele>
        <time>2012-01-28T12:29:50Z</time>
      </trkpt>
      <trkpt lat="44.58462" lon="4.62521">
        <ele>315</ele>
        <time>2012-01-28T12:29:53Z</time>
      </trkpt>
      <trkpt lat="44.58417" lon="4.6254">
        <ele>314</ele>
        <time>2012-01-28T12:30:01Z</time>
      </trkpt>
      <trkpt lat="44.58371" lon="4.6256">
        <ele>313</ele>
        <time>2012-01-28T12:30:11Z</time>
      </trkpt>
      <trkpt lat="44.58348" lon="4.6257">
        <ele>312</ele>
        <time>2012-01-28T12:30:18Z</time>
      </trkpt>
      <trkpt lat="44.58346" lon="4.62571">
        <ele>312</ele>
        <time>2012-01-28T12:30:23Z</time>
      </trkpt>
      <trkpt lat="44.58346" lon="4.62571">
        <ele>312</ele>
        <time>2012-01-28T12:30:30Z</time>
      </trkpt>
      <trkpt lat="44.58334" lon="4.6256">
        <ele>311</ele>
        <time>2012-01-28T12:30:35Z</time>
      </trkpt>
      <trkpt lat="44.58325" lon="4.62552">
        <ele>310</ele>
        <time>2012-01-28T12:30:37Z</time>
      </trkpt>
      <trkpt lat="44.58289" lon="4.62517">
        <ele>307</ele>
        <time>2012-01-28T12:30:43Z</time>
      </trkpt>
      <trkpt lat="44.58264" lon="4.62493">
        <ele>303</ele>
        <time>2012-01-28T12:30:47Z</time>
      </trkpt>
      <trkpt lat="44.58261" lon="4.6249">
        <ele>302</ele>
        <time>2012-01-28T12:30:49Z</time>
      </trkpt>
      <trkpt lat="44.58247" lon="4.62488">
        <ele>301</ele>
        <time>2012-01-28T12:30:54Z</time>
      </trkpt>
      <trkpt lat="44.58243" lon="4.62488">
        <ele>300</ele>
        <time>2012-01-28T12:30:55Z</time>
      </trkpt>
      <trkpt lat="44.58214" lon="4.62482">
        <ele>297</ele>
        <time>2012-01-28T12:31:01Z</time>
      </trkpt>
      <trkpt lat="44.58194" lon="4.6247">
        <ele>295</ele>
        <time>2012-01-28T12:31:05Z</time>
      </trkpt>
      <trkpt lat="44.58184" lon="4.62464">
        <ele>294</ele>
        <time>2012-01-28T12:31:07Z</time>
      </trkpt>
      <trkpt lat="44.58171" lon="4.62456">
        <ele>293</ele>
        <time>2012-01-28T12:31:10Z</time>
      </trkpt>
      <trkpt lat="44.58159" lon="4.62449">
        <ele>292</ele>
        <time>2012-01-28T12:31:13Z</time>
      </trkpt>
      <trkpt lat="44.58155" lon="4.62447">
        <ele>291</ele>
        <time>2012-01-28T12:31:17Z</time>
      </trkpt>
      <trkpt lat="44.58154" lon="4.62446">
        <ele>291</ele>
        <time>2012-01-28T12:31:18Z</time>
      </trkpt>
      <trkpt lat="44.58158" lon="4.62436">
        <ele>291</ele>
        <time>2012-01-28T12:31:23Z</time>
      </trkpt>
      <trkpt lat="44.58158" lon="4.62436">
        <ele>290</ele>
        <time>2012-01-28T12:31:34Z</time>
      </trkpt>
      <trkpt lat="44.58144" lon="4.62412">
        <ele>290</ele>
        <time>2012-01-28T12:31:40Z</time>
      </trkpt>
      <trkpt lat="44.58131" lon="4.62391">
        <ele>290</ele>
        <time>2012-01-28T12:31:46Z</time>
      </trkpt>
      <trkpt lat="44.58124" lon="4.62381">
        <ele>289</ele>
        <time>2012-01-28T12:31:50Z</time>
      </trkpt>
      <trkpt lat="44.58112" lon="4.62362">
        <ele>289</ele>
        <time>2012-01-28T12:31:56Z</time>
      </trkpt>
      <trkpt lat="44.58096" lon="4.62338">
        <ele>286</ele>
        <time>2012-01-28T12:32:04Z</time>
      </trkpt>
      <trkpt lat="44.5809" lon="4.62327">
        <ele>284</ele>
        <time>2012-01-28T12:32:10Z</time>
      </trkpt>
      <trkpt lat="44.58085" lon="4.62319">
        <ele>285</ele>
        <time>2012-01-28T12:32:14Z</time>
      </trkpt>
      <trkpt lat="44.5808" lon="4.62312">
        <ele>285</ele>
        <time>2012-01-28T12:32:18Z</time>
      </trkpt>
      <trkpt lat="44.58076" lon="4.62304">
        <ele>284</ele>
        <time>2012-01-28T12:32:26Z</time>
      </trkpt>
      <trkpt lat="44.58076" lon="4.62304">
        <ele>284</ele>
        <time>2012-01-28T12:32:35Z</time>
      </trkpt>
      <trkpt lat="44.58076" lon="4.62304">
        <ele>283</ele>
        <time>2012-01-28T12:32:51Z</time>
      </trkpt>
      <trkpt lat="44.58076" lon="4.62304">
        <ele>283</ele>
        <time>2012-01-28T12:33:10Z</time>
      </trkpt>
      <trkpt lat="44.58076" lon="4.62304">
        <ele>284</ele>
        <time>2012-01-28T12:33:19Z</time>
      </trkpt>
      <trkpt lat="44.58076" lon="4.62304">
        <ele>283</ele>
        <time>2012-01-28T12:33:26Z</time>
      </trkpt>
      <trkpt lat="44.5807" lon="4.62296">
        <ele>283</ele>
        <time>2012-01-28T12:33:31Z</time>
      </trkpt>
      <trkpt lat="44.58061" lon="4.6228">
        <ele>283</ele>
        <time>2012-01-28T12:33:38Z</time>
      </trkpt>
      <trkpt lat="44.58052" lon="4.62265">
        <ele>282</ele>
        <time>2012-01-28T12:33:44Z</time>
      </trkpt>
      <trkpt lat="44.5804" lon="4.62246">
        <ele>282</ele>
        <time>2012-01-28T12:33:51Z</time>
      </trkpt>
      <trkpt lat="44.58034" lon="4.62235">
        <ele>282</ele>
        <time>2012-01-28T12:33:55Z</time>
      </trkpt>
      <trkpt lat="44.58033" lon="4.62233">
        <ele>282</ele>
        <time>2012-01-28T12:34:03Z</time>
      </trkpt>
      <trkpt lat="44.58033" lon="4.62233">
        <ele>283</ele>
        <time>2012-01-28T12:34:40Z</time>
      </trkpt>
      <trkpt lat="44.5803" lon="4.6223">
        <ele>283</ele>
        <time>2012-01-28T12:34:43Z</time>
      </trkpt>
      <trkpt lat="44.58007" lon="4.622">
        <ele>284</ele>
        <time>2012-01-28T12:34:53Z</time>
      </trkpt>
      <trkpt lat="44.57981" lon="4.62172">
        <ele>282</ele>
        <time>2012-01-28T12:35:01Z</time>
      </trkpt>
      <trkpt lat="44.57962" lon="4.6216">
        <ele>281</ele>
        <time>2012-01-28T12:35:05Z</time>
      </trkpt>
      <trkpt lat="44.57913" lon="4.62129">
        <ele>280</ele>
        <time>2012-01-28T12:35:14Z</time>
      </trkpt>
      <trkpt lat="44.57905" lon="4.62119">
        <ele>279</ele>
        <time>2012-01-28T12:35:16Z</time>
      </trkpt>
      <trkpt lat="44.57891" lon="4.62099">
        <ele>278</ele>
        <time>2012-01-28T12:35:21Z</time>
      </trkpt>
      <trkpt lat="44.5787" lon="4.6208">
        <ele>279</ele>
        <time>2012-01-28T12:35:29Z</time>
      </trkpt>
      <trkpt lat="44.57858" lon="4.62069">
        <ele>278</ele>
        <time>2012-01-28T12:35:36Z</time>
      </trkpt>
      <trkpt lat="44.5785" lon="4.6206">
        <ele>278</ele>
        <time>2012-01-28T12:35:52Z</time>
      </trkpt>
      <trkpt lat="44.57818" lon="4.62034">
        <ele>278</ele>
        <time>2012-01-28T12:35:59Z</time>
      </trkpt>
      <trkpt lat="44.57801" lon="4.62024">
        <ele>277</ele>
        <time>2012-01-28T12:36:02Z</time>
      </trkpt>
      <trkpt lat="44.57792" lon="4.62015">
        <ele>276</ele>
        <time>2012-01-28T12:36:04Z</time>
      </trkpt>
      <trkpt lat="44.57785" lon="4.62005">
        <ele>275</ele>
        <time>2012-01-28T12:36:09Z</time>
      </trkpt>
      <trkpt lat="44.57783" lon="4.61999">
        <ele>274</ele>
        <time>2012-01-28T12:36:14Z</time>
      </trkpt>
      <trkpt lat="44.57776" lon="4.61981">
        <ele>274</ele>
        <time>2012-01-28T12:36:21Z</time>
      </trkpt>
      <trkpt lat="44.57772" lon="4.61972">
        <ele>272</ele>
        <time>2012-01-28T12:36:26Z</time>
      </trkpt>
      <trkpt lat="44.57772" lon="4.61972">
        <ele>272</ele>
        <time>2012-01-28T12:36:34Z</time>
      </trkpt>
      <trkpt lat="44.57772" lon="4.61972">
        <ele>271</ele>
        <time>2012-01-28T12:36:41Z</time>
      </trkpt>
      <trkpt lat="44.57772" lon="4.61972">
        <ele>270</ele>
        <time>2012-01-28T12:36:55Z</time>
      </trkpt>
      <trkpt lat="44.57772" lon="4.61972">
        <ele>271</ele>
        <time>2012-01-28T12:37:03Z</time>
      </trkpt>
      <trkpt lat="44.57772" lon="4.61972">
        <ele>271</ele>
        <time>2012-01-28T12:37:22Z</time>
      </trkpt>
      <trkpt lat="44.57772" lon="4.61972">
        <ele>272</ele>
        <time>2012-01-28T12:37:27Z</time>
      </trkpt>
      <trkpt lat="44.57772" lon="4.61972">
        <ele>272</ele>
        <time>2012-01-28T12:37:38Z</time>
      </trkpt>
      <trkpt lat="44.57772" lon="4.61972">
        <ele>272</ele>
        <time>2012-01-28T12:37:46Z</time>
      </trkpt>
      <trkpt lat="44.57772" lon="4.61972">
        <ele>270</ele>
        <time>2012-01-28T12:37:55Z</time>
      </trkpt>
      <trkpt lat="44.57772" lon="4.61972">
        <ele>270</ele>
        <time>2012-01-28T12:38:05Z</time>
      </trkpt>
      <trkpt lat="44.57772" lon="4.61972">
        <ele>271</ele>
        <time>2012-01-28T12:38:13Z</time>
      </trkpt>
      <trkpt lat="44.57772" lon="4.61972">
        <ele>271</ele>
        <time>2012-01-28T12:38:25Z</time>
      </trkpt>
      <trkpt lat="44.57772" lon="4.61972">
        <ele>272</ele>
        <time>2012-01-28T12:38:30Z</time>
      </trkpt>
      <trkpt lat="44.57772" lon="4.61972">
        <ele>272</ele>
        <time>2012-01-28T12:38:37Z</time>
      </trkpt>
      <trkpt lat="44.57772" lon="4.61972">
        <ele>272</ele>
        <time>2012-01-28T12:38:42Z</time>
      </trkpt>
      <trkpt lat="44.57766" lon="4.61962">
        <ele>270</ele>
        <time>2012-01-28T12:38:50Z</time>
      </trkpt>
      <trkpt lat="44.57765" lon="4.6196">
        <ele>269</ele>
        <time>2012-01-28T12:38:51Z</time>
      </trkpt>
      <trkpt lat="44.57761" lon="4.6195">
        <ele>268</ele>
        <time>2012-01-28T12:38:55Z</time>
      </trkpt>
      <trkpt lat="44.57758" lon="4.61945">
        <ele>267</ele>
        <time>2012-01-28T12:38:57Z</time>
      </trkpt>
      <trkpt lat="44.57753" lon="4.61935">
        <ele>266</ele>
        <time>2012-01-28T12:39:02Z</time>
      </trkpt>
      <trkpt lat="44.57748" lon="4.61927">
        <ele>266</ele>
        <time>2012-01-28T12:39:06Z</time>
      </trkpt>
      <trkpt lat="44.57732" lon="4.61906">
        <ele>264</ele>
        <time>2012-01-28T12:39:13Z</time>
      </trkpt>
      <trkpt lat="44.57725" lon="4.61897">
        <ele>262</ele>
        <time>2012-01-28T12:39:16Z</time>
      </trkpt>
      <trkpt lat="44.5772" lon="4.61887">
        <ele>262</ele>
        <time>2012-01-28T12:39:21Z</time>
      </trkpt>
      <trkpt lat="44.57715" lon="4.61879">
        <ele>262</ele>
        <time>2012-01-28T12:40:11Z</time>
      </trkpt>
      <trkpt lat="44.57706" lon="4.61853">
        <ele>261</ele>
        <time>2012-01-28T12:40:17Z</time>
      </trkpt>
      <trkpt lat="44.57695" lon="4.61837">
        <ele>260</ele>
        <time>2012-01-28T12:40:21Z</time>
      </trkpt>
      <trkpt lat="44.57692" lon="4.61833">
        <ele>257</ele>
        <time>2012-01-28T12:40:25Z</time>
      </trkpt>
      <trkpt lat="44.5769" lon="4.6183">
        <ele>257</ele>
        <time>2012-01-28T12:40:26Z</time>
      </trkpt>
      <trkpt lat="44.57681" lon="4.61814">
        <ele>256</ele>
        <time>2012-01-28T12:40:34Z</time>
      </trkpt>
      <trkpt lat="44.57681" lon="4.61814">
        <ele>256</ele>
        <time>2012-01-28T12:40:40Z</time>
      </trkpt>
      <trkpt lat="44.57681" lon="4.61814">
        <ele>256</ele>
        <time>2012-01-28T12:41:09Z</time>
      </trkpt>
      <trkpt lat="44.57681" lon="4.61814">
        <ele>255</ele>
        <time>2012-01-28T12:41:21Z</time>
      </trkpt>
      <trkpt lat="44.57681" lon="4.61814">
        <ele>255</ele>
        <time>2012-01-28T12:41:35Z</time>
      </trkpt>
      <trkpt lat="44.57681" lon="4.61814">
        <ele>255</ele>
        <time>2012-01-28T12:42:06Z</time>
      </trkpt>
      <trkpt lat="44.5767" lon="4.61806">
        <ele>255</ele>
        <time>2012-01-28T12:42:13Z</time>
      </trkpt>
      <trkpt lat="44.57658" lon="4.61804">
        <ele>256</ele>
        <time>2012-01-28T12:42:19Z</time>
      </trkpt>
      <trkpt lat="44.57653" lon="4.61798">
        <ele>257</ele>
        <time>2012-01-28T12:42:21Z</time>
      </trkpt>
      <trkpt lat="44.57645" lon="4.61783">
        <ele>259</ele>
        <time>2012-01-28T12:42:27Z</time>
      </trkpt>
      <trkpt lat="44.57645" lon="4.61781">
        <ele>258</ele>
        <time>2012-01-28T12:42:28Z</time>
      </trkpt>
      <trkpt lat="44.57643" lon="4.61771">
        <ele>259</ele>
        <time>2012-01-28T12:42:32Z</time>
      </trkpt>
      <trkpt lat="44.57642" lon="4.61763">
        <ele>259</ele>
        <time>2012-01-28T12:42:35Z</time>
      </trkpt>
      <trkpt lat="44.5764" lon="4.61746">
        <ele>258</ele>
        <time>2012-01-28T12:42:40Z</time>
      </trkpt>
      <trkpt lat="44.57637" lon="4.61723">
        <ele>259</ele>
        <time>2012-01-28T12:42:47Z</time>
      </trkpt>
      <trkpt lat="44.57629" lon="4.61696">
        <ele>260</ele>
        <time>2012-01-28T12:42:56Z</time>
      </trkpt>
      <trkpt lat="44.57615" lon="4.61692">
        <ele>258</ele>
        <time>2012-01-28T12:43:01Z</time>
      </trkpt>
      <trkpt lat="44.57604" lon="4.61676">
        <ele>258</ele>
        <time>2012-01-28T12:43:07Z</time>
      </trkpt>
      <trkpt lat="44.57597" lon="4.61661">
        <ele>258</ele>
        <time>2012-01-28T12:43:10Z</time>
      </trkpt>
      <trkpt lat="44.57576" lon="4.61629">
        <ele>255</ele>
        <time>2012-01-28T12:43:16Z</time>
      </trkpt>
      <trkpt lat="44.57559" lon="4.61601">
        <ele>253</ele>
        <time>2012-01-28T12:43:20Z</time>
      </trkpt>
      <trkpt lat="44.5755" lon="4.61586">
        <ele>252</ele>
        <time>2012-01-28T12:43:22Z</time>
      </trkpt>
      <trkpt lat="44.57539" lon="4.61557">
        <ele>250</ele>
        <time>2012-01-28T12:43:25Z</time>
      </trkpt>
      <trkpt lat="44.5752" lon="4.61516">
        <ele>247</ele>
        <time>2012-01-28T12:43:29Z</time>
      </trkpt>
      <trkpt lat="44.57514" lon="4.61507">
        <ele>247</ele>
        <time>2012-01-28T12:43:30Z</time>
      </trkpt>
      <trkpt lat="44.57499" lon="4.61483">
        <ele>247</ele>
        <time>2012-01-28T12:43:33Z</time>
      </trkpt>
      <trkpt lat="44.57491" lon="4.61459">
        <ele>246</ele>
        <time>2012-01-28T12:43:36Z</time>
      </trkpt>
      <trkpt lat="44.57477" lon="4.61435">
        <ele>244</ele>
        <time>2012-01-28T12:43:40Z</time>
      </trkpt>
      <trkpt lat="44.57465" lon="4.6142">
        <ele>243</ele>
        <time>2012-01-28T12:43:43Z</time>
      </trkpt>
      <trkpt lat="44.57443" lon="4.61411">
        <ele>240</ele>
        <time>2012-01-28T12:43:48Z</time>
      </trkpt>
      <trkpt lat="44.57437" lon="4.61409">
        <ele>239</ele>
        <time>2012-01-28T12:43:53Z</time>
      </trkpt>
      <trkpt lat="44.57437" lon="4.61409">
        <ele>239</ele>
        <time>2012-01-28T12:44:00Z</time>
      </trkpt>
      <trkpt lat="44.57437" lon="4.61409">
        <ele>238</ele>
        <time>2012-01-28T12:44:27Z</time>
      </trkpt>
      <trkpt lat="44.57437" lon="4.61409">
        <ele>238</ele>
        <time>2012-01-28T12:44:35Z</time>
      </trkpt>
      <trkpt lat="44.57437" lon="4.61409">
        <ele>238</ele>
        <time>2012-01-28T12:45:37Z</time>
      </trkpt>
      <trkpt lat="44.57411" lon="4.61406">
        <ele>238</ele>
        <time>2012-01-28T12:45:43Z</time>
      </trkpt>
      <trkpt lat="44.57379" lon="4.61384">
        <ele>237</ele>
        <time>2012-01-28T12:45:51Z</time>
      </trkpt>
      <trkpt lat="44.57369" lon="4.61355">
        <ele>237</ele>
        <time>2012-01-28T12:45:56Z</time>
      </trkpt>
      <trkpt lat="44.57357" lon="4.61281">
        <ele>238</ele>
        <time>2012-01-28T12:46:07Z</time>
      </trkpt>
      <trkpt lat="44.57353" lon="4.6124">
        <ele>239</ele>
        <time>2012-01-28T12:46:13Z</time>
      </trkpt>
      <trkpt lat="44.57339" lon="4.61218">
        <ele>238</ele>
        <time>2012-01-28T12:46:18Z</time>
      </trkpt>
      <trkpt lat="44.57334" lon="4.61215">
        <ele>238</ele>
        <time>2012-01-28T12:46:19Z</time>
      </trkpt>
      <trkpt lat="44.57299" lon="4.61181">
        <ele>237</ele>
        <time>2012-01-28T12:46:26Z</time>
      </trkpt>
      <trkpt lat="44.57273" lon="4.61173">
        <ele>235</ele>
        <time>2012-01-28T12:46:30Z</time>
      </trkpt>
      <trkpt lat="44.57266" lon="4.61172">
        <ele>235</ele>
        <time>2012-01-28T12:46:31Z</time>
      </trkpt>
      <trkpt lat="44.57234" lon="4.6117">
        <ele>233</ele>
        <time>2012-01-28T12:46:35Z</time>
      </trkpt>
      <trkpt lat="44.57218" lon="4.6117">
        <ele>232</ele>
        <time>2012-01-28T12:46:37Z</time>
      </trkpt>
      <trkpt lat="44.57206" lon="4.6116">
        <ele>231</ele>
        <time>2012-01-28T12:46:41Z</time>
      </trkpt>
      <trkpt lat="44.57208" lon="4.61155">
        <ele>230</ele>
        <time>2012-01-28T12:46:42Z</time>
      </trkpt>
      <trkpt lat="44.57223" lon="4.61094">
        <ele>232</ele>
        <time>2012-01-28T12:46:53Z</time>
      </trkpt>
      <trkpt lat="44.57237" lon="4.61052">
        <ele>232</ele>
        <time>2012-01-28T12:47:00Z</time>
      </trkpt>
      <trkpt lat="44.57255" lon="4.61036">
        <ele>233</ele>
        <time>2012-01-28T12:47:05Z</time>
      </trkpt>
      <trkpt lat="44.57285" lon="4.61025">
        <ele>236</ele>
        <time>2012-01-28T12:47:16Z</time>
      </trkpt>
      <trkpt lat="44.57302" lon="4.61017">
        <ele>235</ele>
        <time>2012-01-28T12:47:22Z</time>
      </trkpt>
      <trkpt lat="44.57302" lon="4.6101">
        <ele>234</ele>
        <time>2012-01-28T12:47:25Z</time>
      </trkpt>
      <trkpt lat="44.57289" lon="4.61012">
        <ele>233</ele>
        <time>2012-01-28T12:47:28Z</time>
      </trkpt>
      <trkpt lat="44.57279" lon="4.61015">
        <ele>231</ele>
        <time>2012-01-28T12:47:30Z</time>
      </trkpt>
      <trkpt lat="44.57259" lon="4.61012">
        <ele>231</ele>
        <time>2012-01-28T12:47:34Z</time>
      </trkpt>
      <trkpt lat="44.57226" lon="4.61004">
        <ele>230</ele>
        <time>2012-01-28T12:47:42Z</time>
      </trkpt>
      <trkpt lat="44.57216" lon="4.60984">
        <ele>232</ele>
        <time>2012-01-28T12:47:50Z</time>
      </trkpt>
      <trkpt lat="44.57209" lon="4.60952">
        <ele>233</ele>
        <time>2012-01-28T12:48:01Z</time>
      </trkpt>
      <trkpt lat="44.57212" lon="4.60921">
        <ele>234</ele>
        <time>2012-01-28T12:48:08Z</time>
      </trkpt>
      <trkpt lat="44.57221" lon="4.60891">
        <ele>235</ele>
        <time>2012-01-28T12:48:16Z</time>
      </trkpt>
      <trkpt lat="44.57222" lon="4.60856">
        <ele>235</ele>
        <time>2012-01-28T12:48:26Z</time>
      </trkpt>
      <trkpt lat="44.5722" lon="4.60813">
        <ele>237</ele>
        <time>2012-01-28T12:48:38Z</time>
      </trkpt>
      <trkpt lat="44.57211" lon="4.60773">
        <ele>237</ele>
        <time>2012-01-28T12:48:48Z</time>
      </trkpt>
      <trkpt lat="44.57214" lon="4.6074">
        <ele>237</ele>
        <time>2012-01-28T12:48:54Z</time>
      </trkpt>
      <trkpt lat="44.57216" lon="4.60735">
        <ele>237</ele>
        <time>2012-01-28T12:49:00Z</time>
      </trkpt>
      <trkpt lat="44.57218" lon="4.60665">
        <ele>234</ele>
        <time>2012-01-28T12:49:07Z</time>
      </trkpt>
      <trkpt lat="44.5722" lon="4.60645">
        <ele>233</ele>
        <time>2012-01-28T12:49:11Z</time>
      </trkpt>
      <trkpt lat="44.5722" lon="4.60632">
        <ele>233</ele>
        <time>2012-01-28T12:49:18Z</time>
      </trkpt>
      <trkpt lat="44.5722" lon="4.60631">
        <ele>234</ele>
        <time>2012-01-28T12:49:25Z</time>
      </trkpt>
      <trkpt lat="44.5722" lon="4.60623">
        <ele>234</ele>
        <time>2012-01-28T12:49:36Z</time>
      </trkpt>
      <trkpt lat="44.5722" lon="4.60623">
        <ele>234</ele>
        <time>2012-01-28T12:49:41Z</time>
      </trkpt>
      <trkpt lat="44.5722" lon="4.60623">
        <ele>234</ele>
        <time>2012-01-28T12:49:43Z</time>
      </trkpt>
      <trkpt lat="44.57224" lon="4.60603">
        <ele>233</ele>
        <time>2012-01-28T12:49:48Z</time>
      </trkpt>
      <trkpt lat="44.57227" lon="4.6061">
        <ele>232</ele>
        <time>2012-01-28T12:49:52Z</time>
      </trkpt>
      <trkpt lat="44.57223" lon="4.60616">
        <ele>231</ele>
        <time>2012-01-28T12:49:58Z</time>
      </trkpt>
      <trkpt lat="44.57221" lon="4.6062">
        <ele>231</ele>
        <time>2012-01-28T12:50:12Z</time>
      </trkpt>
      <trkpt lat="44.57219" lon="4.6062">
        <ele>231</ele>
        <time>2012-01-28T12:50:25Z</time>
      </trkpt>
      <trkpt lat="44.57219" lon="4.6062">
        <ele>230</ele>
        <time>2012-01-28T12:50:40Z</time>
      </trkpt>
      <trkpt lat="44.57209" lon="4.60619">
        <ele>230</ele>
        <time>2012-01-28T12:50:45Z</time>
      </trkpt>
      <trkpt lat="44.57181" lon="4.60617">
        <ele>228</ele>
        <time>2012-01-28T12:50:50Z</time>
      </trkpt>
      <trkpt lat="44.57174" lon="4.60615">
        <ele>227</ele>
        <time>2012-01-28T12:50:51Z</time>
      </trkpt>
      <trkpt lat="44.57146" lon="4.60588">
        <ele>225</ele>
        <time>2012-01-28T12:50:55Z</time>
      </trkpt>
      <trkpt lat="44.57141" lon="4.60578">
        <ele>225</ele>
        <time>2012-01-28T12:50:56Z</time>
      </trkpt>
      <trkpt lat="44.57109" lon="4.60494">
        <ele>224</ele>
        <time>2012-01-28T12:51:05Z</time>
      </trkpt>
      <trkpt lat="44.57101" lon="4.60477">
        <ele>223</ele>
        <time>2012-01-28T12:51:07Z</time>
      </trkpt>
      <trkpt lat="44.57078" lon="4.60449">
        <ele>221</ele>
        <time>2012-01-28T12:51:11Z</time>
      </trkpt>
      <trkpt lat="44.57068" lon="4.60413">
        <ele>223</ele>
        <time>2012-01-28T12:51:15Z</time>
      </trkpt>
      <trkpt lat="44.57063" lon="4.60368">
        <ele>223</ele>
        <time>2012-01-28T12:51:22Z</time>
      </trkpt>
      <trkpt lat="44.57053" lon="4.60347">
        <ele>224</ele>
        <time>2012-01-28T12:51:28Z</time>
      </trkpt>
      <trkpt lat="44.57039" lon="4.6034">
        <ele>223</ele>
        <time>2012-01-28T12:51:32Z</time>
      </trkpt>
      <trkpt lat="44.57014" lon="4.60334">
        <ele>222</ele>
        <time>2012-01-28T12:51:37Z</time>
      </trkpt>
      <trkpt lat="44.56964" lon="4.60336">
        <ele>220</ele>
        <time>2012-01-28T12:51:45Z</time>
      </trkpt>
      <trkpt lat="44.56948" lon="4.60335">
        <ele>219</ele>
        <time>2012-01-28T12:51:47Z</time>
      </trkpt>
      <trkpt lat="44.56879" lon="4.60312">
        <ele>216</ele>
        <time>2012-01-28T12:51:55Z</time>
      </trkpt>
      <trkpt lat="44.56829" lon="4.60294">
        <ele>214</ele>
        <time>2012-01-28T12:52:01Z</time>
      </trkpt>
      <trkpt lat="44.56758" lon="4.60259">
        <ele>211</ele>
        <time>2012-01-28T12:52:10Z</time>
      </trkpt>
      <trkpt lat="44.56728" lon="4.60245">
        <ele>208</ele>
        <time>2012-01-28T12:52:15Z</time>
      </trkpt>
      <trkpt lat="44.56725" lon="4.60243">
        <ele>208</ele>
        <time>2012-01-28T12:52:16Z</time>
      </trkpt>
      <trkpt lat="44.5672" lon="4.60221">
        <ele>209</ele>
        <time>2012-01-28T12:52:21Z</time>
      </trkpt>
      <trkpt lat="44.56716" lon="4.60164">
        <ele>210</ele>
        <time>2012-01-28T12:52:33Z</time>
      </trkpt>
      <trkpt lat="44.56713" lon="4.60124">
        <ele>210</ele>
        <time>2012-01-28T12:52:43Z</time>
      </trkpt>
      <trkpt lat="44.56713" lon="4.60102">
        <ele>210</ele>
        <time>2012-01-28T12:52:50Z</time>
      </trkpt>
      <trkpt lat="44.56713" lon="4.60093">
        <ele>209</ele>
        <time>2012-01-28T12:52:58Z</time>
      </trkpt>
      <trkpt lat="44.56713" lon="4.60093">
        <ele>208</ele>
        <time>2012-01-28T12:53:32Z</time>
      </trkpt>
      <trkpt lat="44.56716" lon="4.60085">
        <ele>208</ele>
        <time>2012-01-28T12:53:41Z</time>
      </trkpt>
      <trkpt lat="44.56716" lon="4.60084">
        <ele>208</ele>
        <time>2012-01-28T12:53:59Z</time>
      </trkpt>
      <trkpt lat="44.56691" lon="4.60085">
        <ele>209</ele>
        <time>2012-01-28T12:54:03Z</time>
      </trkpt>
      <trkpt lat="44.56642" lon="4.6009">
        <ele>207</ele>
        <time>2012-01-28T12:54:13Z</time>
      </trkpt>
      <trkpt lat="44.56598" lon="4.60095">
        <ele>206</ele>
        <time>2012-01-28T12:54:20Z</time>
      </trkpt>
      <trkpt lat="44.56552" lon="4.60108">
        <ele>204</ele>
        <time>2012-01-28T12:54:26Z</time>
      </trkpt>
      <trkpt lat="44.56522" lon="4.60115">
        <ele>202</ele>
        <time>2012-01-28T12:54:31Z</time>
      </trkpt>
      <trkpt lat="44.56518" lon="4.60129">
        <ele>203</ele>
        <time>2012-01-28T12:54:38Z</time>
      </trkpt>
      <trkpt lat="44.56508" lon="4.60119">
        <ele>202</ele>
        <time>2012-01-28T12:56:49Z</time>
      </trkpt>
      <trkpt lat="44.5649" lon="4.60117">
        <ele>202</ele>
        <time>2012-01-28T12:56:53Z</time>
      </trkpt>
      <trkpt lat="44.56436" lon="4.60111">
        <ele>200</ele>
        <time>2012-01-28T12:57:04Z</time>
      </trkpt>
      <trkpt lat="44.56375" lon="4.60102">
        <ele>198</ele>
        <time>2012-01-28T12:57:14Z</time>
      </trkpt>
      <trkpt lat="44.56313" lon="4.60094">
        <ele>196</ele>
        <time>2012-01-28T12:57:23Z</time>
      </trkpt>
      <trkpt lat="44.56278" lon="4.6008">
        <ele>195</ele>
        <time>2012-01-28T12:57:29Z</time>
      </trkpt>
      <trkpt lat="44.56278" lon="4.6008">
        <ele>195</ele>
        <time>2012-01-28T12:57:33Z</time>
      </trkpt>
      <trkpt lat="44.56275" lon="4.60116">
        <ele>195</ele>
        <time>2012-01-28T12:57:40Z</time>
      </trkpt>
      <trkpt lat="44.56274" lon="4.60125">
        <ele>195</ele>
        <time>2012-01-28T12:57:43Z</time>
      </trkpt>
      <trkpt lat="44.56274" lon="4.60129">
        <ele>195</ele>
        <time>2012-01-28T12:57:50Z</time>
      </trkpt>
      <trkpt lat="44.56274" lon="4.60135">
        <ele>195</ele>
        <time>2012-01-28T12:58:21Z</time>
      </trkpt>
      <trkpt lat="44.56273" lon="4.60137">
        <ele>195</ele>
        <time>2012-01-28T12:58:22Z</time>
      </trkpt>
      <trkpt lat="44.56265" lon="4.6016">
        <ele>193</ele>
        <time>2012-01-28T12:58:27Z</time>
      </trkpt>
      <trkpt lat="44.56255" lon="4.60179">
        <ele>191</ele>
        <time>2012-01-28T12:58:30Z</time>
      </trkpt>
      <trkpt lat="44.56235" lon="4.60207">
        <ele>189</ele>
        <time>2012-01-28T12:58:34Z</time>
      </trkpt>
      <trkpt lat="44.56229" lon="4.60214">
        <ele>188</ele>
        <time>2012-01-28T12:58:35Z</time>
      </trkpt>
      <trkpt lat="44.56173" lon="4.60205">
        <ele>185</ele>
        <time>2012-01-28T12:58:38Z</time>
      </trkpt>
      <trkpt lat="44.56208" lon="4.6022">
        <ele>183</ele>
        <time>2012-01-28T12:58:43Z</time>
      </trkpt>
      <trkpt lat="44.56207" lon="4.60217">
        <ele>183</ele>
        <time>2012-01-28T12:58:45Z</time>
      </trkpt>
      <trkpt lat="44.56203" lon="4.60212">
        <ele>183</ele>
        <time>2012-01-28T12:58:50Z</time>
      </trkpt>
      <trkpt lat="44.562" lon="4.60211">
        <ele>184</ele>
        <time>2012-01-28T12:58:54Z</time>
      </trkpt>
      <trkpt lat="44.56183" lon="4.60201">
        <ele>184</ele>
        <time>2012-01-28T12:59:03Z</time>
      </trkpt>
      <trkpt lat="44.56174" lon="4.60201">
        <ele>184</ele>
        <time>2012-01-28T12:59:05Z</time>
      </trkpt>
      <trkpt lat="44.56145" lon="4.60222">
        <ele>184</ele>
        <time>2012-01-28T12:59:13Z</time>
      </trkpt>
      <trkpt lat="44.56127" lon="4.60238">
        <ele>186</ele>
        <time>2012-01-28T12:59:20Z</time>
      </trkpt>
      <trkpt lat="44.56105" lon="4.60246">
        <ele>186</ele>
        <time>2012-01-28T12:59:28Z</time>
      </trkpt>
      <trkpt lat="44.56081" lon="4.60253">
        <ele>187</ele>
        <time>2012-01-28T12:59:36Z</time>
      </trkpt>
      <trkpt lat="44.56047" lon="4.60263">
        <ele>186</ele>
        <time>2012-01-28T12:59:45Z</time>
      </trkpt>
      <trkpt lat="44.56008" lon="4.60267">
        <ele>186</ele>
        <time>2012-01-28T12:59:54Z</time>
      </trkpt>
      <trkpt lat="44.55974" lon="4.60265">
        <ele>186</ele>
        <time>2012-01-28T13:00:03Z</time>
      </trkpt>
      <trkpt lat="44.55948" lon="4.60257">
        <ele>186</ele>
        <time>2012-01-28T13:00:10Z</time>
      </trkpt>
      <trkpt lat="44.55928" lon="4.6025">
        <ele>185</ele>
        <time>2012-01-28T13:00:15Z</time>
      </trkpt>
      <trkpt lat="44.55884" lon="4.6025">
        <ele>184</ele>
        <time>2012-01-28T13:00:24Z</time>
      </trkpt>
      <trkpt lat="44.55851" lon="4.6025">
        <ele>184</ele>
        <time>2012-01-28T13:00:32Z</time>
      </trkpt>
      <trkpt lat="44.55839" lon="4.6025">
        <ele>183</ele>
        <time>2012-01-28T13:00:37Z</time>
      </trkpt>
      <trkpt lat="44.55822" lon="4.6024">
        <ele>184</ele>
        <time>2012-01-28T13:00:45Z</time>
      </trkpt>
      <trkpt lat="44.55818" lon="4.60239">
        <ele>184</ele>
        <time>2012-01-28T13:00:48Z</time>
      </trkpt>
      <trkpt lat="44.55821" lon="4.60239">
        <ele>184</ele>
        <time>2012-01-28T13:00:52Z</time>
      </trkpt>
      <trkpt lat="44.55823" lon="4.6024">
        <ele>184</ele>
        <time>2012-01-28T13:01:00Z</time>
      </trkpt>
      <trkpt lat="44.55823" lon="4.6024">
        <ele>184</ele>
        <time>2012-01-28T13:01:18Z</time>
      </trkpt>
      <trkpt lat="44.55823" lon="4.6024">
        <ele>184</ele>
        <time>2012-01-28T13:01:41Z</time>
      </trkpt>
      <trkpt lat="44.55823" lon="4.6024">
        <ele>184</ele>
        <time>2012-01-28T13:02:22Z</time>
      </trkpt>
      <trkpt lat="44.55809" lon="4.60239">
        <ele>183</ele>
        <time>2012-01-28T13:02:29Z</time>
      </trkpt>
      <trkpt lat="44.55794" lon="4.60259">
        <ele>183</ele>
        <time>2012-01-28T13:02:35Z</time>
      </trkpt>
      <trkpt lat="44.55786" lon="4.60271">
        <ele>182</ele>
        <time>2012-01-28T13:02:40Z</time>
      </trkpt>
      <trkpt lat="44.55761" lon="4.6028">
        <ele>182</ele>
        <time>2012-01-28T13:02:46Z</time>
      </trkpt>
      <trkpt lat="44.55756" lon="4.60286">
        <ele>182</ele>
        <time>2012-01-28T13:02:50Z</time>
      </trkpt>
      <trkpt lat="44.55735" lon="4.60273">
        <ele>180</ele>
        <time>2012-01-28T13:02:55Z</time>
      </trkpt>
      <trkpt lat="44.55723" lon="4.60274">
        <ele>179</ele>
        <time>2012-01-28T13:02:57Z</time>
      </trkpt>
      <trkpt lat="44.55687" lon="4.6028">
        <ele>177</ele>
        <time>2012-01-28T13:03:02Z</time>
      </trkpt>
      <trkpt lat="44.55662" lon="4.60276">
        <ele>175</ele>
        <time>2012-01-28T13:03:05Z</time>
      </trkpt>
      <trkpt lat="44.55639" lon="4.60272">
        <ele>174</ele>
        <time>2012-01-28T13:03:08Z</time>
      </trkpt>
      <trkpt lat="44.55623" lon="4.60268">
        <ele>174</ele>
        <time>2012-01-28T13:03:11Z</time>
      </trkpt>
      <trkpt lat="44.55612" lon="4.60267">
        <ele>173</ele>
        <time>2012-01-28T13:03:16Z</time>
      </trkpt>
      <trkpt lat="44.55593" lon="4.60265">
        <ele>172</ele>
        <time>2012-01-28T13:03:21Z</time>
      </trkpt>
      <trkpt lat="44.55578" lon="4.60263">
        <ele>172</ele>
        <time>2012-01-28T13:03:27Z</time>
      </trkpt>
      <trkpt lat="44.55578" lon="4.60263">
        <ele>171</ele>
        <time>2012-01-28T13:03:31Z</time>
      </trkpt>
      <trkpt lat="44.55578" lon="4.60263">
        <ele>172</ele>
        <time>2012-01-28T13:03:35Z</time>
      </trkpt>
      <trkpt lat="44.5553" lon="4.60234">
        <ele>172</ele>
        <time>2012-01-28T13:03:42Z</time>
      </trkpt>
      <trkpt lat="44.55517" lon="4.60218">
        <ele>173</ele>
        <time>2012-01-28T13:03:48Z</time>
      </trkpt>
      <trkpt lat="44.55514" lon="4.60213">
        <ele>172</ele>
        <time>2012-01-28T13:03:50Z</time>
      </trkpt>
      <trkpt lat="44.55502" lon="4.60216">
        <ele>172</ele>
        <time>2012-01-28T13:03:55Z</time>
      </trkpt>
      <trkpt lat="44.55488" lon="4.60227">
        <ele>171</ele>
        <time>2012-01-28T13:04:04Z</time>
      </trkpt>
      <trkpt lat="44.55486" lon="4.60233">
        <ele>171</ele>
        <time>2012-01-28T13:04:07Z</time>
      </trkpt>
      <trkpt lat="44.55488" lon="4.60226">
        <ele>172</ele>
        <time>2012-01-28T13:04:15Z</time>
      </trkpt>
      <trkpt lat="44.55494" lon="4.60216">
        <ele>170</ele>
        <time>2012-01-28T13:04:23Z</time>
      </trkpt>
      <trkpt lat="44.55495" lon="4.6021">
        <ele>169</ele>
        <time>2012-01-28T13:04:25Z</time>
      </trkpt>
      <trkpt lat="44.55491" lon="4.60193">
        <ele>169</ele>
        <time>2012-01-28T13:04:34Z</time>
      </trkpt>
      <trkpt lat="44.55492" lon="4.60189">
        <ele>169</ele>
        <time>2012-01-28T13:04:36Z</time>
      </trkpt>
      <trkpt lat="44.55495" lon="4.60184">
        <ele>169</ele>
        <time>2012-01-28T13:04:39Z</time>
      </trkpt>
      <trkpt lat="44.55499" lon="4.60166">
        <ele>170</ele>
        <time>2012-01-28T13:04:46Z</time>
      </trkpt>
      <trkpt lat="44.55502" lon="4.60153">
        <ele>172</ele>
        <time>2012-01-28T13:04:54Z</time>
      </trkpt>
      <trkpt lat="44.55503" lon="4.60145">
        <ele>172</ele>
        <time>2012-01-28T13:05:01Z</time>
      </trkpt>
      <trkpt lat="44.55519" lon="4.60123">
        <ele>173</ele>
        <time>2012-01-28T13:05:12Z</time>
      </trkpt>
      <trkpt lat="44.55524" lon="4.60118">
        <ele>173</ele>
        <time>2012-01-28T13:05:17Z</time>
      </trkpt>
      <trkpt lat="44.55529" lon="4.60111">
        <ele>173</ele>
        <time>2012-01-28T13:05:24Z</time>
      </trkpt>
      <trkpt lat="44.55531" lon="4.60107">
        <ele>173</ele>
        <time>2012-01-28T13:05:27Z</time>
      </trkpt>
      <trkpt lat="44.5554" lon="4.60094">
        <ele>173</ele>
        <time>2012-01-28T13:05:34Z</time>
      </trkpt>
      <trkpt lat="44.55552" lon="4.60076">
        <ele>173</ele>
        <time>2012-01-28T13:05:44Z</time>
      </trkpt>
      <trkpt lat="44.55553" lon="4.60073">
        <ele>173</ele>
        <time>2012-01-28T13:05:45Z</time>
      </trkpt>
      <trkpt lat="44.55555" lon="4.60065">
        <ele>173</ele>
        <time>2012-01-28T13:05:49Z</time>
      </trkpt>
      <trkpt lat="44.55569" lon="4.60034">
        <ele>174</ele>
        <time>2012-01-28T13:06:00Z</time>
      </trkpt>
      <trkpt lat="44.55571" lon="4.60031">
        <ele>174</ele>
        <time>2012-01-28T13:06:01Z</time>
      </trkpt>
      <trkpt lat="44.55584" lon="4.6">
        <ele>174</ele>
        <time>2012-01-28T13:06:11Z</time>
      </trkpt>
      <trkpt lat="44.55601" lon="4.59973">
        <ele>175</ele>
        <time>2012-01-28T13:06:21Z</time>
      </trkpt>
      <trkpt lat="44.55619" lon="4.59945">
        <ele>176</ele>
        <time>2012-01-28T13:06:32Z</time>
      </trkpt>
      <trkpt lat="44.55635" lon="4.59918">
        <ele>176</ele>
        <time>2012-01-28T13:06:42Z</time>
      </trkpt>
      <trkpt lat="44.55651" lon="4.59892">
        <ele>177</ele>
        <time>2012-01-28T13:06:51Z</time>
      </trkpt>
      <trkpt lat="44.55666" lon="4.59867">
        <ele>177</ele>
        <time>2012-01-28T13:06:58Z</time>
      </trkpt>
      <trkpt lat="44.55673" lon="4.59851">
        <ele>177</ele>
        <time>2012-01-28T13:07:04Z</time>
      </trkpt>
      <trkpt lat="44.55684" lon="4.5982">
        <ele>177</ele>
        <time>2012-01-28T13:07:10Z</time>
      </trkpt>
      <trkpt lat="44.55693" lon="4.59785">
        <ele>177</ele>
        <time>2012-01-28T13:07:18Z</time>
      </trkpt>
      <trkpt lat="44.55703" lon="4.59754">
        <ele>178</ele>
        <time>2012-01-28T13:07:26Z</time>
      </trkpt>
      <trkpt lat="44.55704" lon="4.59743">
        <ele>178</ele>
        <time>2012-01-28T13:07:29Z</time>
      </trkpt>
      <trkpt lat="44.55696" lon="4.59731">
        <ele>178</ele>
        <time>2012-01-28T13:07:34Z</time>
      </trkpt>
      <trkpt lat="44.55686" lon="4.59726">
        <ele>178</ele>
        <time>2012-01-28T13:07:41Z</time>
      </trkpt>
      <trkpt lat="44.55678" lon="4.59737">
        <ele>179</ele>
        <time>2012-01-28T13:07:49Z</time>
      </trkpt>
      <trkpt lat="44.55676" lon="4.5974">
        <ele>179</ele>
        <time>2012-01-28T13:07:51Z</time>
      </trkpt>
      <trkpt lat="44.55672" lon="4.59744">
        <ele>179</ele>
        <time>2012-01-28T13:07:55Z</time>
      </trkpt>
      <trkpt lat="44.55668" lon="4.59753">
        <ele>180</ele>
        <time>2012-01-28T13:08:07Z</time>
      </trkpt>
      <trkpt lat="44.55667" lon="4.59754">
        <ele>181</ele>
        <time>2012-01-28T13:08:46Z</time>
      </trkpt>
      <trkpt lat="44.55662" lon="4.59757">
        <ele>181</ele>
        <time>2012-01-28T13:08:49Z</time>
      </trkpt>
      <trkpt lat="44.55648" lon="4.59767">
        <ele>183</ele>
        <time>2012-01-28T13:08:56Z</time>
      </trkpt>
      <trkpt lat="44.55632" lon="4.59773">
        <ele>184</ele>
        <time>2012-01-28T13:09:04Z</time>
      </trkpt>
      <trkpt lat="44.5562" lon="4.59774">
        <ele>186</ele>
        <time>2012-01-28T13:09:11Z</time>
      </trkpt>
      <trkpt lat="44.55608" lon="4.5978">
        <ele>187</ele>
        <time>2012-01-28T13:09:19Z</time>
      </trkpt>
      <trkpt lat="44.55607" lon="4.5978">
        <ele>187</ele>
        <time>2012-01-28T13:09:21Z</time>
      </trkpt>
      <trkpt lat="44.55607" lon="4.59777">
        <ele>188</ele>
        <time>2012-01-28T13:09:25Z</time>
      </trkpt>
      <trkpt lat="44.55618" lon="4.59797">
        <ele>187</ele>
        <time>2012-01-28T13:09:32Z</time>
      </trkpt>
      <trkpt lat="44.55607" lon="4.59807">
        <ele>188</ele>
        <time>2012-01-28T13:09:36Z</time>
      </trkpt>
      <trkpt lat="44.55604" lon="4.59808">
        <ele>188</ele>
        <time>2012-01-28T13:09:37Z</time>
      </trkpt>
      <trkpt lat="44.556" lon="4.59804">
        <ele>189</ele>
        <time>2012-01-28T13:09:42Z</time>
      </trkpt>
      <trkpt lat="44.556" lon="4.59795">
        <ele>190</ele>
        <time>2012-01-28T13:09:48Z</time>
      </trkpt>
      <trkpt lat="44.55588" lon="4.59772">
        <ele>194</ele>
        <time>2012-01-28T13:09:59Z</time>
      </trkpt>
      <trkpt lat="44.55586" lon="4.59767">
        <ele>195</ele>
        <time>2012-01-28T13:10:01Z</time>
      </trkpt>
      <trkpt lat="44.5557" lon="4.59754">
        <ele>196</ele>
        <time>2012-01-28T13:10:08Z</time>
      </trkpt>
      <trkpt lat="44.55534" lon="4.59759">
        <ele>198</ele>
        <time>2012-01-28T13:10:18Z</time>
      </trkpt>
      <trkpt lat="44.55526" lon="4.59757">
        <ele>199</ele>
        <time>2012-01-28T13:10:22Z</time>
      </trkpt>
      <trkpt lat="44.55525" lon="4.59757">
        <ele>199</ele>
        <time>2012-01-28T13:10:25Z</time>
      </trkpt>
      <trkpt lat="44.55506" lon="4.59759">
        <ele>200</ele>
        <time>2012-01-28T13:10:33Z</time>
      </trkpt>
      <trkpt lat="44.55489" lon="4.5976">
        <ele>201</ele>
        <time>2012-01-28T13:10:41Z</time>
      </trkpt>
      <trkpt lat="44.55473" lon="4.5976">
        <ele>201</ele>
        <time>2012-01-28T13:10:50Z</time>
      </trkpt>
      <trkpt lat="44.55472" lon="4.59759">
        <ele>202</ele>
        <time>2012-01-28T13:10:59Z</time>
      </trkpt>
      <trkpt lat="44.55472" lon="4.59759">
        <ele>202</ele>
        <time>2012-01-28T13:11:47Z</time>
      </trkpt>
      <trkpt lat="44.55473" lon="4.59778">
        <ele>202</ele>
        <time>2012-01-28T13:11:53Z</time>
      </trkpt>
      <trkpt lat="44.55473" lon="4.59778">
        <ele>202</ele>
        <time>2012-01-28T13:11:55Z</time>
      </trkpt>
      <trkpt lat="44.55473" lon="4.59778">
        <ele>201</ele>
        <time>2012-01-28T13:11:59Z</time>
      </trkpt>
      <trkpt lat="44.55464" lon="4.59789">
        <ele>201</ele>
        <time>2012-01-28T13:12:02Z</time>
      </trkpt>
      <trkpt lat="44.55456" lon="4.59797">
        <ele>200</ele>
        <time>2012-01-28T13:12:05Z</time>
      </trkpt>
      <trkpt lat="44.55406" lon="4.59746">
        <ele>200</ele>
        <time>2012-01-28T13:12:10Z</time>
      </trkpt>
      <trkpt lat="44.55359" lon="4.59747">
        <ele>200</ele>
        <time>2012-01-28T13:12:18Z</time>
      </trkpt>
      <trkpt lat="44.55344" lon="4.59736">
        <ele>200</ele>
        <time>2012-01-28T13:12:22Z</time>
      </trkpt>
      <trkpt lat="44.55343" lon="4.5973">
        <ele>200</ele>
        <time>2012-01-28T13:12:23Z</time>
      </trkpt>
      <trkpt lat="44.5534" lon="4.59707">
        <ele>200</ele>
        <time>2012-01-28T13:12:27Z</time>
      </trkpt>
      <trkpt lat="44.55339" lon="4.59703">
        <ele>199</ele>
        <time>2012-01-28T13:12:33Z</time>
      </trkpt>
    </trkseg>
  </trk>
</gpx>